<?xml version="1.0" encoding="UTF-8" standalone="no" ?>
<gpx xmlns="http://www.topografix.com/GPX/1/1" xmlns:xsi="http://www.w3.org/2001/XMLSchema-instance" xsi:schemaLocation="http://www.topografix.com/GPX/1/1 http://www.topografix.com/GPX/1/1/gpx.xsd" version="1.1" creator="VisuGPX - https://www.visugpx.com">
  <metadata>
    <name>174_Circuit de 74 km Les Herbiers_Les Herbiers édité par cth85.com</name>
    <desc><![CDATA[Circuit de 74 km passant par:
Les Herbiers
D23 Saint Paul en Pareds
D23 Saint Prouant
D23 Monsireigne
D23 Chavagnes les Redoux
D23 Bazoges en Pareds
D43 sur 1 km, à gauche St Hilaire du Bois
D31 La Jaudonnière
D31 Saint Philbert du Pont Charrault
D31 sur 1,5 km, à droite St Mars des Prés
Puybelliard
la sangle, D113E Mouchamps
le gué jourdain, la patte, la drapelière
la comaillère, le bois joli d'ardelay
Ardelay
Les Herbiers]]></desc>
  </metadata>
  <trk>
    <name><![CDATA[15493632-74_174]]></name>
    <extensions>
      <line xmlns="http://www.topografix.com/GPX/gpx_style/0/2">
        <color>0000FF</color>
        <width>4</width>
      </line>
    </extensions>
    <trkseg>
      <trkpt lat="46.86375" lon="-1.0057">
        <ele>120</ele>
        <time>2022-09-05T09:25:37Z</time>
      </trkpt>
      <trkpt lat="46.86335" lon="-1.00614">
        <ele>119</ele>
        <time>2022-09-05T09:25:46Z</time>
      </trkpt>
      <trkpt lat="46.86315" lon="-1.00632">
        <ele>119</ele>
        <time>2022-09-05T09:25:50Z</time>
      </trkpt>
      <trkpt lat="46.8627" lon="-1.00662">
        <ele>118</ele>
        <time>2022-09-05T09:25:59Z</time>
      </trkpt>
      <trkpt lat="46.86234" lon="-1.00681">
        <ele>117</ele>
        <time>2022-09-05T09:26:06Z</time>
      </trkpt>
      <trkpt lat="46.86182" lon="-1.00705">
        <ele>116</ele>
        <time>2022-09-05T09:26:15Z</time>
      </trkpt>
      <trkpt lat="46.86138" lon="-1.00732">
        <ele>116</ele>
        <time>2022-09-05T09:26:24Z</time>
      </trkpt>
      <trkpt lat="46.86094" lon="-1.00769">
        <ele>115</ele>
        <time>2022-09-05T09:26:33Z</time>
      </trkpt>
      <trkpt lat="46.86055" lon="-1.00815">
        <ele>114</ele>
        <time>2022-09-05T09:26:42Z</time>
      </trkpt>
      <trkpt lat="46.85999" lon="-1.00892">
        <ele>112</ele>
        <time>2022-09-05T09:26:56Z</time>
      </trkpt>
      <trkpt lat="46.85963" lon="-1.00951">
        <ele>113</ele>
        <time>2022-09-05T09:27:05Z</time>
      </trkpt>
      <trkpt lat="46.85957" lon="-1.00972">
        <ele>113</ele>
        <time>2022-09-05T09:27:08Z</time>
      </trkpt>
      <trkpt lat="46.85958" lon="-1.00977">
        <ele>113</ele>
        <time>2022-09-05T09:27:09Z</time>
      </trkpt>
      <trkpt lat="46.85957" lon="-1.00982">
        <ele>113</ele>
        <time>2022-09-05T09:27:09Z</time>
      </trkpt>
      <trkpt lat="46.85954" lon="-1.00985">
        <ele>113</ele>
        <time>2022-09-05T09:27:10Z</time>
      </trkpt>
      <trkpt lat="46.8595" lon="-1.00985">
        <ele>113</ele>
        <time>2022-09-05T09:27:11Z</time>
      </trkpt>
      <trkpt lat="46.85946" lon="-1.00979">
        <ele>113</ele>
        <time>2022-09-05T09:27:12Z</time>
      </trkpt>
      <trkpt lat="46.85931" lon="-1.00971">
        <ele>113</ele>
        <time>2022-09-05T09:27:14Z</time>
      </trkpt>
      <trkpt lat="46.85879" lon="-1.00946">
        <ele>113</ele>
        <time>2022-09-05T09:27:24Z</time>
      </trkpt>
      <trkpt lat="46.85858" lon="-1.00941">
        <ele>113</ele>
        <time>2022-09-05T09:27:28Z</time>
      </trkpt>
      <trkpt lat="46.85854" lon="-1.00943">
        <ele>113</ele>
        <time>2022-09-05T09:27:29Z</time>
      </trkpt>
      <trkpt lat="46.85846" lon="-1.00942">
        <ele>113</ele>
        <time>2022-09-05T09:27:30Z</time>
      </trkpt>
      <trkpt lat="46.85839" lon="-1.00934">
        <ele>113</ele>
        <time>2022-09-05T09:27:32Z</time>
      </trkpt>
      <trkpt lat="46.85837" lon="-1.00923">
        <ele>113</ele>
        <time>2022-09-05T09:27:33Z</time>
      </trkpt>
      <trkpt lat="46.85838" lon="-1.00917">
        <ele>113</ele>
        <time>2022-09-05T09:27:34Z</time>
      </trkpt>
      <trkpt lat="46.85689" lon="-1.0083">
        <ele>112</ele>
        <time>2022-09-05T09:28:02Z</time>
      </trkpt>
      <trkpt lat="46.85562" lon="-1.00711">
        <ele>108</ele>
        <time>2022-09-05T09:28:29Z</time>
      </trkpt>
      <trkpt lat="46.85539" lon="-1.00693">
        <ele>108</ele>
        <time>2022-09-05T09:28:34Z</time>
      </trkpt>
      <trkpt lat="46.85483" lon="-1.00655">
        <ele>108</ele>
        <time>2022-09-05T09:28:45Z</time>
      </trkpt>
      <trkpt lat="46.85442" lon="-1.00633">
        <ele>108</ele>
        <time>2022-09-05T09:28:53Z</time>
      </trkpt>
      <trkpt lat="46.8534" lon="-1.00587">
        <ele>109</ele>
        <time>2022-09-05T09:29:12Z</time>
      </trkpt>
      <trkpt lat="46.85285" lon="-1.00572">
        <ele>110</ele>
        <time>2022-09-05T09:29:22Z</time>
      </trkpt>
      <trkpt lat="46.85261" lon="-1.00556">
        <ele>110</ele>
        <time>2022-09-05T09:29:26Z</time>
      </trkpt>
      <trkpt lat="46.85102" lon="-1.0044">
        <ele>110</ele>
        <time>2022-09-05T09:29:58Z</time>
      </trkpt>
      <trkpt lat="46.85042" lon="-1.00404">
        <ele>112</ele>
        <time>2022-09-05T09:30:09Z</time>
      </trkpt>
      <trkpt lat="46.84987" lon="-1.00387">
        <ele>113</ele>
        <time>2022-09-05T09:30:19Z</time>
      </trkpt>
      <trkpt lat="46.84956" lon="-1.00381">
        <ele>113</ele>
        <time>2022-09-05T09:30:25Z</time>
      </trkpt>
      <trkpt lat="46.84918" lon="-1.00379">
        <ele>114</ele>
        <time>2022-09-05T09:30:32Z</time>
      </trkpt>
      <trkpt lat="46.84873" lon="-1.0038">
        <ele>114</ele>
        <time>2022-09-05T09:30:40Z</time>
      </trkpt>
      <trkpt lat="46.84828" lon="-1.0039">
        <ele>115</ele>
        <time>2022-09-05T09:30:48Z</time>
      </trkpt>
      <trkpt lat="46.84792" lon="-1.004">
        <ele>115</ele>
        <time>2022-09-05T09:30:54Z</time>
      </trkpt>
      <trkpt lat="46.84793" lon="-1.00407">
        <ele>115</ele>
        <time>2022-09-05T09:30:55Z</time>
      </trkpt>
      <trkpt lat="46.84782" lon="-1.00414">
        <ele>116</ele>
        <time>2022-09-05T09:30:57Z</time>
      </trkpt>
      <trkpt lat="46.8478" lon="-1.00418">
        <ele>116</ele>
        <time>2022-09-05T09:30:58Z</time>
      </trkpt>
      <trkpt lat="46.84765" lon="-1.00426">
        <ele>116</ele>
        <time>2022-09-05T09:31:01Z</time>
      </trkpt>
      <trkpt lat="46.8475" lon="-1.0043">
        <ele>116</ele>
        <time>2022-09-05T09:31:04Z</time>
      </trkpt>
      <trkpt lat="46.84695" lon="-1.00451">
        <ele>114</ele>
        <time>2022-09-05T09:31:14Z</time>
      </trkpt>
      <trkpt lat="46.84623" lon="-1.00474">
        <ele>112</ele>
        <time>2022-09-05T09:31:27Z</time>
      </trkpt>
      <trkpt lat="46.8455" lon="-1.00485">
        <ele>111</ele>
        <time>2022-09-05T09:31:40Z</time>
      </trkpt>
      <trkpt lat="46.84531" lon="-1.00484">
        <ele>111</ele>
        <time>2022-09-05T09:31:43Z</time>
      </trkpt>
      <trkpt lat="46.84522" lon="-1.00487">
        <ele>111</ele>
        <time>2022-09-05T09:31:45Z</time>
      </trkpt>
      <trkpt lat="46.84505" lon="-1.005">
        <ele>111</ele>
        <time>2022-09-05T09:31:48Z</time>
      </trkpt>
      <trkpt lat="46.84496" lon="-1.00512">
        <ele>111</ele>
        <time>2022-09-05T09:31:50Z</time>
      </trkpt>
      <trkpt lat="46.84486" lon="-1.00515">
        <ele>111</ele>
        <time>2022-09-05T09:31:52Z</time>
      </trkpt>
      <trkpt lat="46.84479" lon="-1.00513">
        <ele>112</ele>
        <time>2022-09-05T09:31:53Z</time>
      </trkpt>
      <trkpt lat="46.84453" lon="-1.00495">
        <ele>112</ele>
        <time>2022-09-05T09:31:59Z</time>
      </trkpt>
      <trkpt lat="46.84435" lon="-1.0048">
        <ele>113</ele>
        <time>2022-09-05T09:32:02Z</time>
      </trkpt>
      <trkpt lat="46.83875" lon="-1.00435">
        <ele>125</ele>
        <time>2022-09-05T09:33:42Z</time>
      </trkpt>
      <trkpt lat="46.83871" lon="-1.00422">
        <ele>126</ele>
        <time>2022-09-05T09:33:44Z</time>
      </trkpt>
      <trkpt lat="46.83613" lon="-1.00403">
        <ele>129</ele>
        <time>2022-09-05T09:34:30Z</time>
      </trkpt>
      <trkpt lat="46.83506" lon="-1.00398">
        <ele>127</ele>
        <time>2022-09-05T09:34:49Z</time>
      </trkpt>
      <trkpt lat="46.83326" lon="-1.00377">
        <ele>126</ele>
        <time>2022-09-05T09:35:21Z</time>
      </trkpt>
      <trkpt lat="46.83152" lon="-1.00367">
        <ele>121</ele>
        <time>2022-09-05T09:35:52Z</time>
      </trkpt>
      <trkpt lat="46.82971" lon="-1.00352">
        <ele>114</ele>
        <time>2022-09-05T09:36:24Z</time>
      </trkpt>
      <trkpt lat="46.82942" lon="-1.00346">
        <ele>113</ele>
        <time>2022-09-05T09:36:29Z</time>
      </trkpt>
      <trkpt lat="46.82918" lon="-1.00337">
        <ele>112</ele>
        <time>2022-09-05T09:36:34Z</time>
      </trkpt>
      <trkpt lat="46.82896" lon="-1.00326">
        <ele>112</ele>
        <time>2022-09-05T09:36:38Z</time>
      </trkpt>
      <trkpt lat="46.8288" lon="-1.00315">
        <ele>112</ele>
        <time>2022-09-05T09:36:41Z</time>
      </trkpt>
      <trkpt lat="46.82843" lon="-1.00277">
        <ele>111</ele>
        <time>2022-09-05T09:36:49Z</time>
      </trkpt>
      <trkpt lat="46.82826" lon="-1.00254">
        <ele>110</ele>
        <time>2022-09-05T09:36:53Z</time>
      </trkpt>
      <trkpt lat="46.82796" lon="-1.00194">
        <ele>109</ele>
        <time>2022-09-05T09:37:02Z</time>
      </trkpt>
      <trkpt lat="46.82784" lon="-1.00163">
        <ele>109</ele>
        <time>2022-09-05T09:37:07Z</time>
      </trkpt>
      <trkpt lat="46.82675" lon="-0.99834">
        <ele>99</ele>
        <time>2022-09-05T09:37:51Z</time>
      </trkpt>
      <trkpt lat="46.82637" lon="-0.99724">
        <ele>95</ele>
        <time>2022-09-05T09:38:06Z</time>
      </trkpt>
      <trkpt lat="46.82619" lon="-0.9969">
        <ele>94</ele>
        <time>2022-09-05T09:38:11Z</time>
      </trkpt>
      <trkpt lat="46.826" lon="-0.99666">
        <ele>92</ele>
        <time>2022-09-05T09:38:16Z</time>
      </trkpt>
      <trkpt lat="46.8258" lon="-0.99653">
        <ele>91</ele>
        <time>2022-09-05T09:38:20Z</time>
      </trkpt>
      <trkpt lat="46.82566" lon="-0.99646">
        <ele>92</ele>
        <time>2022-09-05T09:38:22Z</time>
      </trkpt>
      <trkpt lat="46.82551" lon="-0.99642">
        <ele>92</ele>
        <time>2022-09-05T09:38:25Z</time>
      </trkpt>
      <trkpt lat="46.82422" lon="-0.99623">
        <ele>98</ele>
        <time>2022-09-05T09:38:48Z</time>
      </trkpt>
      <trkpt lat="46.82392" lon="-0.99616">
        <ele>99</ele>
        <time>2022-09-05T09:38:54Z</time>
      </trkpt>
      <trkpt lat="46.82369" lon="-0.99601">
        <ele>101</ele>
        <time>2022-09-05T09:38:58Z</time>
      </trkpt>
      <trkpt lat="46.82358" lon="-0.99589">
        <ele>103</ele>
        <time>2022-09-05T09:39:00Z</time>
      </trkpt>
      <trkpt lat="46.82347" lon="-0.99571">
        <ele>104</ele>
        <time>2022-09-05T09:39:03Z</time>
      </trkpt>
      <trkpt lat="46.82339" lon="-0.99555">
        <ele>106</ele>
        <time>2022-09-05T09:39:06Z</time>
      </trkpt>
      <trkpt lat="46.82317" lon="-0.99495">
        <ele>109</ele>
        <time>2022-09-05T09:39:14Z</time>
      </trkpt>
      <trkpt lat="46.82311" lon="-0.99486">
        <ele>109</ele>
        <time>2022-09-05T09:39:16Z</time>
      </trkpt>
      <trkpt lat="46.82303" lon="-0.99478">
        <ele>109</ele>
        <time>2022-09-05T09:39:17Z</time>
      </trkpt>
      <trkpt lat="46.82273" lon="-0.9946">
        <ele>109</ele>
        <time>2022-09-05T09:39:23Z</time>
      </trkpt>
      <trkpt lat="46.82259" lon="-0.99448">
        <ele>110</ele>
        <time>2022-09-05T09:39:26Z</time>
      </trkpt>
      <trkpt lat="46.8226" lon="-0.99367">
        <ele>113</ele>
        <time>2022-09-05T09:39:36Z</time>
      </trkpt>
      <trkpt lat="46.82254" lon="-0.99322">
        <ele>114</ele>
        <time>2022-09-05T09:39:41Z</time>
      </trkpt>
      <trkpt lat="46.8224" lon="-0.99256">
        <ele>117</ele>
        <time>2022-09-05T09:39:50Z</time>
      </trkpt>
      <trkpt lat="46.82208" lon="-0.99087">
        <ele>117</ele>
        <time>2022-09-05T09:40:11Z</time>
      </trkpt>
      <trkpt lat="46.82199" lon="-0.9907">
        <ele>116</ele>
        <time>2022-09-05T09:40:14Z</time>
      </trkpt>
      <trkpt lat="46.82189" lon="-0.99054">
        <ele>116</ele>
        <time>2022-09-05T09:40:17Z</time>
      </trkpt>
      <trkpt lat="46.82169" lon="-0.99033">
        <ele>114</ele>
        <time>2022-09-05T09:40:21Z</time>
      </trkpt>
      <trkpt lat="46.82155" lon="-0.99021">
        <ele>113</ele>
        <time>2022-09-05T09:40:24Z</time>
      </trkpt>
      <trkpt lat="46.82115" lon="-0.98994">
        <ele>111</ele>
        <time>2022-09-05T09:40:32Z</time>
      </trkpt>
      <trkpt lat="46.82035" lon="-0.98948">
        <ele>108</ele>
        <time>2022-09-05T09:40:47Z</time>
      </trkpt>
      <trkpt lat="46.81974" lon="-0.98906">
        <ele>106</ele>
        <time>2022-09-05T09:40:59Z</time>
      </trkpt>
      <trkpt lat="46.81762" lon="-0.98767">
        <ele>113</ele>
        <time>2022-09-05T09:41:40Z</time>
      </trkpt>
      <trkpt lat="46.81728" lon="-0.9875">
        <ele>113</ele>
        <time>2022-09-05T09:41:47Z</time>
      </trkpt>
      <trkpt lat="46.81424" lon="-0.98649">
        <ele>102</ele>
        <time>2022-09-05T09:42:42Z</time>
      </trkpt>
      <trkpt lat="46.81029" lon="-0.98519">
        <ele>105</ele>
        <time>2022-09-05T09:43:54Z</time>
      </trkpt>
      <trkpt lat="46.80976" lon="-0.985">
        <ele>107</ele>
        <time>2022-09-05T09:44:04Z</time>
      </trkpt>
      <trkpt lat="46.80931" lon="-0.9849">
        <ele>110</ele>
        <time>2022-09-05T09:44:12Z</time>
      </trkpt>
      <trkpt lat="46.8091" lon="-0.9849">
        <ele>111</ele>
        <time>2022-09-05T09:44:16Z</time>
      </trkpt>
      <trkpt lat="46.80887" lon="-0.98494">
        <ele>111</ele>
        <time>2022-09-05T09:44:20Z</time>
      </trkpt>
      <trkpt lat="46.80414" lon="-0.98636">
        <ele>105</ele>
        <time>2022-09-05T09:45:46Z</time>
      </trkpt>
      <trkpt lat="46.80372" lon="-0.9865">
        <ele>106</ele>
        <time>2022-09-05T09:45:53Z</time>
      </trkpt>
      <trkpt lat="46.80354" lon="-0.98653">
        <ele>106</ele>
        <time>2022-09-05T09:45:57Z</time>
      </trkpt>
      <trkpt lat="46.80338" lon="-0.98653">
        <ele>106</ele>
        <time>2022-09-05T09:45:59Z</time>
      </trkpt>
      <trkpt lat="46.8032" lon="-0.98647">
        <ele>107</ele>
        <time>2022-09-05T09:46:03Z</time>
      </trkpt>
      <trkpt lat="46.80019" lon="-0.98481">
        <ele>102</ele>
        <time>2022-09-05T09:47:00Z</time>
      </trkpt>
      <trkpt lat="46.79995" lon="-0.98465">
        <ele>101</ele>
        <time>2022-09-05T09:47:05Z</time>
      </trkpt>
      <trkpt lat="46.79973" lon="-0.98443">
        <ele>100</ele>
        <time>2022-09-05T09:47:09Z</time>
      </trkpt>
      <trkpt lat="46.79952" lon="-0.98418">
        <ele>99</ele>
        <time>2022-09-05T09:47:14Z</time>
      </trkpt>
      <trkpt lat="46.79935" lon="-0.98393">
        <ele>99</ele>
        <time>2022-09-05T09:47:19Z</time>
      </trkpt>
      <trkpt lat="46.79919" lon="-0.98374">
        <ele>99</ele>
        <time>2022-09-05T09:47:22Z</time>
      </trkpt>
      <trkpt lat="46.79896" lon="-0.98357">
        <ele>97</ele>
        <time>2022-09-05T09:47:27Z</time>
      </trkpt>
      <trkpt lat="46.79871" lon="-0.9835">
        <ele>96</ele>
        <time>2022-09-05T09:47:31Z</time>
      </trkpt>
      <trkpt lat="46.79857" lon="-0.9835">
        <ele>95</ele>
        <time>2022-09-05T09:47:34Z</time>
      </trkpt>
      <trkpt lat="46.79843" lon="-0.98353">
        <ele>95</ele>
        <time>2022-09-05T09:47:36Z</time>
      </trkpt>
      <trkpt lat="46.79806" lon="-0.98366">
        <ele>94</ele>
        <time>2022-09-05T09:47:43Z</time>
      </trkpt>
      <trkpt lat="46.79779" lon="-0.9837">
        <ele>94</ele>
        <time>2022-09-05T09:47:48Z</time>
      </trkpt>
      <trkpt lat="46.79758" lon="-0.98369">
        <ele>94</ele>
        <time>2022-09-05T09:47:52Z</time>
      </trkpt>
      <trkpt lat="46.7972" lon="-0.98354">
        <ele>94</ele>
        <time>2022-09-05T09:47:59Z</time>
      </trkpt>
      <trkpt lat="46.79679" lon="-0.98329">
        <ele>96</ele>
        <time>2022-09-05T09:48:07Z</time>
      </trkpt>
      <trkpt lat="46.79661" lon="-0.98314">
        <ele>97</ele>
        <time>2022-09-05T09:48:10Z</time>
      </trkpt>
      <trkpt lat="46.7964" lon="-0.98287">
        <ele>100</ele>
        <time>2022-09-05T09:48:15Z</time>
      </trkpt>
      <trkpt lat="46.79628" lon="-0.9827">
        <ele>101</ele>
        <time>2022-09-05T09:48:18Z</time>
      </trkpt>
      <trkpt lat="46.79606" lon="-0.98229">
        <ele>103</ele>
        <time>2022-09-05T09:48:25Z</time>
      </trkpt>
      <trkpt lat="46.7957" lon="-0.98156">
        <ele>106</ele>
        <time>2022-09-05T09:48:36Z</time>
      </trkpt>
      <trkpt lat="46.79557" lon="-0.98136">
        <ele>106</ele>
        <time>2022-09-05T09:48:39Z</time>
      </trkpt>
      <trkpt lat="46.79528" lon="-0.98102">
        <ele>107</ele>
        <time>2022-09-05T09:48:46Z</time>
      </trkpt>
      <trkpt lat="46.79472" lon="-0.98045">
        <ele>109</ele>
        <time>2022-09-05T09:48:58Z</time>
      </trkpt>
      <trkpt lat="46.79449" lon="-0.98012">
        <ele>110</ele>
        <time>2022-09-05T09:49:03Z</time>
      </trkpt>
      <trkpt lat="46.79412" lon="-0.97942">
        <ele>111</ele>
        <time>2022-09-05T09:49:14Z</time>
      </trkpt>
      <trkpt lat="46.79397" lon="-0.97902">
        <ele>111</ele>
        <time>2022-09-05T09:49:20Z</time>
      </trkpt>
      <trkpt lat="46.79384" lon="-0.97862">
        <ele>112</ele>
        <time>2022-09-05T09:49:25Z</time>
      </trkpt>
      <trkpt lat="46.79369" lon="-0.97808">
        <ele>113</ele>
        <time>2022-09-05T09:49:32Z</time>
      </trkpt>
      <trkpt lat="46.79362" lon="-0.97766">
        <ele>113</ele>
        <time>2022-09-05T09:49:37Z</time>
      </trkpt>
      <trkpt lat="46.79356" lon="-0.97672">
        <ele>113</ele>
        <time>2022-09-05T09:49:49Z</time>
      </trkpt>
      <trkpt lat="46.79349" lon="-0.97628">
        <ele>113</ele>
        <time>2022-09-05T09:49:54Z</time>
      </trkpt>
      <trkpt lat="46.79341" lon="-0.97595">
        <ele>113</ele>
        <time>2022-09-05T09:49:59Z</time>
      </trkpt>
      <trkpt lat="46.79314" lon="-0.9753">
        <ele>111</ele>
        <time>2022-09-05T09:50:08Z</time>
      </trkpt>
      <trkpt lat="46.79274" lon="-0.97455">
        <ele>110</ele>
        <time>2022-09-05T09:50:20Z</time>
      </trkpt>
      <trkpt lat="46.79255" lon="-0.97424">
        <ele>109</ele>
        <time>2022-09-05T09:50:25Z</time>
      </trkpt>
      <trkpt lat="46.79214" lon="-0.97365">
        <ele>109</ele>
        <time>2022-09-05T09:50:35Z</time>
      </trkpt>
      <trkpt lat="46.79163" lon="-0.97304">
        <ele>108</ele>
        <time>2022-09-05T09:50:47Z</time>
      </trkpt>
      <trkpt lat="46.79092" lon="-0.97225">
        <ele>105</ele>
        <time>2022-09-05T09:51:03Z</time>
      </trkpt>
      <trkpt lat="46.79046" lon="-0.97182">
        <ele>104</ele>
        <time>2022-09-05T09:51:12Z</time>
      </trkpt>
      <trkpt lat="46.79015" lon="-0.97156">
        <ele>105</ele>
        <time>2022-09-05T09:51:19Z</time>
      </trkpt>
      <trkpt lat="46.78917" lon="-0.97084">
        <ele>107</ele>
        <time>2022-09-05T09:51:38Z</time>
      </trkpt>
      <trkpt lat="46.78851" lon="-0.97046">
        <ele>108</ele>
        <time>2022-09-05T09:51:51Z</time>
      </trkpt>
      <trkpt lat="46.78772" lon="-0.97009">
        <ele>110</ele>
        <time>2022-09-05T09:52:05Z</time>
      </trkpt>
      <trkpt lat="46.78665" lon="-0.9697">
        <ele>117</ele>
        <time>2022-09-05T09:52:25Z</time>
      </trkpt>
      <trkpt lat="46.78612" lon="-0.96948">
        <ele>121</ele>
        <time>2022-09-05T09:52:35Z</time>
      </trkpt>
      <trkpt lat="46.78357" lon="-0.96774">
        <ele>121</ele>
        <time>2022-09-05T09:53:25Z</time>
      </trkpt>
      <trkpt lat="46.78338" lon="-0.96767">
        <ele>120</ele>
        <time>2022-09-05T09:53:28Z</time>
      </trkpt>
      <trkpt lat="46.78319" lon="-0.96764">
        <ele>120</ele>
        <time>2022-09-05T09:53:32Z</time>
      </trkpt>
      <trkpt lat="46.7823" lon="-0.96753">
        <ele>120</ele>
        <time>2022-09-05T09:53:48Z</time>
      </trkpt>
      <trkpt lat="46.78188" lon="-0.96734">
        <ele>121</ele>
        <time>2022-09-05T09:53:56Z</time>
      </trkpt>
      <trkpt lat="46.78104" lon="-0.96682">
        <ele>122</ele>
        <time>2022-09-05T09:54:12Z</time>
      </trkpt>
      <trkpt lat="46.78025" lon="-0.96653">
        <ele>124</ele>
        <time>2022-09-05T09:54:26Z</time>
      </trkpt>
      <trkpt lat="46.77879" lon="-0.96606">
        <ele>127</ele>
        <time>2022-09-05T09:54:53Z</time>
      </trkpt>
      <trkpt lat="46.77834" lon="-0.96582">
        <ele>127</ele>
        <time>2022-09-05T09:55:01Z</time>
      </trkpt>
      <trkpt lat="46.77793" lon="-0.96557">
        <ele>130</ele>
        <time>2022-09-05T09:55:09Z</time>
      </trkpt>
      <trkpt lat="46.77663" lon="-0.9644">
        <ele>134</ele>
        <time>2022-09-05T09:55:37Z</time>
      </trkpt>
      <trkpt lat="46.7761" lon="-0.96377">
        <ele>133</ele>
        <time>2022-09-05T09:55:49Z</time>
      </trkpt>
      <trkpt lat="46.7759" lon="-0.96355">
        <ele>132</ele>
        <time>2022-09-05T09:55:53Z</time>
      </trkpt>
      <trkpt lat="46.77576" lon="-0.96346">
        <ele>131</ele>
        <time>2022-09-05T09:55:56Z</time>
      </trkpt>
      <trkpt lat="46.77558" lon="-0.96337">
        <ele>131</ele>
        <time>2022-09-05T09:55:59Z</time>
      </trkpt>
      <trkpt lat="46.77527" lon="-0.96334">
        <ele>130</ele>
        <time>2022-09-05T09:56:05Z</time>
      </trkpt>
      <trkpt lat="46.775" lon="-0.96334">
        <ele>130</ele>
        <time>2022-09-05T09:56:10Z</time>
      </trkpt>
      <trkpt lat="46.77446" lon="-0.96343">
        <ele>129</ele>
        <time>2022-09-05T09:56:19Z</time>
      </trkpt>
      <trkpt lat="46.7735" lon="-0.96372">
        <ele>128</ele>
        <time>2022-09-05T09:56:37Z</time>
      </trkpt>
      <trkpt lat="46.77263" lon="-0.96389">
        <ele>124</ele>
        <time>2022-09-05T09:56:52Z</time>
      </trkpt>
      <trkpt lat="46.77234" lon="-0.9639">
        <ele>124</ele>
        <time>2022-09-05T09:56:57Z</time>
      </trkpt>
      <trkpt lat="46.77214" lon="-0.96386">
        <ele>124</ele>
        <time>2022-09-05T09:57:01Z</time>
      </trkpt>
      <trkpt lat="46.77197" lon="-0.96375">
        <ele>124</ele>
        <time>2022-09-05T09:57:04Z</time>
      </trkpt>
      <trkpt lat="46.77138" lon="-0.96322">
        <ele>120</ele>
        <time>2022-09-05T09:57:17Z</time>
      </trkpt>
      <trkpt lat="46.77111" lon="-0.96294">
        <ele>119</ele>
        <time>2022-09-05T09:57:23Z</time>
      </trkpt>
      <trkpt lat="46.76985" lon="-0.96149">
        <ele>111</ele>
        <time>2022-09-05T09:57:51Z</time>
      </trkpt>
      <trkpt lat="46.76953" lon="-0.96116">
        <ele>108</ele>
        <time>2022-09-05T09:57:58Z</time>
      </trkpt>
      <trkpt lat="46.76925" lon="-0.96091">
        <ele>107</ele>
        <time>2022-09-05T09:58:04Z</time>
      </trkpt>
      <trkpt lat="46.76907" lon="-0.96081">
        <ele>106</ele>
        <time>2022-09-05T09:58:07Z</time>
      </trkpt>
      <trkpt lat="46.76886" lon="-0.96075">
        <ele>107</ele>
        <time>2022-09-05T09:58:11Z</time>
      </trkpt>
      <trkpt lat="46.76863" lon="-0.96073">
        <ele>107</ele>
        <time>2022-09-05T09:58:15Z</time>
      </trkpt>
      <trkpt lat="46.76742" lon="-0.96075">
        <ele>110</ele>
        <time>2022-09-05T09:58:37Z</time>
      </trkpt>
      <trkpt lat="46.76697" lon="-0.96071">
        <ele>110</ele>
        <time>2022-09-05T09:58:45Z</time>
      </trkpt>
      <trkpt lat="46.76632" lon="-0.96059">
        <ele>110</ele>
        <time>2022-09-05T09:58:56Z</time>
      </trkpt>
      <trkpt lat="46.76596" lon="-0.96046">
        <ele>110</ele>
        <time>2022-09-05T09:59:03Z</time>
      </trkpt>
      <trkpt lat="46.76573" lon="-0.96028">
        <ele>110</ele>
        <time>2022-09-05T09:59:08Z</time>
      </trkpt>
      <trkpt lat="46.76509" lon="-0.9596">
        <ele>110</ele>
        <time>2022-09-05T09:59:22Z</time>
      </trkpt>
      <trkpt lat="46.76487" lon="-0.95941">
        <ele>110</ele>
        <time>2022-09-05T09:59:26Z</time>
      </trkpt>
      <trkpt lat="46.76465" lon="-0.95927">
        <ele>110</ele>
        <time>2022-09-05T09:59:31Z</time>
      </trkpt>
      <trkpt lat="46.76367" lon="-0.95882">
        <ele>110</ele>
        <time>2022-09-05T09:59:49Z</time>
      </trkpt>
      <trkpt lat="46.76326" lon="-0.95868">
        <ele>109</ele>
        <time>2022-09-05T09:59:56Z</time>
      </trkpt>
      <trkpt lat="46.76226" lon="-0.95845">
        <ele>107</ele>
        <time>2022-09-05T10:00:14Z</time>
      </trkpt>
      <trkpt lat="46.76221" lon="-0.95838">
        <ele>107</ele>
        <time>2022-09-05T10:00:16Z</time>
      </trkpt>
      <trkpt lat="46.76099" lon="-0.9596">
        <ele>103</ele>
        <time>2022-09-05T10:00:42Z</time>
      </trkpt>
      <trkpt lat="46.76082" lon="-0.95983">
        <ele>104</ele>
        <time>2022-09-05T10:00:46Z</time>
      </trkpt>
      <trkpt lat="46.76063" lon="-0.9602">
        <ele>105</ele>
        <time>2022-09-05T10:00:52Z</time>
      </trkpt>
      <trkpt lat="46.7607" lon="-0.9603">
        <ele>105</ele>
        <time>2022-09-05T10:00:53Z</time>
      </trkpt>
      <trkpt lat="46.76071" lon="-0.96044">
        <ele>105</ele>
        <time>2022-09-05T10:00:55Z</time>
      </trkpt>
      <trkpt lat="46.76069" lon="-0.96051">
        <ele>105</ele>
        <time>2022-09-05T10:00:56Z</time>
      </trkpt>
      <trkpt lat="46.76063" lon="-0.96059">
        <ele>105</ele>
        <time>2022-09-05T10:00:58Z</time>
      </trkpt>
      <trkpt lat="46.76055" lon="-0.96062">
        <ele>105</ele>
        <time>2022-09-05T10:00:59Z</time>
      </trkpt>
      <trkpt lat="46.76047" lon="-0.96057">
        <ele>105</ele>
        <time>2022-09-05T10:01:01Z</time>
      </trkpt>
      <trkpt lat="46.76042" lon="-0.96047">
        <ele>105</ele>
        <time>2022-09-05T10:01:02Z</time>
      </trkpt>
      <trkpt lat="46.75997" lon="-0.96096">
        <ele>107</ele>
        <time>2022-09-05T10:01:12Z</time>
      </trkpt>
      <trkpt lat="46.7598" lon="-0.96108">
        <ele>108</ele>
        <time>2022-09-05T10:01:15Z</time>
      </trkpt>
      <trkpt lat="46.75961" lon="-0.96118">
        <ele>108</ele>
        <time>2022-09-05T10:01:19Z</time>
      </trkpt>
      <trkpt lat="46.75937" lon="-0.96124">
        <ele>109</ele>
        <time>2022-09-05T10:01:23Z</time>
      </trkpt>
      <trkpt lat="46.75902" lon="-0.96127">
        <ele>110</ele>
        <time>2022-09-05T10:01:30Z</time>
      </trkpt>
      <trkpt lat="46.75885" lon="-0.96131">
        <ele>110</ele>
        <time>2022-09-05T10:01:33Z</time>
      </trkpt>
      <trkpt lat="46.75799" lon="-0.96166">
        <ele>111</ele>
        <time>2022-09-05T10:01:49Z</time>
      </trkpt>
      <trkpt lat="46.75786" lon="-0.96174">
        <ele>110</ele>
        <time>2022-09-05T10:01:51Z</time>
      </trkpt>
      <trkpt lat="46.75755" lon="-0.96199">
        <ele>109</ele>
        <time>2022-09-05T10:01:57Z</time>
      </trkpt>
      <trkpt lat="46.75669" lon="-0.96287">
        <ele>108</ele>
        <time>2022-09-05T10:02:16Z</time>
      </trkpt>
      <trkpt lat="46.75647" lon="-0.96302">
        <ele>107</ele>
        <time>2022-09-05T10:02:20Z</time>
      </trkpt>
      <trkpt lat="46.75563" lon="-0.96079">
        <ele>103</ele>
        <time>2022-09-05T10:02:51Z</time>
      </trkpt>
      <trkpt lat="46.75548" lon="-0.96044">
        <ele>103</ele>
        <time>2022-09-05T10:02:56Z</time>
      </trkpt>
      <trkpt lat="46.75529" lon="-0.96004">
        <ele>102</ele>
        <time>2022-09-05T10:03:02Z</time>
      </trkpt>
      <trkpt lat="46.7552" lon="-0.9598">
        <ele>102</ele>
        <time>2022-09-05T10:03:06Z</time>
      </trkpt>
      <trkpt lat="46.75507" lon="-0.95967">
        <ele>102</ele>
        <time>2022-09-05T10:03:08Z</time>
      </trkpt>
      <trkpt lat="46.75412" lon="-0.95891">
        <ele>99</ele>
        <time>2022-09-05T10:03:28Z</time>
      </trkpt>
      <trkpt lat="46.75388" lon="-0.95867">
        <ele>99</ele>
        <time>2022-09-05T10:03:33Z</time>
      </trkpt>
      <trkpt lat="46.75357" lon="-0.95816">
        <ele>98</ele>
        <time>2022-09-05T10:03:41Z</time>
      </trkpt>
      <trkpt lat="46.7535" lon="-0.95808">
        <ele>98</ele>
        <time>2022-09-05T10:03:43Z</time>
      </trkpt>
      <trkpt lat="46.75342" lon="-0.95811">
        <ele>97</ele>
        <time>2022-09-05T10:03:44Z</time>
      </trkpt>
      <trkpt lat="46.75338" lon="-0.9581">
        <ele>97</ele>
        <time>2022-09-05T10:03:45Z</time>
      </trkpt>
      <trkpt lat="46.75331" lon="-0.95802">
        <ele>97</ele>
        <time>2022-09-05T10:03:47Z</time>
      </trkpt>
      <trkpt lat="46.7533" lon="-0.95797">
        <ele>97</ele>
        <time>2022-09-05T10:03:47Z</time>
      </trkpt>
      <trkpt lat="46.7533" lon="-0.95786">
        <ele>97</ele>
        <time>2022-09-05T10:03:49Z</time>
      </trkpt>
      <trkpt lat="46.75336" lon="-0.95775">
        <ele>97</ele>
        <time>2022-09-05T10:03:50Z</time>
      </trkpt>
      <trkpt lat="46.75325" lon="-0.95755">
        <ele>97</ele>
        <time>2022-09-05T10:03:53Z</time>
      </trkpt>
      <trkpt lat="46.75288" lon="-0.95675">
        <ele>91</ele>
        <time>2022-09-05T10:04:05Z</time>
      </trkpt>
      <trkpt lat="46.75263" lon="-0.95631">
        <ele>88</ele>
        <time>2022-09-05T10:04:12Z</time>
      </trkpt>
      <trkpt lat="46.75248" lon="-0.9561">
        <ele>87</ele>
        <time>2022-09-05T10:04:16Z</time>
      </trkpt>
      <trkpt lat="46.75222" lon="-0.95582">
        <ele>85</ele>
        <time>2022-09-05T10:04:22Z</time>
      </trkpt>
      <trkpt lat="46.75172" lon="-0.95544">
        <ele>82</ele>
        <time>2022-09-05T10:04:32Z</time>
      </trkpt>
      <trkpt lat="46.75139" lon="-0.95505">
        <ele>82</ele>
        <time>2022-09-05T10:04:39Z</time>
      </trkpt>
      <trkpt lat="46.75113" lon="-0.95467">
        <ele>80</ele>
        <time>2022-09-05T10:04:46Z</time>
      </trkpt>
      <trkpt lat="46.75096" lon="-0.9543">
        <ele>78</ele>
        <time>2022-09-05T10:04:51Z</time>
      </trkpt>
      <trkpt lat="46.75089" lon="-0.95405">
        <ele>76</ele>
        <time>2022-09-05T10:04:54Z</time>
      </trkpt>
      <trkpt lat="46.75076" lon="-0.95307">
        <ele>75</ele>
        <time>2022-09-05T10:05:07Z</time>
      </trkpt>
      <trkpt lat="46.75071" lon="-0.95278">
        <ele>73</ele>
        <time>2022-09-05T10:05:10Z</time>
      </trkpt>
      <trkpt lat="46.75064" lon="-0.95252">
        <ele>71</ele>
        <time>2022-09-05T10:05:14Z</time>
      </trkpt>
      <trkpt lat="46.75049" lon="-0.95215">
        <ele>68</ele>
        <time>2022-09-05T10:05:19Z</time>
      </trkpt>
      <trkpt lat="46.75035" lon="-0.95191">
        <ele>66</ele>
        <time>2022-09-05T10:05:23Z</time>
      </trkpt>
      <trkpt lat="46.75014" lon="-0.95168">
        <ele>64</ele>
        <time>2022-09-05T10:05:27Z</time>
      </trkpt>
      <trkpt lat="46.74999" lon="-0.95155">
        <ele>64</ele>
        <time>2022-09-05T10:05:31Z</time>
      </trkpt>
      <trkpt lat="46.74968" lon="-0.95137">
        <ele>67</ele>
        <time>2022-09-05T10:05:36Z</time>
      </trkpt>
      <trkpt lat="46.74942" lon="-0.95132">
        <ele>70</ele>
        <time>2022-09-05T10:05:41Z</time>
      </trkpt>
      <trkpt lat="46.74932" lon="-0.95132">
        <ele>70</ele>
        <time>2022-09-05T10:05:43Z</time>
      </trkpt>
      <trkpt lat="46.74915" lon="-0.95139">
        <ele>71</ele>
        <time>2022-09-05T10:05:46Z</time>
      </trkpt>
      <trkpt lat="46.74888" lon="-0.95152">
        <ele>70</ele>
        <time>2022-09-05T10:05:51Z</time>
      </trkpt>
      <trkpt lat="46.7487" lon="-0.95157">
        <ele>71</ele>
        <time>2022-09-05T10:05:54Z</time>
      </trkpt>
      <trkpt lat="46.74855" lon="-0.95156">
        <ele>72</ele>
        <time>2022-09-05T10:05:57Z</time>
      </trkpt>
      <trkpt lat="46.74823" lon="-0.95148">
        <ele>74</ele>
        <time>2022-09-05T10:06:03Z</time>
      </trkpt>
      <trkpt lat="46.74812" lon="-0.9515">
        <ele>74</ele>
        <time>2022-09-05T10:06:05Z</time>
      </trkpt>
      <trkpt lat="46.74797" lon="-0.95157">
        <ele>74</ele>
        <time>2022-09-05T10:06:08Z</time>
      </trkpt>
      <trkpt lat="46.74774" lon="-0.95173">
        <ele>75</ele>
        <time>2022-09-05T10:06:12Z</time>
      </trkpt>
      <trkpt lat="46.7476" lon="-0.95177">
        <ele>76</ele>
        <time>2022-09-05T10:06:15Z</time>
      </trkpt>
      <trkpt lat="46.74747" lon="-0.95177">
        <ele>77</ele>
        <time>2022-09-05T10:06:17Z</time>
      </trkpt>
      <trkpt lat="46.74735" lon="-0.95171">
        <ele>78</ele>
        <time>2022-09-05T10:06:19Z</time>
      </trkpt>
      <trkpt lat="46.74726" lon="-0.95163">
        <ele>80</ele>
        <time>2022-09-05T10:06:21Z</time>
      </trkpt>
      <trkpt lat="46.74689" lon="-0.95116">
        <ele>83</ele>
        <time>2022-09-05T10:06:30Z</time>
      </trkpt>
      <trkpt lat="46.74675" lon="-0.95106">
        <ele>84</ele>
        <time>2022-09-05T10:06:33Z</time>
      </trkpt>
      <trkpt lat="46.74669" lon="-0.95102">
        <ele>85</ele>
        <time>2022-09-05T10:06:34Z</time>
      </trkpt>
      <trkpt lat="46.74616" lon="-0.95087">
        <ele>88</ele>
        <time>2022-09-05T10:06:43Z</time>
      </trkpt>
      <trkpt lat="46.74584" lon="-0.95069">
        <ele>90</ele>
        <time>2022-09-05T10:06:50Z</time>
      </trkpt>
      <trkpt lat="46.74563" lon="-0.95053">
        <ele>91</ele>
        <time>2022-09-05T10:06:54Z</time>
      </trkpt>
      <trkpt lat="46.74538" lon="-0.95017">
        <ele>92</ele>
        <time>2022-09-05T10:07:00Z</time>
      </trkpt>
      <trkpt lat="46.74518" lon="-0.94984">
        <ele>94</ele>
        <time>2022-09-05T10:07:05Z</time>
      </trkpt>
      <trkpt lat="46.7451" lon="-0.94958">
        <ele>95</ele>
        <time>2022-09-05T10:07:09Z</time>
      </trkpt>
      <trkpt lat="46.74505" lon="-0.94949">
        <ele>96</ele>
        <time>2022-09-05T10:07:10Z</time>
      </trkpt>
      <trkpt lat="46.74498" lon="-0.94945">
        <ele>97</ele>
        <time>2022-09-05T10:07:12Z</time>
      </trkpt>
      <trkpt lat="46.74492" lon="-0.94952">
        <ele>96</ele>
        <time>2022-09-05T10:07:13Z</time>
      </trkpt>
      <trkpt lat="46.74484" lon="-0.94953">
        <ele>97</ele>
        <time>2022-09-05T10:07:14Z</time>
      </trkpt>
      <trkpt lat="46.74475" lon="-0.94934">
        <ele>98</ele>
        <time>2022-09-05T10:07:17Z</time>
      </trkpt>
      <trkpt lat="46.74475" lon="-0.94923">
        <ele>98</ele>
        <time>2022-09-05T10:07:19Z</time>
      </trkpt>
      <trkpt lat="46.74454" lon="-0.94901">
        <ele>99</ele>
        <time>2022-09-05T10:07:23Z</time>
      </trkpt>
      <trkpt lat="46.74448" lon="-0.94899">
        <ele>99</ele>
        <time>2022-09-05T10:07:24Z</time>
      </trkpt>
      <trkpt lat="46.74437" lon="-0.949">
        <ele>99</ele>
        <time>2022-09-05T10:07:26Z</time>
      </trkpt>
      <trkpt lat="46.74422" lon="-0.94908">
        <ele>99</ele>
        <time>2022-09-05T10:07:29Z</time>
      </trkpt>
      <trkpt lat="46.74396" lon="-0.94916">
        <ele>100</ele>
        <time>2022-09-05T10:07:34Z</time>
      </trkpt>
      <trkpt lat="46.74385" lon="-0.94918">
        <ele>100</ele>
        <time>2022-09-05T10:07:36Z</time>
      </trkpt>
      <trkpt lat="46.74354" lon="-0.94915">
        <ele>102</ele>
        <time>2022-09-05T10:07:41Z</time>
      </trkpt>
      <trkpt lat="46.74291" lon="-0.94909">
        <ele>105</ele>
        <time>2022-09-05T10:07:52Z</time>
      </trkpt>
      <trkpt lat="46.74237" lon="-0.94899">
        <ele>107</ele>
        <time>2022-09-05T10:08:02Z</time>
      </trkpt>
      <trkpt lat="46.74213" lon="-0.94893">
        <ele>107</ele>
        <time>2022-09-05T10:08:07Z</time>
      </trkpt>
      <trkpt lat="46.74165" lon="-0.94873">
        <ele>108</ele>
        <time>2022-09-05T10:08:15Z</time>
      </trkpt>
      <trkpt lat="46.74143" lon="-0.94857">
        <ele>108</ele>
        <time>2022-09-05T10:08:20Z</time>
      </trkpt>
      <trkpt lat="46.74125" lon="-0.94838">
        <ele>108</ele>
        <time>2022-09-05T10:08:24Z</time>
      </trkpt>
      <trkpt lat="46.7408" lon="-0.94774">
        <ele>107</ele>
        <time>2022-09-05T10:08:35Z</time>
      </trkpt>
      <trkpt lat="46.74059" lon="-0.94737">
        <ele>107</ele>
        <time>2022-09-05T10:08:41Z</time>
      </trkpt>
      <trkpt lat="46.74003" lon="-0.94623">
        <ele>109</ele>
        <time>2022-09-05T10:08:58Z</time>
      </trkpt>
      <trkpt lat="46.7398" lon="-0.94581">
        <ele>108</ele>
        <time>2022-09-05T10:09:04Z</time>
      </trkpt>
      <trkpt lat="46.73917" lon="-0.94504">
        <ele>108</ele>
        <time>2022-09-05T10:09:19Z</time>
      </trkpt>
      <trkpt lat="46.73874" lon="-0.94459">
        <ele>106</ele>
        <time>2022-09-05T10:09:28Z</time>
      </trkpt>
      <trkpt lat="46.73853" lon="-0.94442">
        <ele>105</ele>
        <time>2022-09-05T10:09:33Z</time>
      </trkpt>
      <trkpt lat="46.73825" lon="-0.94423">
        <ele>103</ele>
        <time>2022-09-05T10:09:38Z</time>
      </trkpt>
      <trkpt lat="46.73801" lon="-0.94412">
        <ele>102</ele>
        <time>2022-09-05T10:09:43Z</time>
      </trkpt>
      <trkpt lat="46.73741" lon="-0.94392">
        <ele>99</ele>
        <time>2022-09-05T10:09:54Z</time>
      </trkpt>
      <trkpt lat="46.73641" lon="-0.94366">
        <ele>97</ele>
        <time>2022-09-05T10:10:12Z</time>
      </trkpt>
      <trkpt lat="46.73624" lon="-0.94359">
        <ele>97</ele>
        <time>2022-09-05T10:10:15Z</time>
      </trkpt>
      <trkpt lat="46.73586" lon="-0.94332">
        <ele>97</ele>
        <time>2022-09-05T10:10:22Z</time>
      </trkpt>
      <trkpt lat="46.73555" lon="-0.94303">
        <ele>96</ele>
        <time>2022-09-05T10:10:29Z</time>
      </trkpt>
      <trkpt lat="46.73483" lon="-0.94227">
        <ele>97</ele>
        <time>2022-09-05T10:10:45Z</time>
      </trkpt>
      <trkpt lat="46.73463" lon="-0.94203">
        <ele>98</ele>
        <time>2022-09-05T10:10:49Z</time>
      </trkpt>
      <trkpt lat="46.73215" lon="-0.93862">
        <ele>105</ele>
        <time>2022-09-05T10:11:50Z</time>
      </trkpt>
      <trkpt lat="46.73119" lon="-0.93729">
        <ele>102</ele>
        <time>2022-09-05T10:12:14Z</time>
      </trkpt>
      <trkpt lat="46.731" lon="-0.93701">
        <ele>102</ele>
        <time>2022-09-05T10:12:18Z</time>
      </trkpt>
      <trkpt lat="46.73075" lon="-0.93651">
        <ele>102</ele>
        <time>2022-09-05T10:12:26Z</time>
      </trkpt>
      <trkpt lat="46.73062" lon="-0.93617">
        <ele>102</ele>
        <time>2022-09-05T10:12:31Z</time>
      </trkpt>
      <trkpt lat="46.73026" lon="-0.93502">
        <ele>101</ele>
        <time>2022-09-05T10:12:46Z</time>
      </trkpt>
      <trkpt lat="46.73012" lon="-0.9347">
        <ele>101</ele>
        <time>2022-09-05T10:12:51Z</time>
      </trkpt>
      <trkpt lat="46.72996" lon="-0.9344">
        <ele>101</ele>
        <time>2022-09-05T10:12:55Z</time>
      </trkpt>
      <trkpt lat="46.72979" lon="-0.93413">
        <ele>101</ele>
        <time>2022-09-05T10:13:00Z</time>
      </trkpt>
      <trkpt lat="46.72953" lon="-0.93374">
        <ele>102</ele>
        <time>2022-09-05T10:13:06Z</time>
      </trkpt>
      <trkpt lat="46.72678" lon="-0.93023">
        <ele>92</ele>
        <time>2022-09-05T10:14:11Z</time>
      </trkpt>
      <trkpt lat="46.72649" lon="-0.92976">
        <ele>90</ele>
        <time>2022-09-05T10:14:19Z</time>
      </trkpt>
      <trkpt lat="46.72578" lon="-0.92841">
        <ele>82</ele>
        <time>2022-09-05T10:14:40Z</time>
      </trkpt>
      <trkpt lat="46.72546" lon="-0.92789">
        <ele>79</ele>
        <time>2022-09-05T10:14:48Z</time>
      </trkpt>
      <trkpt lat="46.72528" lon="-0.92764">
        <ele>78</ele>
        <time>2022-09-05T10:14:53Z</time>
      </trkpt>
      <trkpt lat="46.72494" lon="-0.9272">
        <ele>75</ele>
        <time>2022-09-05T10:15:01Z</time>
      </trkpt>
      <trkpt lat="46.72415" lon="-0.92637">
        <ele>69</ele>
        <time>2022-09-05T10:15:18Z</time>
      </trkpt>
      <trkpt lat="46.72398" lon="-0.92614">
        <ele>69</ele>
        <time>2022-09-05T10:15:22Z</time>
      </trkpt>
      <trkpt lat="46.72385" lon="-0.9259">
        <ele>69</ele>
        <time>2022-09-05T10:15:26Z</time>
      </trkpt>
      <trkpt lat="46.72367" lon="-0.92549">
        <ele>71</ele>
        <time>2022-09-05T10:15:32Z</time>
      </trkpt>
      <trkpt lat="46.72359" lon="-0.92526">
        <ele>72</ele>
        <time>2022-09-05T10:15:35Z</time>
      </trkpt>
      <trkpt lat="46.72352" lon="-0.92503">
        <ele>72</ele>
        <time>2022-09-05T10:15:38Z</time>
      </trkpt>
      <trkpt lat="46.72342" lon="-0.92454">
        <ele>73</ele>
        <time>2022-09-05T10:15:45Z</time>
      </trkpt>
      <trkpt lat="46.72337" lon="-0.92433">
        <ele>74</ele>
        <time>2022-09-05T10:15:47Z</time>
      </trkpt>
      <trkpt lat="46.72323" lon="-0.92401">
        <ele>75</ele>
        <time>2022-09-05T10:15:52Z</time>
      </trkpt>
      <trkpt lat="46.72313" lon="-0.92384">
        <ele>76</ele>
        <time>2022-09-05T10:15:55Z</time>
      </trkpt>
      <trkpt lat="46.72299" lon="-0.92368">
        <ele>77</ele>
        <time>2022-09-05T10:15:58Z</time>
      </trkpt>
      <trkpt lat="46.72281" lon="-0.92354">
        <ele>78</ele>
        <time>2022-09-05T10:16:01Z</time>
      </trkpt>
      <trkpt lat="46.72247" lon="-0.92338">
        <ele>79</ele>
        <time>2022-09-05T10:16:08Z</time>
      </trkpt>
      <trkpt lat="46.72028" lon="-0.92241">
        <ele>92</ele>
        <time>2022-09-05T10:16:48Z</time>
      </trkpt>
      <trkpt lat="46.71968" lon="-0.92206">
        <ele>95</ele>
        <time>2022-09-05T10:17:00Z</time>
      </trkpt>
      <trkpt lat="46.71931" lon="-0.92178">
        <ele>96</ele>
        <time>2022-09-05T10:17:07Z</time>
      </trkpt>
      <trkpt lat="46.71867" lon="-0.92118">
        <ele>99</ele>
        <time>2022-09-05T10:17:21Z</time>
      </trkpt>
      <trkpt lat="46.71823" lon="-0.92063">
        <ele>101</ele>
        <time>2022-09-05T10:17:31Z</time>
      </trkpt>
      <trkpt lat="46.71787" lon="-0.92004">
        <ele>103</ele>
        <time>2022-09-05T10:17:41Z</time>
      </trkpt>
      <trkpt lat="46.7177" lon="-0.91967">
        <ele>102</ele>
        <time>2022-09-05T10:17:46Z</time>
      </trkpt>
      <trkpt lat="46.71758" lon="-0.91946">
        <ele>102</ele>
        <time>2022-09-05T10:17:50Z</time>
      </trkpt>
      <trkpt lat="46.71749" lon="-0.91936">
        <ele>102</ele>
        <time>2022-09-05T10:17:52Z</time>
      </trkpt>
      <trkpt lat="46.71709" lon="-0.91913">
        <ele>103</ele>
        <time>2022-09-05T10:17:59Z</time>
      </trkpt>
      <trkpt lat="46.717" lon="-0.91927">
        <ele>103</ele>
        <time>2022-09-05T10:18:02Z</time>
      </trkpt>
      <trkpt lat="46.71675" lon="-0.91934">
        <ele>104</ele>
        <time>2022-09-05T10:18:06Z</time>
      </trkpt>
      <trkpt lat="46.71646" lon="-0.91936">
        <ele>104</ele>
        <time>2022-09-05T10:18:11Z</time>
      </trkpt>
      <trkpt lat="46.71608" lon="-0.91927">
        <ele>105</ele>
        <time>2022-09-05T10:18:18Z</time>
      </trkpt>
      <trkpt lat="46.71585" lon="-0.91914">
        <ele>105</ele>
        <time>2022-09-05T10:18:23Z</time>
      </trkpt>
      <trkpt lat="46.71544" lon="-0.91899">
        <ele>105</ele>
        <time>2022-09-05T10:18:30Z</time>
      </trkpt>
      <trkpt lat="46.71523" lon="-0.91887">
        <ele>105</ele>
        <time>2022-09-05T10:18:34Z</time>
      </trkpt>
      <trkpt lat="46.71508" lon="-0.91884">
        <ele>105</ele>
        <time>2022-09-05T10:18:37Z</time>
      </trkpt>
      <trkpt lat="46.71303" lon="-0.91797">
        <ele>108</ele>
        <time>2022-09-05T10:19:15Z</time>
      </trkpt>
      <trkpt lat="46.71245" lon="-0.91777">
        <ele>108</ele>
        <time>2022-09-05T10:19:25Z</time>
      </trkpt>
      <trkpt lat="46.71224" lon="-0.91773">
        <ele>108</ele>
        <time>2022-09-05T10:19:29Z</time>
      </trkpt>
      <trkpt lat="46.71189" lon="-0.91773">
        <ele>107</ele>
        <time>2022-09-05T10:19:35Z</time>
      </trkpt>
      <trkpt lat="46.71162" lon="-0.91778">
        <ele>106</ele>
        <time>2022-09-05T10:19:40Z</time>
      </trkpt>
      <trkpt lat="46.71137" lon="-0.91786">
        <ele>106</ele>
        <time>2022-09-05T10:19:45Z</time>
      </trkpt>
      <trkpt lat="46.70985" lon="-0.91868">
        <ele>100</ele>
        <time>2022-09-05T10:20:14Z</time>
      </trkpt>
      <trkpt lat="46.70949" lon="-0.91882">
        <ele>98</ele>
        <time>2022-09-05T10:20:20Z</time>
      </trkpt>
      <trkpt lat="46.7091" lon="-0.91889">
        <ele>97</ele>
        <time>2022-09-05T10:20:27Z</time>
      </trkpt>
      <trkpt lat="46.7084" lon="-0.91893">
        <ele>95</ele>
        <time>2022-09-05T10:20:40Z</time>
      </trkpt>
      <trkpt lat="46.70759" lon="-0.91883">
        <ele>97</ele>
        <time>2022-09-05T10:20:54Z</time>
      </trkpt>
      <trkpt lat="46.7068" lon="-0.91862">
        <ele>101</ele>
        <time>2022-09-05T10:21:08Z</time>
      </trkpt>
      <trkpt lat="46.70639" lon="-0.91843">
        <ele>103</ele>
        <time>2022-09-05T10:21:16Z</time>
      </trkpt>
      <trkpt lat="46.70232" lon="-0.91574">
        <ele>85</ele>
        <time>2022-09-05T10:22:36Z</time>
      </trkpt>
      <trkpt lat="46.70191" lon="-0.91554">
        <ele>83</ele>
        <time>2022-09-05T10:22:43Z</time>
      </trkpt>
      <trkpt lat="46.70149" lon="-0.91543">
        <ele>81</ele>
        <time>2022-09-05T10:22:51Z</time>
      </trkpt>
      <trkpt lat="46.70102" lon="-0.91541">
        <ele>78</ele>
        <time>2022-09-05T10:22:59Z</time>
      </trkpt>
      <trkpt lat="46.70042" lon="-0.91547">
        <ele>74</ele>
        <time>2022-09-05T10:23:10Z</time>
      </trkpt>
      <trkpt lat="46.70017" lon="-0.91551">
        <ele>71</ele>
        <time>2022-09-05T10:23:14Z</time>
      </trkpt>
      <trkpt lat="46.69997" lon="-0.91558">
        <ele>70</ele>
        <time>2022-09-05T10:23:18Z</time>
      </trkpt>
      <trkpt lat="46.69974" lon="-0.91571">
        <ele>68</ele>
        <time>2022-09-05T10:23:22Z</time>
      </trkpt>
      <trkpt lat="46.69956" lon="-0.91591">
        <ele>67</ele>
        <time>2022-09-05T10:23:27Z</time>
      </trkpt>
      <trkpt lat="46.69941" lon="-0.91612">
        <ele>66</ele>
        <time>2022-09-05T10:23:30Z</time>
      </trkpt>
      <trkpt lat="46.69928" lon="-0.91639">
        <ele>66</ele>
        <time>2022-09-05T10:23:34Z</time>
      </trkpt>
      <trkpt lat="46.69919" lon="-0.91669">
        <ele>65</ele>
        <time>2022-09-05T10:23:38Z</time>
      </trkpt>
      <trkpt lat="46.69911" lon="-0.91714">
        <ele>66</ele>
        <time>2022-09-05T10:23:44Z</time>
      </trkpt>
      <trkpt lat="46.69901" lon="-0.91748">
        <ele>66</ele>
        <time>2022-09-05T10:23:48Z</time>
      </trkpt>
      <trkpt lat="46.69887" lon="-0.91778">
        <ele>66</ele>
        <time>2022-09-05T10:23:53Z</time>
      </trkpt>
      <trkpt lat="46.69871" lon="-0.91805">
        <ele>65</ele>
        <time>2022-09-05T10:23:57Z</time>
      </trkpt>
      <trkpt lat="46.69856" lon="-0.91825">
        <ele>65</ele>
        <time>2022-09-05T10:24:01Z</time>
      </trkpt>
      <trkpt lat="46.69826" lon="-0.91854">
        <ele>64</ele>
        <time>2022-09-05T10:24:07Z</time>
      </trkpt>
      <trkpt lat="46.69811" lon="-0.91867">
        <ele>64</ele>
        <time>2022-09-05T10:24:10Z</time>
      </trkpt>
      <trkpt lat="46.69801" lon="-0.91876">
        <ele>65</ele>
        <time>2022-09-05T10:24:12Z</time>
      </trkpt>
      <trkpt lat="46.69794" lon="-0.91883">
        <ele>65</ele>
        <time>2022-09-05T10:24:14Z</time>
      </trkpt>
      <trkpt lat="46.69707" lon="-0.91963">
        <ele>64</ele>
        <time>2022-09-05T10:24:32Z</time>
      </trkpt>
      <trkpt lat="46.69684" lon="-0.91981">
        <ele>64</ele>
        <time>2022-09-05T10:24:37Z</time>
      </trkpt>
      <trkpt lat="46.69652" lon="-0.91992">
        <ele>65</ele>
        <time>2022-09-05T10:24:43Z</time>
      </trkpt>
      <trkpt lat="46.69626" lon="-0.91994">
        <ele>66</ele>
        <time>2022-09-05T10:24:47Z</time>
      </trkpt>
      <trkpt lat="46.6961" lon="-0.9199">
        <ele>66</ele>
        <time>2022-09-05T10:24:50Z</time>
      </trkpt>
      <trkpt lat="46.69595" lon="-0.91984">
        <ele>67</ele>
        <time>2022-09-05T10:24:53Z</time>
      </trkpt>
      <trkpt lat="46.6946" lon="-0.9189">
        <ele>76</ele>
        <time>2022-09-05T10:25:20Z</time>
      </trkpt>
      <trkpt lat="46.6942" lon="-0.91875">
        <ele>78</ele>
        <time>2022-09-05T10:25:27Z</time>
      </trkpt>
      <trkpt lat="46.69383" lon="-0.91871">
        <ele>80</ele>
        <time>2022-09-05T10:25:34Z</time>
      </trkpt>
      <trkpt lat="46.69364" lon="-0.91872">
        <ele>81</ele>
        <time>2022-09-05T10:25:37Z</time>
      </trkpt>
      <trkpt lat="46.69277" lon="-0.91897">
        <ele>85</ele>
        <time>2022-09-05T10:25:53Z</time>
      </trkpt>
      <trkpt lat="46.69245" lon="-0.91898">
        <ele>87</ele>
        <time>2022-09-05T10:25:58Z</time>
      </trkpt>
      <trkpt lat="46.6922" lon="-0.91892">
        <ele>88</ele>
        <time>2022-09-05T10:26:03Z</time>
      </trkpt>
      <trkpt lat="46.69187" lon="-0.9188">
        <ele>89</ele>
        <time>2022-09-05T10:26:09Z</time>
      </trkpt>
      <trkpt lat="46.69101" lon="-0.91819">
        <ele>95</ele>
        <time>2022-09-05T10:26:26Z</time>
      </trkpt>
      <trkpt lat="46.69073" lon="-0.91807">
        <ele>97</ele>
        <time>2022-09-05T10:26:31Z</time>
      </trkpt>
      <trkpt lat="46.69034" lon="-0.91801">
        <ele>100</ele>
        <time>2022-09-05T10:26:38Z</time>
      </trkpt>
      <trkpt lat="46.68679" lon="-0.91764">
        <ele>98</ele>
        <time>2022-09-05T10:27:42Z</time>
      </trkpt>
      <trkpt lat="46.68243" lon="-0.91714">
        <ele>87</ele>
        <time>2022-09-05T10:28:59Z</time>
      </trkpt>
      <trkpt lat="46.68215" lon="-0.91711">
        <ele>86</ele>
        <time>2022-09-05T10:29:04Z</time>
      </trkpt>
      <trkpt lat="46.68186" lon="-0.91703">
        <ele>85</ele>
        <time>2022-09-05T10:29:10Z</time>
      </trkpt>
      <trkpt lat="46.67865" lon="-0.91562">
        <ele>76</ele>
        <time>2022-09-05T10:30:09Z</time>
      </trkpt>
      <trkpt lat="46.67857" lon="-0.91559">
        <ele>75</ele>
        <time>2022-09-05T10:30:11Z</time>
      </trkpt>
      <trkpt lat="46.67835" lon="-0.91557">
        <ele>75</ele>
        <time>2022-09-05T10:30:15Z</time>
      </trkpt>
      <trkpt lat="46.67815" lon="-0.91557">
        <ele>75</ele>
        <time>2022-09-05T10:30:18Z</time>
      </trkpt>
      <trkpt lat="46.67809" lon="-0.91554">
        <ele>75</ele>
        <time>2022-09-05T10:30:19Z</time>
      </trkpt>
      <trkpt lat="46.67785" lon="-0.9155">
        <ele>75</ele>
        <time>2022-09-05T10:30:24Z</time>
      </trkpt>
      <trkpt lat="46.67775" lon="-0.91545">
        <ele>75</ele>
        <time>2022-09-05T10:30:25Z</time>
      </trkpt>
      <trkpt lat="46.67756" lon="-0.91526">
        <ele>75</ele>
        <time>2022-09-05T10:30:30Z</time>
      </trkpt>
      <trkpt lat="46.67732" lon="-0.91509">
        <ele>73</ele>
        <time>2022-09-05T10:30:34Z</time>
      </trkpt>
      <trkpt lat="46.67714" lon="-0.91502">
        <ele>72</ele>
        <time>2022-09-05T10:30:38Z</time>
      </trkpt>
      <trkpt lat="46.67677" lon="-0.91497">
        <ele>70</ele>
        <time>2022-09-05T10:30:44Z</time>
      </trkpt>
      <trkpt lat="46.6763" lon="-0.91498">
        <ele>69</ele>
        <time>2022-09-05T10:30:53Z</time>
      </trkpt>
      <trkpt lat="46.67598" lon="-0.91503">
        <ele>68</ele>
        <time>2022-09-05T10:30:58Z</time>
      </trkpt>
      <trkpt lat="46.67559" lon="-0.91513">
        <ele>70</ele>
        <time>2022-09-05T10:31:05Z</time>
      </trkpt>
      <trkpt lat="46.67526" lon="-0.91529">
        <ele>71</ele>
        <time>2022-09-05T10:31:12Z</time>
      </trkpt>
      <trkpt lat="46.67482" lon="-0.91559">
        <ele>71</ele>
        <time>2022-09-05T10:31:20Z</time>
      </trkpt>
      <trkpt lat="46.67447" lon="-0.91585">
        <ele>71</ele>
        <time>2022-09-05T10:31:27Z</time>
      </trkpt>
      <trkpt lat="46.67346" lon="-0.91675">
        <ele>71</ele>
        <time>2022-09-05T10:31:48Z</time>
      </trkpt>
      <trkpt lat="46.67273" lon="-0.91774">
        <ele>76</ele>
        <time>2022-09-05T10:32:06Z</time>
      </trkpt>
      <trkpt lat="46.67258" lon="-0.91787">
        <ele>77</ele>
        <time>2022-09-05T10:32:09Z</time>
      </trkpt>
      <trkpt lat="46.67235" lon="-0.91801">
        <ele>78</ele>
        <time>2022-09-05T10:32:14Z</time>
      </trkpt>
      <trkpt lat="46.67206" lon="-0.91809">
        <ele>79</ele>
        <time>2022-09-05T10:32:19Z</time>
      </trkpt>
      <trkpt lat="46.6718" lon="-0.91812">
        <ele>81</ele>
        <time>2022-09-05T10:32:23Z</time>
      </trkpt>
      <trkpt lat="46.67144" lon="-0.91813">
        <ele>83</ele>
        <time>2022-09-05T10:32:30Z</time>
      </trkpt>
      <trkpt lat="46.6705" lon="-0.91807">
        <ele>88</ele>
        <time>2022-09-05T10:32:47Z</time>
      </trkpt>
      <trkpt lat="46.67009" lon="-0.91801">
        <ele>89</ele>
        <time>2022-09-05T10:32:54Z</time>
      </trkpt>
      <trkpt lat="46.66618" lon="-0.9169">
        <ele>76</ele>
        <time>2022-09-05T10:34:05Z</time>
      </trkpt>
      <trkpt lat="46.66579" lon="-0.91686">
        <ele>74</ele>
        <time>2022-09-05T10:34:12Z</time>
      </trkpt>
      <trkpt lat="46.66555" lon="-0.91687">
        <ele>74</ele>
        <time>2022-09-05T10:34:16Z</time>
      </trkpt>
      <trkpt lat="46.66504" lon="-0.917">
        <ele>72</ele>
        <time>2022-09-05T10:34:25Z</time>
      </trkpt>
      <trkpt lat="46.66461" lon="-0.91722">
        <ele>70</ele>
        <time>2022-09-05T10:34:33Z</time>
      </trkpt>
      <trkpt lat="46.66385" lon="-0.91773">
        <ele>67</ele>
        <time>2022-09-05T10:34:48Z</time>
      </trkpt>
      <trkpt lat="46.66366" lon="-0.91782">
        <ele>66</ele>
        <time>2022-09-05T10:34:52Z</time>
      </trkpt>
      <trkpt lat="46.6634" lon="-0.91788">
        <ele>65</ele>
        <time>2022-09-05T10:34:56Z</time>
      </trkpt>
      <trkpt lat="46.66323" lon="-0.91787">
        <ele>64</ele>
        <time>2022-09-05T10:35:00Z</time>
      </trkpt>
      <trkpt lat="46.66304" lon="-0.91779">
        <ele>63</ele>
        <time>2022-09-05T10:35:03Z</time>
      </trkpt>
      <trkpt lat="46.6628" lon="-0.9176">
        <ele>62</ele>
        <time>2022-09-05T10:35:08Z</time>
      </trkpt>
      <trkpt lat="46.66266" lon="-0.91745">
        <ele>61</ele>
        <time>2022-09-05T10:35:11Z</time>
      </trkpt>
      <trkpt lat="46.66231" lon="-0.91687">
        <ele>60</ele>
        <time>2022-09-05T10:35:20Z</time>
      </trkpt>
      <trkpt lat="46.6621" lon="-0.9166">
        <ele>59</ele>
        <time>2022-09-05T10:35:25Z</time>
      </trkpt>
      <trkpt lat="46.6618" lon="-0.9164">
        <ele>58</ele>
        <time>2022-09-05T10:35:31Z</time>
      </trkpt>
      <trkpt lat="46.66155" lon="-0.91636">
        <ele>58</ele>
        <time>2022-09-05T10:35:36Z</time>
      </trkpt>
      <trkpt lat="46.66134" lon="-0.91639">
        <ele>58</ele>
        <time>2022-09-05T10:35:40Z</time>
      </trkpt>
      <trkpt lat="46.66085" lon="-0.9165">
        <ele>60</ele>
        <time>2022-09-05T10:35:48Z</time>
      </trkpt>
      <trkpt lat="46.66021" lon="-0.91702">
        <ele>63</ele>
        <time>2022-09-05T10:36:01Z</time>
      </trkpt>
      <trkpt lat="46.6596" lon="-0.91737">
        <ele>63</ele>
        <time>2022-09-05T10:36:13Z</time>
      </trkpt>
      <trkpt lat="46.65945" lon="-0.91741">
        <ele>63</ele>
        <time>2022-09-05T10:36:16Z</time>
      </trkpt>
      <trkpt lat="46.65931" lon="-0.9174">
        <ele>63</ele>
        <time>2022-09-05T10:36:18Z</time>
      </trkpt>
      <trkpt lat="46.65929" lon="-0.91762">
        <ele>63</ele>
        <time>2022-09-05T10:36:21Z</time>
      </trkpt>
      <trkpt lat="46.65875" lon="-0.91815">
        <ele>63</ele>
        <time>2022-09-05T10:36:33Z</time>
      </trkpt>
      <trkpt lat="46.65837" lon="-0.9186">
        <ele>65</ele>
        <time>2022-09-05T10:36:41Z</time>
      </trkpt>
      <trkpt lat="46.65798" lon="-0.91912">
        <ele>69</ele>
        <time>2022-09-05T10:36:51Z</time>
      </trkpt>
      <trkpt lat="46.65754" lon="-0.91962">
        <ele>74</ele>
        <time>2022-09-05T10:37:01Z</time>
      </trkpt>
      <trkpt lat="46.6575" lon="-0.91955">
        <ele>74</ele>
        <time>2022-09-05T10:37:02Z</time>
      </trkpt>
      <trkpt lat="46.65739" lon="-0.91949">
        <ele>74</ele>
        <time>2022-09-05T10:37:04Z</time>
      </trkpt>
      <trkpt lat="46.65735" lon="-0.92154">
        <ele>74</ele>
        <time>2022-09-05T10:37:29Z</time>
      </trkpt>
      <trkpt lat="46.65735" lon="-0.92223">
        <ele>73</ele>
        <time>2022-09-05T10:37:37Z</time>
      </trkpt>
      <trkpt lat="46.65747" lon="-0.92426">
        <ele>75</ele>
        <time>2022-09-05T10:38:02Z</time>
      </trkpt>
      <trkpt lat="46.65747" lon="-0.92454">
        <ele>75</ele>
        <time>2022-09-05T10:38:06Z</time>
      </trkpt>
      <trkpt lat="46.65733" lon="-0.92627">
        <ele>72</ele>
        <time>2022-09-05T10:38:27Z</time>
      </trkpt>
      <trkpt lat="46.65727" lon="-0.92674">
        <ele>70</ele>
        <time>2022-09-05T10:38:33Z</time>
      </trkpt>
      <trkpt lat="46.65696" lon="-0.92821">
        <ele>66</ele>
        <time>2022-09-05T10:38:51Z</time>
      </trkpt>
      <trkpt lat="46.65677" lon="-0.92883">
        <ele>64</ele>
        <time>2022-09-05T10:39:00Z</time>
      </trkpt>
      <trkpt lat="46.65497" lon="-0.93284">
        <ele>52</ele>
        <time>2022-09-05T10:39:58Z</time>
      </trkpt>
      <trkpt lat="46.65391" lon="-0.93501">
        <ele>51</ele>
        <time>2022-09-05T10:40:31Z</time>
      </trkpt>
      <trkpt lat="46.65386" lon="-0.93512">
        <ele>51</ele>
        <time>2022-09-05T10:40:32Z</time>
      </trkpt>
      <trkpt lat="46.65378" lon="-0.93527">
        <ele>51</ele>
        <time>2022-09-05T10:40:35Z</time>
      </trkpt>
      <trkpt lat="46.65371" lon="-0.9355">
        <ele>51</ele>
        <time>2022-09-05T10:40:38Z</time>
      </trkpt>
      <trkpt lat="46.65242" lon="-0.93992">
        <ele>60</ele>
        <time>2022-09-05T10:41:36Z</time>
      </trkpt>
      <trkpt lat="46.65134" lon="-0.93988">
        <ele>56</ele>
        <time>2022-09-05T10:41:56Z</time>
      </trkpt>
      <trkpt lat="46.65095" lon="-0.93977">
        <ele>55</ele>
        <time>2022-09-05T10:42:03Z</time>
      </trkpt>
      <trkpt lat="46.65083" lon="-0.93976">
        <ele>55</ele>
        <time>2022-09-05T10:42:05Z</time>
      </trkpt>
      <trkpt lat="46.6507" lon="-0.93979">
        <ele>55</ele>
        <time>2022-09-05T10:42:07Z</time>
      </trkpt>
      <trkpt lat="46.65049" lon="-0.93988">
        <ele>56</ele>
        <time>2022-09-05T10:42:11Z</time>
      </trkpt>
      <trkpt lat="46.65039" lon="-0.9399">
        <ele>56</ele>
        <time>2022-09-05T10:42:13Z</time>
      </trkpt>
      <trkpt lat="46.65025" lon="-0.93989">
        <ele>56</ele>
        <time>2022-09-05T10:42:15Z</time>
      </trkpt>
      <trkpt lat="46.65013" lon="-0.93983">
        <ele>56</ele>
        <time>2022-09-05T10:42:18Z</time>
      </trkpt>
      <trkpt lat="46.64993" lon="-0.93959">
        <ele>55</ele>
        <time>2022-09-05T10:42:22Z</time>
      </trkpt>
      <trkpt lat="46.64948" lon="-0.93897">
        <ele>55</ele>
        <time>2022-09-05T10:42:33Z</time>
      </trkpt>
      <trkpt lat="46.64936" lon="-0.93883">
        <ele>55</ele>
        <time>2022-09-05T10:42:36Z</time>
      </trkpt>
      <trkpt lat="46.64907" lon="-0.93853">
        <ele>56</ele>
        <time>2022-09-05T10:42:42Z</time>
      </trkpt>
      <trkpt lat="46.64889" lon="-0.9384">
        <ele>57</ele>
        <time>2022-09-05T10:42:46Z</time>
      </trkpt>
      <trkpt lat="46.64854" lon="-0.93798">
        <ele>59</ele>
        <time>2022-09-05T10:42:54Z</time>
      </trkpt>
      <trkpt lat="46.64825" lon="-0.93766">
        <ele>61</ele>
        <time>2022-09-05T10:43:00Z</time>
      </trkpt>
      <trkpt lat="46.64812" lon="-0.93755">
        <ele>61</ele>
        <time>2022-09-05T10:43:03Z</time>
      </trkpt>
      <trkpt lat="46.64796" lon="-0.93749">
        <ele>61</ele>
        <time>2022-09-05T10:43:06Z</time>
      </trkpt>
      <trkpt lat="46.64786" lon="-0.93752">
        <ele>61</ele>
        <time>2022-09-05T10:43:08Z</time>
      </trkpt>
      <trkpt lat="46.64775" lon="-0.9376">
        <ele>61</ele>
        <time>2022-09-05T10:43:10Z</time>
      </trkpt>
      <trkpt lat="46.64746" lon="-0.93792">
        <ele>62</ele>
        <time>2022-09-05T10:43:17Z</time>
      </trkpt>
      <trkpt lat="46.64691" lon="-0.93857">
        <ele>63</ele>
        <time>2022-09-05T10:43:29Z</time>
      </trkpt>
      <trkpt lat="46.64652" lon="-0.93913">
        <ele>64</ele>
        <time>2022-09-05T10:43:39Z</time>
      </trkpt>
      <trkpt lat="46.64623" lon="-0.93951">
        <ele>64</ele>
        <time>2022-09-05T10:43:46Z</time>
      </trkpt>
      <trkpt lat="46.64592" lon="-0.93985">
        <ele>65</ele>
        <time>2022-09-05T10:43:53Z</time>
      </trkpt>
      <trkpt lat="46.64453" lon="-0.94084">
        <ele>67</ele>
        <time>2022-09-05T10:44:20Z</time>
      </trkpt>
      <trkpt lat="46.64445" lon="-0.94084">
        <ele>67</ele>
        <time>2022-09-05T10:44:22Z</time>
      </trkpt>
      <trkpt lat="46.64437" lon="-0.94079">
        <ele>67</ele>
        <time>2022-09-05T10:44:23Z</time>
      </trkpt>
      <trkpt lat="46.64427" lon="-0.94069">
        <ele>67</ele>
        <time>2022-09-05T10:44:25Z</time>
      </trkpt>
      <trkpt lat="46.64394" lon="-0.94026">
        <ele>66</ele>
        <time>2022-09-05T10:44:33Z</time>
      </trkpt>
      <trkpt lat="46.64319" lon="-0.93949">
        <ele>62</ele>
        <time>2022-09-05T10:44:50Z</time>
      </trkpt>
      <trkpt lat="46.64258" lon="-0.93893">
        <ele>60</ele>
        <time>2022-09-05T10:45:02Z</time>
      </trkpt>
      <trkpt lat="46.6422" lon="-0.93869">
        <ele>59</ele>
        <time>2022-09-05T10:45:10Z</time>
      </trkpt>
      <trkpt lat="46.64193" lon="-0.93856">
        <ele>59</ele>
        <time>2022-09-05T10:45:15Z</time>
      </trkpt>
      <trkpt lat="46.6417" lon="-0.9385">
        <ele>59</ele>
        <time>2022-09-05T10:45:19Z</time>
      </trkpt>
      <trkpt lat="46.64152" lon="-0.9385">
        <ele>60</ele>
        <time>2022-09-05T10:45:22Z</time>
      </trkpt>
      <trkpt lat="46.64116" lon="-0.93855">
        <ele>62</ele>
        <time>2022-09-05T10:45:29Z</time>
      </trkpt>
      <trkpt lat="46.64084" lon="-0.93865">
        <ele>64</ele>
        <time>2022-09-05T10:45:34Z</time>
      </trkpt>
      <trkpt lat="46.64059" lon="-0.93878">
        <ele>64</ele>
        <time>2022-09-05T10:45:39Z</time>
      </trkpt>
      <trkpt lat="46.64004" lon="-0.93922">
        <ele>67</ele>
        <time>2022-09-05T10:45:50Z</time>
      </trkpt>
      <trkpt lat="46.63911" lon="-0.93964">
        <ele>68</ele>
        <time>2022-09-05T10:46:08Z</time>
      </trkpt>
      <trkpt lat="46.63876" lon="-0.93982">
        <ele>71</ele>
        <time>2022-09-05T10:46:14Z</time>
      </trkpt>
      <trkpt lat="46.63853" lon="-0.93998">
        <ele>73</ele>
        <time>2022-09-05T10:46:19Z</time>
      </trkpt>
      <trkpt lat="46.63835" lon="-0.94006">
        <ele>75</ele>
        <time>2022-09-05T10:46:22Z</time>
      </trkpt>
      <trkpt lat="46.63818" lon="-0.94007">
        <ele>77</ele>
        <time>2022-09-05T10:46:25Z</time>
      </trkpt>
      <trkpt lat="46.63807" lon="-0.94002">
        <ele>79</ele>
        <time>2022-09-05T10:46:27Z</time>
      </trkpt>
      <trkpt lat="46.63744" lon="-0.9396">
        <ele>85</ele>
        <time>2022-09-05T10:46:40Z</time>
      </trkpt>
      <trkpt lat="46.6373" lon="-0.93954">
        <ele>86</ele>
        <time>2022-09-05T10:46:42Z</time>
      </trkpt>
      <trkpt lat="46.63716" lon="-0.93951">
        <ele>87</ele>
        <time>2022-09-05T10:46:45Z</time>
      </trkpt>
      <trkpt lat="46.63703" lon="-0.93952">
        <ele>87</ele>
        <time>2022-09-05T10:46:47Z</time>
      </trkpt>
      <trkpt lat="46.63667" lon="-0.9397">
        <ele>90</ele>
        <time>2022-09-05T10:46:54Z</time>
      </trkpt>
      <trkpt lat="46.63616" lon="-0.94014">
        <ele>94</ele>
        <time>2022-09-05T10:47:04Z</time>
      </trkpt>
      <trkpt lat="46.63584" lon="-0.94037">
        <ele>95</ele>
        <time>2022-09-05T10:47:11Z</time>
      </trkpt>
      <trkpt lat="46.63587" lon="-0.94045">
        <ele>95</ele>
        <time>2022-09-05T10:47:12Z</time>
      </trkpt>
      <trkpt lat="46.6361" lon="-0.94126">
        <ele>92</ele>
        <time>2022-09-05T10:47:23Z</time>
      </trkpt>
      <trkpt lat="46.63638" lon="-0.94179">
        <ele>91</ele>
        <time>2022-09-05T10:47:31Z</time>
      </trkpt>
      <trkpt lat="46.63643" lon="-0.94194">
        <ele>91</ele>
        <time>2022-09-05T10:47:33Z</time>
      </trkpt>
      <trkpt lat="46.63652" lon="-0.94234">
        <ele>92</ele>
        <time>2022-09-05T10:47:38Z</time>
      </trkpt>
      <trkpt lat="46.63666" lon="-0.94289">
        <ele>94</ele>
        <time>2022-09-05T10:47:45Z</time>
      </trkpt>
      <trkpt lat="46.63679" lon="-0.94333">
        <ele>97</ele>
        <time>2022-09-05T10:47:51Z</time>
      </trkpt>
      <trkpt lat="46.6372" lon="-0.94451">
        <ele>98</ele>
        <time>2022-09-05T10:48:07Z</time>
      </trkpt>
      <trkpt lat="46.63733" lon="-0.94482">
        <ele>98</ele>
        <time>2022-09-05T10:48:11Z</time>
      </trkpt>
      <trkpt lat="46.63777" lon="-0.94571">
        <ele>97</ele>
        <time>2022-09-05T10:48:25Z</time>
      </trkpt>
      <trkpt lat="46.63828" lon="-0.94666">
        <ele>97</ele>
        <time>2022-09-05T10:48:40Z</time>
      </trkpt>
      <trkpt lat="46.63847" lon="-0.94698">
        <ele>97</ele>
        <time>2022-09-05T10:48:45Z</time>
      </trkpt>
      <trkpt lat="46.63946" lon="-0.94891">
        <ele>91</ele>
        <time>2022-09-05T10:49:14Z</time>
      </trkpt>
      <trkpt lat="46.63959" lon="-0.94922">
        <ele>92</ele>
        <time>2022-09-05T10:49:19Z</time>
      </trkpt>
      <trkpt lat="46.63968" lon="-0.94945">
        <ele>93</ele>
        <time>2022-09-05T10:49:22Z</time>
      </trkpt>
      <trkpt lat="46.63984" lon="-0.95008">
        <ele>96</ele>
        <time>2022-09-05T10:49:30Z</time>
      </trkpt>
      <trkpt lat="46.63999" lon="-0.95082">
        <ele>104</ele>
        <time>2022-09-05T10:49:40Z</time>
      </trkpt>
      <trkpt lat="46.64003" lon="-0.95114">
        <ele>104</ele>
        <time>2022-09-05T10:49:43Z</time>
      </trkpt>
      <trkpt lat="46.64007" lon="-0.95169">
        <ele>104</ele>
        <time>2022-09-05T10:49:50Z</time>
      </trkpt>
      <trkpt lat="46.64002" lon="-0.95257">
        <ele>102</ele>
        <time>2022-09-05T10:50:01Z</time>
      </trkpt>
      <trkpt lat="46.63977" lon="-0.95506">
        <ele>101</ele>
        <time>2022-09-05T10:50:32Z</time>
      </trkpt>
      <trkpt lat="46.63969" lon="-0.95547">
        <ele>103</ele>
        <time>2022-09-05T10:50:37Z</time>
      </trkpt>
      <trkpt lat="46.63961" lon="-0.95575">
        <ele>103</ele>
        <time>2022-09-05T10:50:41Z</time>
      </trkpt>
      <trkpt lat="46.63948" lon="-0.9561">
        <ele>105</ele>
        <time>2022-09-05T10:50:46Z</time>
      </trkpt>
      <trkpt lat="46.63924" lon="-0.95661">
        <ele>108</ele>
        <time>2022-09-05T10:50:53Z</time>
      </trkpt>
      <trkpt lat="46.63921" lon="-0.95672">
        <ele>108</ele>
        <time>2022-09-05T10:50:55Z</time>
      </trkpt>
      <trkpt lat="46.63919" lon="-0.95686">
        <ele>109</ele>
        <time>2022-09-05T10:50:56Z</time>
      </trkpt>
      <trkpt lat="46.63921" lon="-0.95718">
        <ele>110</ele>
        <time>2022-09-05T10:51:00Z</time>
      </trkpt>
      <trkpt lat="46.63929" lon="-0.95742">
        <ele>112</ele>
        <time>2022-09-05T10:51:03Z</time>
      </trkpt>
      <trkpt lat="46.63954" lon="-0.95801">
        <ele>115</ele>
        <time>2022-09-05T10:51:12Z</time>
      </trkpt>
      <trkpt lat="46.63966" lon="-0.95824">
        <ele>116</ele>
        <time>2022-09-05T10:51:15Z</time>
      </trkpt>
      <trkpt lat="46.63978" lon="-0.95857">
        <ele>116</ele>
        <time>2022-09-05T10:51:20Z</time>
      </trkpt>
      <trkpt lat="46.63995" lon="-0.9593">
        <ele>116</ele>
        <time>2022-09-05T10:51:29Z</time>
      </trkpt>
      <trkpt lat="46.64004" lon="-0.9596">
        <ele>116</ele>
        <time>2022-09-05T10:51:33Z</time>
      </trkpt>
      <trkpt lat="46.64015" lon="-0.95985">
        <ele>116</ele>
        <time>2022-09-05T10:51:37Z</time>
      </trkpt>
      <trkpt lat="46.64026" lon="-0.96005">
        <ele>116</ele>
        <time>2022-09-05T10:51:40Z</time>
      </trkpt>
      <trkpt lat="46.64043" lon="-0.96027">
        <ele>115</ele>
        <time>2022-09-05T10:51:44Z</time>
      </trkpt>
      <trkpt lat="46.64192" lon="-0.96194">
        <ele>109</ele>
        <time>2022-09-05T10:52:18Z</time>
      </trkpt>
      <trkpt lat="46.64203" lon="-0.96202">
        <ele>109</ele>
        <time>2022-09-05T10:52:20Z</time>
      </trkpt>
      <trkpt lat="46.6423" lon="-0.96231">
        <ele>107</ele>
        <time>2022-09-05T10:52:26Z</time>
      </trkpt>
      <trkpt lat="46.64262" lon="-0.96276">
        <ele>104</ele>
        <time>2022-09-05T10:52:34Z</time>
      </trkpt>
      <trkpt lat="46.64304" lon="-0.96339">
        <ele>101</ele>
        <time>2022-09-05T10:52:45Z</time>
      </trkpt>
      <trkpt lat="46.64325" lon="-0.96389">
        <ele>99</ele>
        <time>2022-09-05T10:52:52Z</time>
      </trkpt>
      <trkpt lat="46.64331" lon="-0.96406">
        <ele>98</ele>
        <time>2022-09-05T10:52:54Z</time>
      </trkpt>
      <trkpt lat="46.64338" lon="-0.96441">
        <ele>99</ele>
        <time>2022-09-05T10:52:58Z</time>
      </trkpt>
      <trkpt lat="46.64341" lon="-0.9647">
        <ele>100</ele>
        <time>2022-09-05T10:53:02Z</time>
      </trkpt>
      <trkpt lat="46.64335" lon="-0.96566">
        <ele>104</ele>
        <time>2022-09-05T10:53:14Z</time>
      </trkpt>
      <trkpt lat="46.64334" lon="-0.96601">
        <ele>105</ele>
        <time>2022-09-05T10:53:18Z</time>
      </trkpt>
      <trkpt lat="46.64338" lon="-0.96661">
        <ele>103</ele>
        <time>2022-09-05T10:53:25Z</time>
      </trkpt>
      <trkpt lat="46.64348" lon="-0.96714">
        <ele>102</ele>
        <time>2022-09-05T10:53:32Z</time>
      </trkpt>
      <trkpt lat="46.64354" lon="-0.96734">
        <ele>101</ele>
        <time>2022-09-05T10:53:35Z</time>
      </trkpt>
      <trkpt lat="46.64366" lon="-0.96758">
        <ele>100</ele>
        <time>2022-09-05T10:53:38Z</time>
      </trkpt>
      <trkpt lat="46.64379" lon="-0.96778">
        <ele>99</ele>
        <time>2022-09-05T10:53:42Z</time>
      </trkpt>
      <trkpt lat="46.64414" lon="-0.96821">
        <ele>97</ele>
        <time>2022-09-05T10:53:50Z</time>
      </trkpt>
      <trkpt lat="46.64428" lon="-0.96842">
        <ele>96</ele>
        <time>2022-09-05T10:53:54Z</time>
      </trkpt>
      <trkpt lat="46.64443" lon="-0.96868">
        <ele>96</ele>
        <time>2022-09-05T10:53:58Z</time>
      </trkpt>
      <trkpt lat="46.64492" lon="-0.96984">
        <ele>96</ele>
        <time>2022-09-05T10:54:14Z</time>
      </trkpt>
      <trkpt lat="46.64507" lon="-0.97032">
        <ele>98</ele>
        <time>2022-09-05T10:54:21Z</time>
      </trkpt>
      <trkpt lat="46.64512" lon="-0.97068">
        <ele>100</ele>
        <time>2022-09-05T10:54:25Z</time>
      </trkpt>
      <trkpt lat="46.64511" lon="-0.97107">
        <ele>101</ele>
        <time>2022-09-05T10:54:30Z</time>
      </trkpt>
      <trkpt lat="46.64497" lon="-0.97197">
        <ele>103</ele>
        <time>2022-09-05T10:54:41Z</time>
      </trkpt>
      <trkpt lat="46.64495" lon="-0.97222">
        <ele>104</ele>
        <time>2022-09-05T10:54:44Z</time>
      </trkpt>
      <trkpt lat="46.64496" lon="-0.97247">
        <ele>105</ele>
        <time>2022-09-05T10:54:47Z</time>
      </trkpt>
      <trkpt lat="46.64498" lon="-0.97268">
        <ele>106</ele>
        <time>2022-09-05T10:54:50Z</time>
      </trkpt>
      <trkpt lat="46.64518" lon="-0.97352">
        <ele>109</ele>
        <time>2022-09-05T10:55:01Z</time>
      </trkpt>
      <trkpt lat="46.6453" lon="-0.97385">
        <ele>110</ele>
        <time>2022-09-05T10:55:05Z</time>
      </trkpt>
      <trkpt lat="46.64538" lon="-0.97403">
        <ele>110</ele>
        <time>2022-09-05T10:55:08Z</time>
      </trkpt>
      <trkpt lat="46.64549" lon="-0.97419">
        <ele>110</ele>
        <time>2022-09-05T10:55:11Z</time>
      </trkpt>
      <trkpt lat="46.64559" lon="-0.97427">
        <ele>110</ele>
        <time>2022-09-05T10:55:13Z</time>
      </trkpt>
      <trkpt lat="46.64572" lon="-0.97433">
        <ele>109</ele>
        <time>2022-09-05T10:55:15Z</time>
      </trkpt>
      <trkpt lat="46.64618" lon="-0.97442">
        <ele>107</ele>
        <time>2022-09-05T10:55:24Z</time>
      </trkpt>
      <trkpt lat="46.64631" lon="-0.97446">
        <ele>106</ele>
        <time>2022-09-05T10:55:26Z</time>
      </trkpt>
      <trkpt lat="46.64651" lon="-0.97458">
        <ele>105</ele>
        <time>2022-09-05T10:55:30Z</time>
      </trkpt>
      <trkpt lat="46.64657" lon="-0.97464">
        <ele>105</ele>
        <time>2022-09-05T10:55:31Z</time>
      </trkpt>
      <trkpt lat="46.6466" lon="-0.97473">
        <ele>104</ele>
        <time>2022-09-05T10:55:32Z</time>
      </trkpt>
      <trkpt lat="46.64672" lon="-0.97484">
        <ele>103</ele>
        <time>2022-09-05T10:55:35Z</time>
      </trkpt>
      <trkpt lat="46.64873" lon="-0.97835">
        <ele>99</ele>
        <time>2022-09-05T10:56:31Z</time>
      </trkpt>
      <trkpt lat="46.64922" lon="-0.97943">
        <ele>98</ele>
        <time>2022-09-05T10:56:46Z</time>
      </trkpt>
      <trkpt lat="46.64936" lon="-0.9797">
        <ele>97</ele>
        <time>2022-09-05T10:56:51Z</time>
      </trkpt>
      <trkpt lat="46.64948" lon="-0.97986">
        <ele>97</ele>
        <time>2022-09-05T10:56:53Z</time>
      </trkpt>
      <trkpt lat="46.64955" lon="-0.97991">
        <ele>97</ele>
        <time>2022-09-05T10:56:55Z</time>
      </trkpt>
      <trkpt lat="46.64967" lon="-0.97998">
        <ele>96</ele>
        <time>2022-09-05T10:56:57Z</time>
      </trkpt>
      <trkpt lat="46.6498" lon="-0.98001">
        <ele>96</ele>
        <time>2022-09-05T10:57:00Z</time>
      </trkpt>
      <trkpt lat="46.65173" lon="-0.98003">
        <ele>95</ele>
        <time>2022-09-05T10:57:34Z</time>
      </trkpt>
      <trkpt lat="46.6524" lon="-0.98006">
        <ele>95</ele>
        <time>2022-09-05T10:57:46Z</time>
      </trkpt>
      <trkpt lat="46.65257" lon="-0.98011">
        <ele>94</ele>
        <time>2022-09-05T10:57:49Z</time>
      </trkpt>
      <trkpt lat="46.65274" lon="-0.9802">
        <ele>93</ele>
        <time>2022-09-05T10:57:52Z</time>
      </trkpt>
      <trkpt lat="46.65426" lon="-0.98113">
        <ele>81</ele>
        <time>2022-09-05T10:58:21Z</time>
      </trkpt>
      <trkpt lat="46.65457" lon="-0.98141">
        <ele>79</ele>
        <time>2022-09-05T10:58:28Z</time>
      </trkpt>
      <trkpt lat="46.65479" lon="-0.98171">
        <ele>78</ele>
        <time>2022-09-05T10:58:33Z</time>
      </trkpt>
      <trkpt lat="46.65492" lon="-0.98197">
        <ele>75</ele>
        <time>2022-09-05T10:58:37Z</time>
      </trkpt>
      <trkpt lat="46.65506" lon="-0.98233">
        <ele>73</ele>
        <time>2022-09-05T10:58:42Z</time>
      </trkpt>
      <trkpt lat="46.65528" lon="-0.98319">
        <ele>68</ele>
        <time>2022-09-05T10:58:53Z</time>
      </trkpt>
      <trkpt lat="46.65539" lon="-0.98348">
        <ele>67</ele>
        <time>2022-09-05T10:58:57Z</time>
      </trkpt>
      <trkpt lat="46.65558" lon="-0.98379">
        <ele>65</ele>
        <time>2022-09-05T10:59:03Z</time>
      </trkpt>
      <trkpt lat="46.6561" lon="-0.9844">
        <ele>62</ele>
        <time>2022-09-05T10:59:14Z</time>
      </trkpt>
      <trkpt lat="46.65625" lon="-0.98461">
        <ele>62</ele>
        <time>2022-09-05T10:59:18Z</time>
      </trkpt>
      <trkpt lat="46.65635" lon="-0.98479">
        <ele>61</ele>
        <time>2022-09-05T10:59:21Z</time>
      </trkpt>
      <trkpt lat="46.65648" lon="-0.98506">
        <ele>60</ele>
        <time>2022-09-05T10:59:25Z</time>
      </trkpt>
      <trkpt lat="46.65656" lon="-0.98526">
        <ele>60</ele>
        <time>2022-09-05T10:59:28Z</time>
      </trkpt>
      <trkpt lat="46.65674" lon="-0.98592">
        <ele>59</ele>
        <time>2022-09-05T10:59:37Z</time>
      </trkpt>
      <trkpt lat="46.65681" lon="-0.98634">
        <ele>59</ele>
        <time>2022-09-05T10:59:42Z</time>
      </trkpt>
      <trkpt lat="46.65681" lon="-0.98658">
        <ele>58</ele>
        <time>2022-09-05T10:59:45Z</time>
      </trkpt>
      <trkpt lat="46.65677" lon="-0.98677">
        <ele>59</ele>
        <time>2022-09-05T10:59:47Z</time>
      </trkpt>
      <trkpt lat="46.6567" lon="-0.98696">
        <ele>60</ele>
        <time>2022-09-05T10:59:50Z</time>
      </trkpt>
      <trkpt lat="46.65628" lon="-0.98748">
        <ele>61</ele>
        <time>2022-09-05T11:00:00Z</time>
      </trkpt>
      <trkpt lat="46.65614" lon="-0.98771">
        <ele>63</ele>
        <time>2022-09-05T11:00:03Z</time>
      </trkpt>
      <trkpt lat="46.65599" lon="-0.98802">
        <ele>64</ele>
        <time>2022-09-05T11:00:08Z</time>
      </trkpt>
      <trkpt lat="46.65591" lon="-0.98826">
        <ele>64</ele>
        <time>2022-09-05T11:00:11Z</time>
      </trkpt>
      <trkpt lat="46.65583" lon="-0.98864">
        <ele>65</ele>
        <time>2022-09-05T11:00:16Z</time>
      </trkpt>
      <trkpt lat="46.65579" lon="-0.98899">
        <ele>67</ele>
        <time>2022-09-05T11:00:20Z</time>
      </trkpt>
      <trkpt lat="46.65579" lon="-0.98931">
        <ele>69</ele>
        <time>2022-09-05T11:00:24Z</time>
      </trkpt>
      <trkpt lat="46.65584" lon="-0.98965">
        <ele>72</ele>
        <time>2022-09-05T11:00:29Z</time>
      </trkpt>
      <trkpt lat="46.65592" lon="-0.98988">
        <ele>74</ele>
        <time>2022-09-05T11:00:32Z</time>
      </trkpt>
      <trkpt lat="46.65609" lon="-0.99009">
        <ele>76</ele>
        <time>2022-09-05T11:00:36Z</time>
      </trkpt>
      <trkpt lat="46.65628" lon="-0.99019">
        <ele>77</ele>
        <time>2022-09-05T11:00:39Z</time>
      </trkpt>
      <trkpt lat="46.65645" lon="-0.99023">
        <ele>78</ele>
        <time>2022-09-05T11:00:42Z</time>
      </trkpt>
      <trkpt lat="46.65674" lon="-0.99025">
        <ele>80</ele>
        <time>2022-09-05T11:00:48Z</time>
      </trkpt>
      <trkpt lat="46.65688" lon="-0.99035">
        <ele>79</ele>
        <time>2022-09-05T11:00:50Z</time>
      </trkpt>
      <trkpt lat="46.65717" lon="-0.99077">
        <ele>80</ele>
        <time>2022-09-05T11:00:58Z</time>
      </trkpt>
      <trkpt lat="46.65726" lon="-0.99112">
        <ele>81</ele>
        <time>2022-09-05T11:01:02Z</time>
      </trkpt>
      <trkpt lat="46.65729" lon="-0.99135">
        <ele>81</ele>
        <time>2022-09-05T11:01:05Z</time>
      </trkpt>
      <trkpt lat="46.6573" lon="-0.99161">
        <ele>82</ele>
        <time>2022-09-05T11:01:08Z</time>
      </trkpt>
      <trkpt lat="46.65707" lon="-0.99245">
        <ele>82</ele>
        <time>2022-09-05T11:01:19Z</time>
      </trkpt>
      <trkpt lat="46.65705" lon="-0.99278">
        <ele>81</ele>
        <time>2022-09-05T11:01:23Z</time>
      </trkpt>
      <trkpt lat="46.65707" lon="-0.99298">
        <ele>80</ele>
        <time>2022-09-05T11:01:26Z</time>
      </trkpt>
      <trkpt lat="46.65713" lon="-0.99312">
        <ele>79</ele>
        <time>2022-09-05T11:01:28Z</time>
      </trkpt>
      <trkpt lat="46.65723" lon="-0.99328">
        <ele>78</ele>
        <time>2022-09-05T11:01:30Z</time>
      </trkpt>
      <trkpt lat="46.65739" lon="-0.99342">
        <ele>76</ele>
        <time>2022-09-05T11:01:34Z</time>
      </trkpt>
      <trkpt lat="46.65858" lon="-0.99415">
        <ele>64</ele>
        <time>2022-09-05T11:01:57Z</time>
      </trkpt>
      <trkpt lat="46.6588" lon="-0.99425">
        <ele>62</ele>
        <time>2022-09-05T11:02:01Z</time>
      </trkpt>
      <trkpt lat="46.65895" lon="-0.99429">
        <ele>61</ele>
        <time>2022-09-05T11:02:03Z</time>
      </trkpt>
      <trkpt lat="46.65936" lon="-0.99434">
        <ele>59</ele>
        <time>2022-09-05T11:02:11Z</time>
      </trkpt>
      <trkpt lat="46.65952" lon="-0.99438">
        <ele>58</ele>
        <time>2022-09-05T11:02:14Z</time>
      </trkpt>
      <trkpt lat="46.65974" lon="-0.99448">
        <ele>57</ele>
        <time>2022-09-05T11:02:18Z</time>
      </trkpt>
      <trkpt lat="46.65986" lon="-0.99459">
        <ele>56</ele>
        <time>2022-09-05T11:02:20Z</time>
      </trkpt>
      <trkpt lat="46.65995" lon="-0.9947">
        <ele>55</ele>
        <time>2022-09-05T11:02:22Z</time>
      </trkpt>
      <trkpt lat="46.66004" lon="-0.99486">
        <ele>54</ele>
        <time>2022-09-05T11:02:25Z</time>
      </trkpt>
      <trkpt lat="46.66012" lon="-0.99506">
        <ele>53</ele>
        <time>2022-09-05T11:02:28Z</time>
      </trkpt>
      <trkpt lat="46.66018" lon="-0.99531">
        <ele>52</ele>
        <time>2022-09-05T11:02:31Z</time>
      </trkpt>
      <trkpt lat="46.6603" lon="-0.99602">
        <ele>49</ele>
        <time>2022-09-05T11:02:40Z</time>
      </trkpt>
      <trkpt lat="46.66043" lon="-0.99725">
        <ele>48</ele>
        <time>2022-09-05T11:02:55Z</time>
      </trkpt>
      <trkpt lat="46.66049" lon="-0.99748">
        <ele>48</ele>
        <time>2022-09-05T11:02:58Z</time>
      </trkpt>
      <trkpt lat="46.66063" lon="-0.99782">
        <ele>48</ele>
        <time>2022-09-05T11:03:03Z</time>
      </trkpt>
      <trkpt lat="46.6608" lon="-0.99812">
        <ele>47</ele>
        <time>2022-09-05T11:03:08Z</time>
      </trkpt>
      <trkpt lat="46.66095" lon="-0.99836">
        <ele>46</ele>
        <time>2022-09-05T11:03:12Z</time>
      </trkpt>
      <trkpt lat="46.66149" lon="-0.99893">
        <ele>43</ele>
        <time>2022-09-05T11:03:24Z</time>
      </trkpt>
      <trkpt lat="46.66163" lon="-0.99912">
        <ele>42</ele>
        <time>2022-09-05T11:03:27Z</time>
      </trkpt>
      <trkpt lat="46.66172" lon="-0.99931">
        <ele>42</ele>
        <time>2022-09-05T11:03:30Z</time>
      </trkpt>
      <trkpt lat="46.66184" lon="-0.99966">
        <ele>41</ele>
        <time>2022-09-05T11:03:35Z</time>
      </trkpt>
      <trkpt lat="46.66198" lon="-1.00032">
        <ele>40</ele>
        <time>2022-09-05T11:03:43Z</time>
      </trkpt>
      <trkpt lat="46.66205" lon="-1.00056">
        <ele>40</ele>
        <time>2022-09-05T11:03:46Z</time>
      </trkpt>
      <trkpt lat="46.66217" lon="-1.00084">
        <ele>39</ele>
        <time>2022-09-05T11:03:50Z</time>
      </trkpt>
      <trkpt lat="46.66324" lon="-1.00263">
        <ele>36</ele>
        <time>2022-09-05T11:04:19Z</time>
      </trkpt>
      <trkpt lat="46.66359" lon="-1.0032">
        <ele>38</ele>
        <time>2022-09-05T11:04:29Z</time>
      </trkpt>
      <trkpt lat="46.6638" lon="-1.00357">
        <ele>39</ele>
        <time>2022-09-05T11:04:34Z</time>
      </trkpt>
      <trkpt lat="46.6646" lon="-1.00481">
        <ele>45</ele>
        <time>2022-09-05T11:04:55Z</time>
      </trkpt>
      <trkpt lat="46.66484" lon="-1.00511">
        <ele>47</ele>
        <time>2022-09-05T11:05:01Z</time>
      </trkpt>
      <trkpt lat="46.66535" lon="-1.00554">
        <ele>50</ele>
        <time>2022-09-05T11:05:11Z</time>
      </trkpt>
      <trkpt lat="46.66664" lon="-1.00653">
        <ele>54</ele>
        <time>2022-09-05T11:05:37Z</time>
      </trkpt>
      <trkpt lat="46.66695" lon="-1.0068">
        <ele>55</ele>
        <time>2022-09-05T11:05:44Z</time>
      </trkpt>
      <trkpt lat="46.66727" lon="-1.00716">
        <ele>56</ele>
        <time>2022-09-05T11:05:51Z</time>
      </trkpt>
      <trkpt lat="46.66741" lon="-1.00739">
        <ele>56</ele>
        <time>2022-09-05T11:05:55Z</time>
      </trkpt>
      <trkpt lat="46.6675" lon="-1.00758">
        <ele>56</ele>
        <time>2022-09-05T11:05:57Z</time>
      </trkpt>
      <trkpt lat="46.66864" lon="-1.01058">
        <ele>67</ele>
        <time>2022-09-05T11:06:39Z</time>
      </trkpt>
      <trkpt lat="46.66894" lon="-1.01034">
        <ele>66</ele>
        <time>2022-09-05T11:06:45Z</time>
      </trkpt>
      <trkpt lat="46.66927" lon="-1.01018">
        <ele>65</ele>
        <time>2022-09-05T11:06:52Z</time>
      </trkpt>
      <trkpt lat="46.66958" lon="-1.01006">
        <ele>64</ele>
        <time>2022-09-05T11:06:57Z</time>
      </trkpt>
      <trkpt lat="46.66969" lon="-1.01005">
        <ele>63</ele>
        <time>2022-09-05T11:06:59Z</time>
      </trkpt>
      <trkpt lat="46.66988" lon="-1.01006">
        <ele>62</ele>
        <time>2022-09-05T11:07:03Z</time>
      </trkpt>
      <trkpt lat="46.67096" lon="-1.01041">
        <ele>57</ele>
        <time>2022-09-05T11:07:22Z</time>
      </trkpt>
      <trkpt lat="46.67158" lon="-1.01064">
        <ele>52</ele>
        <time>2022-09-05T11:07:34Z</time>
      </trkpt>
      <trkpt lat="46.67222" lon="-1.01091">
        <ele>52</ele>
        <time>2022-09-05T11:07:46Z</time>
      </trkpt>
      <trkpt lat="46.67231" lon="-1.01095">
        <ele>53</ele>
        <time>2022-09-05T11:07:47Z</time>
      </trkpt>
      <trkpt lat="46.67238" lon="-1.01104">
        <ele>53</ele>
        <time>2022-09-05T11:07:49Z</time>
      </trkpt>
      <trkpt lat="46.67242" lon="-1.01116">
        <ele>53</ele>
        <time>2022-09-05T11:07:51Z</time>
      </trkpt>
      <trkpt lat="46.6728" lon="-1.01111">
        <ele>54</ele>
        <time>2022-09-05T11:07:57Z</time>
      </trkpt>
      <trkpt lat="46.67292" lon="-1.01104">
        <ele>54</ele>
        <time>2022-09-05T11:08:00Z</time>
      </trkpt>
      <trkpt lat="46.67296" lon="-1.01097">
        <ele>54</ele>
        <time>2022-09-05T11:08:01Z</time>
      </trkpt>
      <trkpt lat="46.673" lon="-1.01087">
        <ele>54</ele>
        <time>2022-09-05T11:08:02Z</time>
      </trkpt>
      <trkpt lat="46.67305" lon="-1.01064">
        <ele>54</ele>
        <time>2022-09-05T11:08:05Z</time>
      </trkpt>
      <trkpt lat="46.67312" lon="-1.00971">
        <ele>54</ele>
        <time>2022-09-05T11:08:16Z</time>
      </trkpt>
      <trkpt lat="46.6732" lon="-1.00907">
        <ele>55</ele>
        <time>2022-09-05T11:08:24Z</time>
      </trkpt>
      <trkpt lat="46.67329" lon="-1.00879">
        <ele>54</ele>
        <time>2022-09-05T11:08:28Z</time>
      </trkpt>
      <trkpt lat="46.67334" lon="-1.0087">
        <ele>54</ele>
        <time>2022-09-05T11:08:30Z</time>
      </trkpt>
      <trkpt lat="46.67346" lon="-1.00855">
        <ele>54</ele>
        <time>2022-09-05T11:08:32Z</time>
      </trkpt>
      <trkpt lat="46.67766" lon="-1.00563">
        <ele>68</ele>
        <time>2022-09-05T11:09:55Z</time>
      </trkpt>
      <trkpt lat="46.67803" lon="-1.00539">
        <ele>67</ele>
        <time>2022-09-05T11:10:02Z</time>
      </trkpt>
      <trkpt lat="46.67862" lon="-1.0051">
        <ele>66</ele>
        <time>2022-09-05T11:10:14Z</time>
      </trkpt>
      <trkpt lat="46.67891" lon="-1.0049">
        <ele>64</ele>
        <time>2022-09-05T11:10:19Z</time>
      </trkpt>
      <trkpt lat="46.67903" lon="-1.00476">
        <ele>64</ele>
        <time>2022-09-05T11:10:22Z</time>
      </trkpt>
      <trkpt lat="46.67936" lon="-1.00417">
        <ele>63</ele>
        <time>2022-09-05T11:10:31Z</time>
      </trkpt>
      <trkpt lat="46.6797" lon="-1.00375">
        <ele>65</ele>
        <time>2022-09-05T11:10:39Z</time>
      </trkpt>
      <trkpt lat="46.68017" lon="-1.0033">
        <ele>68</ele>
        <time>2022-09-05T11:10:49Z</time>
      </trkpt>
      <trkpt lat="46.68029" lon="-1.00316">
        <ele>69</ele>
        <time>2022-09-05T11:10:52Z</time>
      </trkpt>
      <trkpt lat="46.68036" lon="-1.00301">
        <ele>70</ele>
        <time>2022-09-05T11:10:54Z</time>
      </trkpt>
      <trkpt lat="46.68053" lon="-1.00246">
        <ele>72</ele>
        <time>2022-09-05T11:11:01Z</time>
      </trkpt>
      <trkpt lat="46.6806" lon="-1.00233">
        <ele>73</ele>
        <time>2022-09-05T11:11:04Z</time>
      </trkpt>
      <trkpt lat="46.68072" lon="-1.00223">
        <ele>74</ele>
        <time>2022-09-05T11:11:06Z</time>
      </trkpt>
      <trkpt lat="46.68077" lon="-1.00235">
        <ele>74</ele>
        <time>2022-09-05T11:11:08Z</time>
      </trkpt>
      <trkpt lat="46.68195" lon="-1.00413">
        <ele>75</ele>
        <time>2022-09-05T11:11:38Z</time>
      </trkpt>
      <trkpt lat="46.682" lon="-1.00419">
        <ele>75</ele>
        <time>2022-09-05T11:11:39Z</time>
      </trkpt>
      <trkpt lat="46.68206" lon="-1.00422">
        <ele>75</ele>
        <time>2022-09-05T11:11:40Z</time>
      </trkpt>
      <trkpt lat="46.68215" lon="-1.00422">
        <ele>76</ele>
        <time>2022-09-05T11:11:42Z</time>
      </trkpt>
      <trkpt lat="46.68215" lon="-1.00417">
        <ele>76</ele>
        <time>2022-09-05T11:11:42Z</time>
      </trkpt>
      <trkpt lat="46.68218" lon="-1.00409">
        <ele>76</ele>
        <time>2022-09-05T11:11:44Z</time>
      </trkpt>
      <trkpt lat="46.68224" lon="-1.00405">
        <ele>76</ele>
        <time>2022-09-05T11:11:45Z</time>
      </trkpt>
      <trkpt lat="46.68233" lon="-1.00408">
        <ele>76</ele>
        <time>2022-09-05T11:11:46Z</time>
      </trkpt>
      <trkpt lat="46.68236" lon="-1.00415">
        <ele>76</ele>
        <time>2022-09-05T11:11:47Z</time>
      </trkpt>
      <trkpt lat="46.68236" lon="-1.00424">
        <ele>76</ele>
        <time>2022-09-05T11:11:48Z</time>
      </trkpt>
      <trkpt lat="46.68235" lon="-1.00429">
        <ele>76</ele>
        <time>2022-09-05T11:11:49Z</time>
      </trkpt>
      <trkpt lat="46.68233" lon="-1.00432">
        <ele>76</ele>
        <time>2022-09-05T11:11:50Z</time>
      </trkpt>
      <trkpt lat="46.68227" lon="-1.00436">
        <ele>76</ele>
        <time>2022-09-05T11:11:51Z</time>
      </trkpt>
      <trkpt lat="46.68227" lon="-1.00451">
        <ele>76</ele>
        <time>2022-09-05T11:11:53Z</time>
      </trkpt>
      <trkpt lat="46.68233" lon="-1.00462">
        <ele>76</ele>
        <time>2022-09-05T11:11:54Z</time>
      </trkpt>
      <trkpt lat="46.68237" lon="-1.00458">
        <ele>76</ele>
        <time>2022-09-05T11:11:55Z</time>
      </trkpt>
      <trkpt lat="46.68239" lon="-1.00454">
        <ele>76</ele>
        <time>2022-09-05T11:11:56Z</time>
      </trkpt>
      <trkpt lat="46.68268" lon="-1.00477">
        <ele>77</ele>
        <time>2022-09-05T11:12:02Z</time>
      </trkpt>
      <trkpt lat="46.68305" lon="-1.00516">
        <ele>77</ele>
        <time>2022-09-05T11:12:10Z</time>
      </trkpt>
      <trkpt lat="46.68321" lon="-1.0055">
        <ele>78</ele>
        <time>2022-09-05T11:12:15Z</time>
      </trkpt>
      <trkpt lat="46.68341" lon="-1.00618">
        <ele>77</ele>
        <time>2022-09-05T11:12:24Z</time>
      </trkpt>
      <trkpt lat="46.68364" lon="-1.00669">
        <ele>76</ele>
        <time>2022-09-05T11:12:31Z</time>
      </trkpt>
      <trkpt lat="46.68415" lon="-1.00769">
        <ele>77</ele>
        <time>2022-09-05T11:12:46Z</time>
      </trkpt>
      <trkpt lat="46.68505" lon="-1.0095">
        <ele>76</ele>
        <time>2022-09-05T11:13:14Z</time>
      </trkpt>
      <trkpt lat="46.68593" lon="-1.01094">
        <ele>77</ele>
        <time>2022-09-05T11:13:37Z</time>
      </trkpt>
      <trkpt lat="46.6861" lon="-1.01138">
        <ele>78</ele>
        <time>2022-09-05T11:13:43Z</time>
      </trkpt>
      <trkpt lat="46.68613" lon="-1.01163">
        <ele>79</ele>
        <time>2022-09-05T11:13:47Z</time>
      </trkpt>
      <trkpt lat="46.68615" lon="-1.01272">
        <ele>79</ele>
        <time>2022-09-05T11:14:00Z</time>
      </trkpt>
      <trkpt lat="46.68665" lon="-1.01583">
        <ele>80</ele>
        <time>2022-09-05T11:14:39Z</time>
      </trkpt>
      <trkpt lat="46.68786" lon="-1.01605">
        <ele>79</ele>
        <time>2022-09-05T11:15:01Z</time>
      </trkpt>
      <trkpt lat="46.68786" lon="-1.01614">
        <ele>78</ele>
        <time>2022-09-05T11:15:02Z</time>
      </trkpt>
      <trkpt lat="46.68903" lon="-1.01672">
        <ele>76</ele>
        <time>2022-09-05T11:15:24Z</time>
      </trkpt>
      <trkpt lat="46.68986" lon="-1.01693">
        <ele>75</ele>
        <time>2022-09-05T11:15:39Z</time>
      </trkpt>
      <trkpt lat="46.69061" lon="-1.01726">
        <ele>76</ele>
        <time>2022-09-05T11:15:53Z</time>
      </trkpt>
      <trkpt lat="46.69135" lon="-1.01772">
        <ele>77</ele>
        <time>2022-09-05T11:16:07Z</time>
      </trkpt>
      <trkpt lat="46.69142" lon="-1.01774">
        <ele>77</ele>
        <time>2022-09-05T11:16:08Z</time>
      </trkpt>
      <trkpt lat="46.69151" lon="-1.01766">
        <ele>77</ele>
        <time>2022-09-05T11:16:10Z</time>
      </trkpt>
      <trkpt lat="46.69155" lon="-1.01773">
        <ele>77</ele>
        <time>2022-09-05T11:16:11Z</time>
      </trkpt>
      <trkpt lat="46.69159" lon="-1.01775">
        <ele>77</ele>
        <time>2022-09-05T11:16:12Z</time>
      </trkpt>
      <trkpt lat="46.69229" lon="-1.01793">
        <ele>72</ele>
        <time>2022-09-05T11:16:25Z</time>
      </trkpt>
      <trkpt lat="46.69319" lon="-1.01829">
        <ele>66</ele>
        <time>2022-09-05T11:16:41Z</time>
      </trkpt>
      <trkpt lat="46.69335" lon="-1.01832">
        <ele>65</ele>
        <time>2022-09-05T11:16:44Z</time>
      </trkpt>
      <trkpt lat="46.6936" lon="-1.01832">
        <ele>65</ele>
        <time>2022-09-05T11:16:48Z</time>
      </trkpt>
      <trkpt lat="46.69372" lon="-1.01835">
        <ele>65</ele>
        <time>2022-09-05T11:16:51Z</time>
      </trkpt>
      <trkpt lat="46.69384" lon="-1.01849">
        <ele>64</ele>
        <time>2022-09-05T11:16:53Z</time>
      </trkpt>
      <trkpt lat="46.69405" lon="-1.01896">
        <ele>65</ele>
        <time>2022-09-05T11:17:00Z</time>
      </trkpt>
      <trkpt lat="46.69446" lon="-1.01976">
        <ele>66</ele>
        <time>2022-09-05T11:17:12Z</time>
      </trkpt>
      <trkpt lat="46.69457" lon="-1.01992">
        <ele>67</ele>
        <time>2022-09-05T11:17:15Z</time>
      </trkpt>
      <trkpt lat="46.69493" lon="-1.02032">
        <ele>68</ele>
        <time>2022-09-05T11:17:23Z</time>
      </trkpt>
      <trkpt lat="46.69542" lon="-1.02111">
        <ele>69</ele>
        <time>2022-09-05T11:17:36Z</time>
      </trkpt>
      <trkpt lat="46.69585" lon="-1.02198">
        <ele>72</ele>
        <time>2022-09-05T11:17:49Z</time>
      </trkpt>
      <trkpt lat="46.69596" lon="-1.02213">
        <ele>73</ele>
        <time>2022-09-05T11:17:52Z</time>
      </trkpt>
      <trkpt lat="46.69608" lon="-1.02226">
        <ele>74</ele>
        <time>2022-09-05T11:17:55Z</time>
      </trkpt>
      <trkpt lat="46.6963" lon="-1.02242">
        <ele>75</ele>
        <time>2022-09-05T11:17:59Z</time>
      </trkpt>
      <trkpt lat="46.69686" lon="-1.02265">
        <ele>77</ele>
        <time>2022-09-05T11:18:09Z</time>
      </trkpt>
      <trkpt lat="46.69713" lon="-1.02283">
        <ele>78</ele>
        <time>2022-09-05T11:18:15Z</time>
      </trkpt>
      <trkpt lat="46.69735" lon="-1.02302">
        <ele>80</ele>
        <time>2022-09-05T11:18:19Z</time>
      </trkpt>
      <trkpt lat="46.69798" lon="-1.02377">
        <ele>83</ele>
        <time>2022-09-05T11:18:34Z</time>
      </trkpt>
      <trkpt lat="46.69944" lon="-1.02506">
        <ele>85</ele>
        <time>2022-09-05T11:19:04Z</time>
      </trkpt>
      <trkpt lat="46.69956" lon="-1.02518">
        <ele>85</ele>
        <time>2022-09-05T11:19:07Z</time>
      </trkpt>
      <trkpt lat="46.69995" lon="-1.02548">
        <ele>83</ele>
        <time>2022-09-05T11:19:14Z</time>
      </trkpt>
      <trkpt lat="46.70026" lon="-1.02569">
        <ele>82</ele>
        <time>2022-09-05T11:19:21Z</time>
      </trkpt>
      <trkpt lat="46.70063" lon="-1.02587">
        <ele>80</ele>
        <time>2022-09-05T11:19:28Z</time>
      </trkpt>
      <trkpt lat="46.70099" lon="-1.02595">
        <ele>79</ele>
        <time>2022-09-05T11:19:34Z</time>
      </trkpt>
      <trkpt lat="46.70141" lon="-1.02598">
        <ele>78</ele>
        <time>2022-09-05T11:19:41Z</time>
      </trkpt>
      <trkpt lat="46.70174" lon="-1.02606">
        <ele>78</ele>
        <time>2022-09-05T11:19:47Z</time>
      </trkpt>
      <trkpt lat="46.70199" lon="-1.02615">
        <ele>77</ele>
        <time>2022-09-05T11:19:52Z</time>
      </trkpt>
      <trkpt lat="46.70246" lon="-1.02641">
        <ele>76</ele>
        <time>2022-09-05T11:20:01Z</time>
      </trkpt>
      <trkpt lat="46.70301" lon="-1.0268">
        <ele>76</ele>
        <time>2022-09-05T11:20:12Z</time>
      </trkpt>
      <trkpt lat="46.70358" lon="-1.02728">
        <ele>77</ele>
        <time>2022-09-05T11:20:24Z</time>
      </trkpt>
      <trkpt lat="46.7039" lon="-1.02751">
        <ele>78</ele>
        <time>2022-09-05T11:20:30Z</time>
      </trkpt>
      <trkpt lat="46.70438" lon="-1.02776">
        <ele>77</ele>
        <time>2022-09-05T11:20:39Z</time>
      </trkpt>
      <trkpt lat="46.70486" lon="-1.02778">
        <ele>75</ele>
        <time>2022-09-05T11:20:48Z</time>
      </trkpt>
      <trkpt lat="46.70499" lon="-1.02782">
        <ele>74</ele>
        <time>2022-09-05T11:20:50Z</time>
      </trkpt>
      <trkpt lat="46.70515" lon="-1.02792">
        <ele>73</ele>
        <time>2022-09-05T11:20:53Z</time>
      </trkpt>
      <trkpt lat="46.70526" lon="-1.02801">
        <ele>73</ele>
        <time>2022-09-05T11:20:55Z</time>
      </trkpt>
      <trkpt lat="46.70565" lon="-1.02864">
        <ele>72</ele>
        <time>2022-09-05T11:21:06Z</time>
      </trkpt>
      <trkpt lat="46.70583" lon="-1.02878">
        <ele>72</ele>
        <time>2022-09-05T11:21:09Z</time>
      </trkpt>
      <trkpt lat="46.7067" lon="-1.02923">
        <ele>73</ele>
        <time>2022-09-05T11:21:26Z</time>
      </trkpt>
      <trkpt lat="46.70713" lon="-1.0295">
        <ele>74</ele>
        <time>2022-09-05T11:21:34Z</time>
      </trkpt>
      <trkpt lat="46.70797" lon="-1.03038">
        <ele>76</ele>
        <time>2022-09-05T11:21:52Z</time>
      </trkpt>
      <trkpt lat="46.70827" lon="-1.03071">
        <ele>78</ele>
        <time>2022-09-05T11:21:59Z</time>
      </trkpt>
      <trkpt lat="46.70876" lon="-1.03161">
        <ele>78</ele>
        <time>2022-09-05T11:22:13Z</time>
      </trkpt>
      <trkpt lat="46.70912" lon="-1.03229">
        <ele>79</ele>
        <time>2022-09-05T11:22:24Z</time>
      </trkpt>
      <trkpt lat="46.70925" lon="-1.03248">
        <ele>79</ele>
        <time>2022-09-05T11:22:27Z</time>
      </trkpt>
      <trkpt lat="46.70941" lon="-1.03262">
        <ele>80</ele>
        <time>2022-09-05T11:22:30Z</time>
      </trkpt>
      <trkpt lat="46.71009" lon="-1.03314">
        <ele>80</ele>
        <time>2022-09-05T11:22:44Z</time>
      </trkpt>
      <trkpt lat="46.71031" lon="-1.03336">
        <ele>80</ele>
        <time>2022-09-05T11:22:49Z</time>
      </trkpt>
      <trkpt lat="46.7104" lon="-1.03348">
        <ele>80</ele>
        <time>2022-09-05T11:22:51Z</time>
      </trkpt>
      <trkpt lat="46.71087" lon="-1.03426">
        <ele>79</ele>
        <time>2022-09-05T11:23:03Z</time>
      </trkpt>
      <trkpt lat="46.711" lon="-1.03444">
        <ele>79</ele>
        <time>2022-09-05T11:23:07Z</time>
      </trkpt>
      <trkpt lat="46.71147" lon="-1.03501">
        <ele>79</ele>
        <time>2022-09-05T11:23:17Z</time>
      </trkpt>
      <trkpt lat="46.71287" lon="-1.03682">
        <ele>79</ele>
        <time>2022-09-05T11:23:51Z</time>
      </trkpt>
      <trkpt lat="46.71301" lon="-1.03702">
        <ele>79</ele>
        <time>2022-09-05T11:23:54Z</time>
      </trkpt>
      <trkpt lat="46.71391" lon="-1.03849">
        <ele>76</ele>
        <time>2022-09-05T11:24:18Z</time>
      </trkpt>
      <trkpt lat="46.71404" lon="-1.03874">
        <ele>76</ele>
        <time>2022-09-05T11:24:22Z</time>
      </trkpt>
      <trkpt lat="46.71439" lon="-1.04015">
        <ele>76</ele>
        <time>2022-09-05T11:24:40Z</time>
      </trkpt>
      <trkpt lat="46.71462" lon="-1.0403">
        <ele>76</ele>
        <time>2022-09-05T11:24:45Z</time>
      </trkpt>
      <trkpt lat="46.71477" lon="-1.04036">
        <ele>77</ele>
        <time>2022-09-05T11:24:48Z</time>
      </trkpt>
      <trkpt lat="46.71516" lon="-1.04043">
        <ele>78</ele>
        <time>2022-09-05T11:24:55Z</time>
      </trkpt>
      <trkpt lat="46.71526" lon="-1.04051">
        <ele>78</ele>
        <time>2022-09-05T11:24:57Z</time>
      </trkpt>
      <trkpt lat="46.7153" lon="-1.0406">
        <ele>79</ele>
        <time>2022-09-05T11:24:58Z</time>
      </trkpt>
      <trkpt lat="46.71536" lon="-1.04079">
        <ele>79</ele>
        <time>2022-09-05T11:25:01Z</time>
      </trkpt>
      <trkpt lat="46.71545" lon="-1.0413">
        <ele>80</ele>
        <time>2022-09-05T11:25:07Z</time>
      </trkpt>
      <trkpt lat="46.71553" lon="-1.04151">
        <ele>80</ele>
        <time>2022-09-05T11:25:10Z</time>
      </trkpt>
      <trkpt lat="46.7156" lon="-1.04159">
        <ele>80</ele>
        <time>2022-09-05T11:25:11Z</time>
      </trkpt>
      <trkpt lat="46.71569" lon="-1.04164">
        <ele>81</ele>
        <time>2022-09-05T11:25:13Z</time>
      </trkpt>
      <trkpt lat="46.71668" lon="-1.04193">
        <ele>82</ele>
        <time>2022-09-05T11:25:31Z</time>
      </trkpt>
      <trkpt lat="46.71719" lon="-1.0419">
        <ele>81</ele>
        <time>2022-09-05T11:25:40Z</time>
      </trkpt>
      <trkpt lat="46.71766" lon="-1.04194">
        <ele>81</ele>
        <time>2022-09-05T11:25:49Z</time>
      </trkpt>
      <trkpt lat="46.71773" lon="-1.042">
        <ele>81</ele>
        <time>2022-09-05T11:25:50Z</time>
      </trkpt>
      <trkpt lat="46.71798" lon="-1.04237">
        <ele>80</ele>
        <time>2022-09-05T11:25:56Z</time>
      </trkpt>
      <trkpt lat="46.71886" lon="-1.04353">
        <ele>78</ele>
        <time>2022-09-05T11:26:17Z</time>
      </trkpt>
      <trkpt lat="46.7194" lon="-1.04422">
        <ele>78</ele>
        <time>2022-09-05T11:26:30Z</time>
      </trkpt>
      <trkpt lat="46.72175" lon="-1.04706">
        <ele>76</ele>
        <time>2022-09-05T11:27:25Z</time>
      </trkpt>
      <trkpt lat="46.72186" lon="-1.04726">
        <ele>75</ele>
        <time>2022-09-05T11:27:28Z</time>
      </trkpt>
      <trkpt lat="46.7221" lon="-1.04778">
        <ele>75</ele>
        <time>2022-09-05T11:27:35Z</time>
      </trkpt>
      <trkpt lat="46.72228" lon="-1.04804">
        <ele>74</ele>
        <time>2022-09-05T11:27:40Z</time>
      </trkpt>
      <trkpt lat="46.72354" lon="-1.04949">
        <ele>72</ele>
        <time>2022-09-05T11:28:08Z</time>
      </trkpt>
      <trkpt lat="46.72364" lon="-1.04958">
        <ele>72</ele>
        <time>2022-09-05T11:28:10Z</time>
      </trkpt>
      <trkpt lat="46.72383" lon="-1.04966">
        <ele>72</ele>
        <time>2022-09-05T11:28:14Z</time>
      </trkpt>
      <trkpt lat="46.72409" lon="-1.04963">
        <ele>72</ele>
        <time>2022-09-05T11:28:19Z</time>
      </trkpt>
      <trkpt lat="46.72424" lon="-1.04955">
        <ele>73</ele>
        <time>2022-09-05T11:28:21Z</time>
      </trkpt>
      <trkpt lat="46.72753" lon="-1.04757">
        <ele>77</ele>
        <time>2022-09-05T11:29:25Z</time>
      </trkpt>
      <trkpt lat="46.72806" lon="-1.04729">
        <ele>77</ele>
        <time>2022-09-05T11:29:35Z</time>
      </trkpt>
      <trkpt lat="46.72936" lon="-1.04666">
        <ele>78</ele>
        <time>2022-09-05T11:29:59Z</time>
      </trkpt>
      <trkpt lat="46.72972" lon="-1.0465">
        <ele>78</ele>
        <time>2022-09-05T11:30:06Z</time>
      </trkpt>
      <trkpt lat="46.73093" lon="-1.04614">
        <ele>78</ele>
        <time>2022-09-05T11:30:28Z</time>
      </trkpt>
      <trkpt lat="46.73137" lon="-1.04588">
        <ele>79</ele>
        <time>2022-09-05T11:30:36Z</time>
      </trkpt>
      <trkpt lat="46.73165" lon="-1.04577">
        <ele>80</ele>
        <time>2022-09-05T11:30:41Z</time>
      </trkpt>
      <trkpt lat="46.7319" lon="-1.04569">
        <ele>80</ele>
        <time>2022-09-05T11:30:46Z</time>
      </trkpt>
      <trkpt lat="46.73258" lon="-1.04569">
        <ele>78</ele>
        <time>2022-09-05T11:30:58Z</time>
      </trkpt>
      <trkpt lat="46.73325" lon="-1.04564">
        <ele>77</ele>
        <time>2022-09-05T11:31:10Z</time>
      </trkpt>
      <trkpt lat="46.73354" lon="-1.04568">
        <ele>76</ele>
        <time>2022-09-05T11:31:15Z</time>
      </trkpt>
      <trkpt lat="46.73382" lon="-1.04583">
        <ele>76</ele>
        <time>2022-09-05T11:31:21Z</time>
      </trkpt>
      <trkpt lat="46.73435" lon="-1.04619">
        <ele>74</ele>
        <time>2022-09-05T11:31:31Z</time>
      </trkpt>
      <trkpt lat="46.73456" lon="-1.04631">
        <ele>74</ele>
        <time>2022-09-05T11:31:35Z</time>
      </trkpt>
      <trkpt lat="46.73499" lon="-1.0465">
        <ele>74</ele>
        <time>2022-09-05T11:31:43Z</time>
      </trkpt>
      <trkpt lat="46.73519" lon="-1.04655">
        <ele>73</ele>
        <time>2022-09-05T11:31:47Z</time>
      </trkpt>
      <trkpt lat="46.73528" lon="-1.04655">
        <ele>73</ele>
        <time>2022-09-05T11:31:48Z</time>
      </trkpt>
      <trkpt lat="46.73547" lon="-1.04651">
        <ele>72</ele>
        <time>2022-09-05T11:31:52Z</time>
      </trkpt>
      <trkpt lat="46.73601" lon="-1.04634">
        <ele>70</ele>
        <time>2022-09-05T11:32:01Z</time>
      </trkpt>
      <trkpt lat="46.73618" lon="-1.04632">
        <ele>70</ele>
        <time>2022-09-05T11:32:04Z</time>
      </trkpt>
      <trkpt lat="46.73635" lon="-1.04633">
        <ele>69</ele>
        <time>2022-09-05T11:32:07Z</time>
      </trkpt>
      <trkpt lat="46.73705" lon="-1.04643">
        <ele>66</ele>
        <time>2022-09-05T11:32:20Z</time>
      </trkpt>
      <trkpt lat="46.73736" lon="-1.04639">
        <ele>65</ele>
        <time>2022-09-05T11:32:26Z</time>
      </trkpt>
      <trkpt lat="46.73772" lon="-1.04631">
        <ele>65</ele>
        <time>2022-09-05T11:32:32Z</time>
      </trkpt>
      <trkpt lat="46.73819" lon="-1.04626">
        <ele>66</ele>
        <time>2022-09-05T11:32:40Z</time>
      </trkpt>
      <trkpt lat="46.73918" lon="-1.04631">
        <ele>69</ele>
        <time>2022-09-05T11:32:58Z</time>
      </trkpt>
      <trkpt lat="46.73968" lon="-1.04627">
        <ele>71</ele>
        <time>2022-09-05T11:33:07Z</time>
      </trkpt>
      <trkpt lat="46.74027" lon="-1.04618">
        <ele>73</ele>
        <time>2022-09-05T11:33:18Z</time>
      </trkpt>
      <trkpt lat="46.74051" lon="-1.04612">
        <ele>73</ele>
        <time>2022-09-05T11:33:22Z</time>
      </trkpt>
      <trkpt lat="46.7415" lon="-1.04569">
        <ele>77</ele>
        <time>2022-09-05T11:33:40Z</time>
      </trkpt>
      <trkpt lat="46.74179" lon="-1.04559">
        <ele>78</ele>
        <time>2022-09-05T11:33:46Z</time>
      </trkpt>
      <trkpt lat="46.74339" lon="-1.04548">
        <ele>80</ele>
        <time>2022-09-05T11:34:14Z</time>
      </trkpt>
      <trkpt lat="46.74405" lon="-1.04541">
        <ele>79</ele>
        <time>2022-09-05T11:34:26Z</time>
      </trkpt>
      <trkpt lat="46.74429" lon="-1.04541">
        <ele>79</ele>
        <time>2022-09-05T11:34:30Z</time>
      </trkpt>
      <trkpt lat="46.74471" lon="-1.04549">
        <ele>79</ele>
        <time>2022-09-05T11:34:38Z</time>
      </trkpt>
      <trkpt lat="46.74482" lon="-1.04548">
        <ele>80</ele>
        <time>2022-09-05T11:34:40Z</time>
      </trkpt>
      <trkpt lat="46.74501" lon="-1.0454">
        <ele>80</ele>
        <time>2022-09-05T11:34:43Z</time>
      </trkpt>
      <trkpt lat="46.74534" lon="-1.0451">
        <ele>80</ele>
        <time>2022-09-05T11:34:50Z</time>
      </trkpt>
      <trkpt lat="46.74546" lon="-1.04503">
        <ele>81</ele>
        <time>2022-09-05T11:34:52Z</time>
      </trkpt>
      <trkpt lat="46.74564" lon="-1.04502">
        <ele>81</ele>
        <time>2022-09-05T11:34:55Z</time>
      </trkpt>
      <trkpt lat="46.74625" lon="-1.04522">
        <ele>80</ele>
        <time>2022-09-05T11:35:07Z</time>
      </trkpt>
      <trkpt lat="46.74643" lon="-1.04526">
        <ele>79</ele>
        <time>2022-09-05T11:35:10Z</time>
      </trkpt>
      <trkpt lat="46.74656" lon="-1.04525">
        <ele>79</ele>
        <time>2022-09-05T11:35:12Z</time>
      </trkpt>
      <trkpt lat="46.74688" lon="-1.04514">
        <ele>78</ele>
        <time>2022-09-05T11:35:18Z</time>
      </trkpt>
      <trkpt lat="46.74837" lon="-1.04443">
        <ele>77</ele>
        <time>2022-09-05T11:35:46Z</time>
      </trkpt>
      <trkpt lat="46.74939" lon="-1.04393">
        <ele>82</ele>
        <time>2022-09-05T11:36:05Z</time>
      </trkpt>
      <trkpt lat="46.7495" lon="-1.04391">
        <ele>82</ele>
        <time>2022-09-05T11:36:07Z</time>
      </trkpt>
      <trkpt lat="46.74961" lon="-1.04393">
        <ele>83</ele>
        <time>2022-09-05T11:36:09Z</time>
      </trkpt>
      <trkpt lat="46.74977" lon="-1.04405">
        <ele>84</ele>
        <time>2022-09-05T11:36:12Z</time>
      </trkpt>
      <trkpt lat="46.74995" lon="-1.04423">
        <ele>86</ele>
        <time>2022-09-05T11:36:16Z</time>
      </trkpt>
      <trkpt lat="46.75116" lon="-1.04577">
        <ele>85</ele>
        <time>2022-09-05T11:36:45Z</time>
      </trkpt>
      <trkpt lat="46.75127" lon="-1.04588">
        <ele>85</ele>
        <time>2022-09-05T11:36:47Z</time>
      </trkpt>
      <trkpt lat="46.75153" lon="-1.04603">
        <ele>84</ele>
        <time>2022-09-05T11:36:52Z</time>
      </trkpt>
      <trkpt lat="46.75218" lon="-1.04616">
        <ele>81</ele>
        <time>2022-09-05T11:37:04Z</time>
      </trkpt>
      <trkpt lat="46.7524" lon="-1.04617">
        <ele>80</ele>
        <time>2022-09-05T11:37:08Z</time>
      </trkpt>
      <trkpt lat="46.75294" lon="-1.04608">
        <ele>77</ele>
        <time>2022-09-05T11:37:17Z</time>
      </trkpt>
      <trkpt lat="46.75307" lon="-1.04607">
        <ele>77</ele>
        <time>2022-09-05T11:37:20Z</time>
      </trkpt>
      <trkpt lat="46.75318" lon="-1.0461">
        <ele>76</ele>
        <time>2022-09-05T11:37:22Z</time>
      </trkpt>
      <trkpt lat="46.75337" lon="-1.04623">
        <ele>76</ele>
        <time>2022-09-05T11:37:25Z</time>
      </trkpt>
      <trkpt lat="46.75371" lon="-1.04658">
        <ele>74</ele>
        <time>2022-09-05T11:37:33Z</time>
      </trkpt>
      <trkpt lat="46.7538" lon="-1.04663">
        <ele>74</ele>
        <time>2022-09-05T11:37:34Z</time>
      </trkpt>
      <trkpt lat="46.75389" lon="-1.04664">
        <ele>73</ele>
        <time>2022-09-05T11:37:36Z</time>
      </trkpt>
      <trkpt lat="46.754" lon="-1.04661">
        <ele>72</ele>
        <time>2022-09-05T11:37:38Z</time>
      </trkpt>
      <trkpt lat="46.75411" lon="-1.04654">
        <ele>72</ele>
        <time>2022-09-05T11:37:40Z</time>
      </trkpt>
      <trkpt lat="46.75444" lon="-1.04628">
        <ele>70</ele>
        <time>2022-09-05T11:37:47Z</time>
      </trkpt>
      <trkpt lat="46.75478" lon="-1.04607">
        <ele>69</ele>
        <time>2022-09-05T11:37:53Z</time>
      </trkpt>
      <trkpt lat="46.75562" lon="-1.04573">
        <ele>73</ele>
        <time>2022-09-05T11:38:09Z</time>
      </trkpt>
      <trkpt lat="46.75678" lon="-1.04504">
        <ele>82</ele>
        <time>2022-09-05T11:38:31Z</time>
      </trkpt>
      <trkpt lat="46.75698" lon="-1.04496">
        <ele>83</ele>
        <time>2022-09-05T11:38:35Z</time>
      </trkpt>
      <trkpt lat="46.75741" lon="-1.04485">
        <ele>84</ele>
        <time>2022-09-05T11:38:43Z</time>
      </trkpt>
      <trkpt lat="46.7577" lon="-1.04482">
        <ele>85</ele>
        <time>2022-09-05T11:38:48Z</time>
      </trkpt>
      <trkpt lat="46.75796" lon="-1.04481">
        <ele>86</ele>
        <time>2022-09-05T11:38:52Z</time>
      </trkpt>
      <trkpt lat="46.75947" lon="-1.04486">
        <ele>91</ele>
        <time>2022-09-05T11:39:19Z</time>
      </trkpt>
      <trkpt lat="46.76056" lon="-1.04492">
        <ele>91</ele>
        <time>2022-09-05T11:39:39Z</time>
      </trkpt>
      <trkpt lat="46.76075" lon="-1.04495">
        <ele>91</ele>
        <time>2022-09-05T11:39:42Z</time>
      </trkpt>
      <trkpt lat="46.76086" lon="-1.045">
        <ele>91</ele>
        <time>2022-09-05T11:39:44Z</time>
      </trkpt>
      <trkpt lat="46.76105" lon="-1.04514">
        <ele>91</ele>
        <time>2022-09-05T11:39:48Z</time>
      </trkpt>
      <trkpt lat="46.76116" lon="-1.04531">
        <ele>91</ele>
        <time>2022-09-05T11:39:51Z</time>
      </trkpt>
      <trkpt lat="46.7614" lon="-1.04576">
        <ele>90</ele>
        <time>2022-09-05T11:39:58Z</time>
      </trkpt>
      <trkpt lat="46.76156" lon="-1.046">
        <ele>90</ele>
        <time>2022-09-05T11:40:02Z</time>
      </trkpt>
      <trkpt lat="46.76197" lon="-1.04643">
        <ele>87</ele>
        <time>2022-09-05T11:40:11Z</time>
      </trkpt>
      <trkpt lat="46.76226" lon="-1.04668">
        <ele>86</ele>
        <time>2022-09-05T11:40:17Z</time>
      </trkpt>
      <trkpt lat="46.76238" lon="-1.04676">
        <ele>86</ele>
        <time>2022-09-05T11:40:19Z</time>
      </trkpt>
      <trkpt lat="46.76393" lon="-1.04729">
        <ele>79</ele>
        <time>2022-09-05T11:40:48Z</time>
      </trkpt>
      <trkpt lat="46.7641" lon="-1.04738">
        <ele>77</ele>
        <time>2022-09-05T11:40:51Z</time>
      </trkpt>
      <trkpt lat="46.76437" lon="-1.04758">
        <ele>75</ele>
        <time>2022-09-05T11:40:56Z</time>
      </trkpt>
      <trkpt lat="46.76464" lon="-1.04788">
        <ele>73</ele>
        <time>2022-09-05T11:41:02Z</time>
      </trkpt>
      <trkpt lat="46.76487" lon="-1.04821">
        <ele>71</ele>
        <time>2022-09-05T11:41:08Z</time>
      </trkpt>
      <trkpt lat="46.76495" lon="-1.04837">
        <ele>70</ele>
        <time>2022-09-05T11:41:10Z</time>
      </trkpt>
      <trkpt lat="46.76501" lon="-1.04854">
        <ele>69</ele>
        <time>2022-09-05T11:41:13Z</time>
      </trkpt>
      <trkpt lat="46.76505" lon="-1.04875">
        <ele>70</ele>
        <time>2022-09-05T11:41:15Z</time>
      </trkpt>
      <trkpt lat="46.76511" lon="-1.04936">
        <ele>71</ele>
        <time>2022-09-05T11:41:23Z</time>
      </trkpt>
      <trkpt lat="46.76517" lon="-1.04973">
        <ele>70</ele>
        <time>2022-09-05T11:41:27Z</time>
      </trkpt>
      <trkpt lat="46.76525" lon="-1.0501">
        <ele>70</ele>
        <time>2022-09-05T11:41:32Z</time>
      </trkpt>
      <trkpt lat="46.76532" lon="-1.05032">
        <ele>69</ele>
        <time>2022-09-05T11:41:35Z</time>
      </trkpt>
      <trkpt lat="46.76539" lon="-1.05049">
        <ele>69</ele>
        <time>2022-09-05T11:41:38Z</time>
      </trkpt>
      <trkpt lat="46.76546" lon="-1.05063">
        <ele>68</ele>
        <time>2022-09-05T11:41:40Z</time>
      </trkpt>
      <trkpt lat="46.76551" lon="-1.05069">
        <ele>68</ele>
        <time>2022-09-05T11:41:41Z</time>
      </trkpt>
      <trkpt lat="46.76564" lon="-1.05079">
        <ele>67</ele>
        <time>2022-09-05T11:41:43Z</time>
      </trkpt>
      <trkpt lat="46.76583" lon="-1.05093">
        <ele>67</ele>
        <time>2022-09-05T11:41:47Z</time>
      </trkpt>
      <trkpt lat="46.76607" lon="-1.051">
        <ele>67</ele>
        <time>2022-09-05T11:41:52Z</time>
      </trkpt>
      <trkpt lat="46.76658" lon="-1.05097">
        <ele>68</ele>
        <time>2022-09-05T11:42:01Z</time>
      </trkpt>
      <trkpt lat="46.76674" lon="-1.05104">
        <ele>69</ele>
        <time>2022-09-05T11:42:04Z</time>
      </trkpt>
      <trkpt lat="46.76685" lon="-1.05111">
        <ele>70</ele>
        <time>2022-09-05T11:42:06Z</time>
      </trkpt>
      <trkpt lat="46.76696" lon="-1.05123">
        <ele>71</ele>
        <time>2022-09-05T11:42:08Z</time>
      </trkpt>
      <trkpt lat="46.76764" lon="-1.05206">
        <ele>76</ele>
        <time>2022-09-05T11:42:24Z</time>
      </trkpt>
      <trkpt lat="46.76807" lon="-1.05256">
        <ele>78</ele>
        <time>2022-09-05T11:42:34Z</time>
      </trkpt>
      <trkpt lat="46.76832" lon="-1.05267">
        <ele>80</ele>
        <time>2022-09-05T11:42:38Z</time>
      </trkpt>
      <trkpt lat="46.76858" lon="-1.05272">
        <ele>80</ele>
        <time>2022-09-05T11:42:43Z</time>
      </trkpt>
      <trkpt lat="46.76868" lon="-1.05279">
        <ele>80</ele>
        <time>2022-09-05T11:42:45Z</time>
      </trkpt>
      <trkpt lat="46.76877" lon="-1.05289">
        <ele>80</ele>
        <time>2022-09-05T11:42:47Z</time>
      </trkpt>
      <trkpt lat="46.76884" lon="-1.05301">
        <ele>80</ele>
        <time>2022-09-05T11:42:49Z</time>
      </trkpt>
      <trkpt lat="46.76926" lon="-1.05418">
        <ele>78</ele>
        <time>2022-09-05T11:43:05Z</time>
      </trkpt>
      <trkpt lat="46.76935" lon="-1.05436">
        <ele>77</ele>
        <time>2022-09-05T11:43:08Z</time>
      </trkpt>
      <trkpt lat="46.76962" lon="-1.05477">
        <ele>75</ele>
        <time>2022-09-05T11:43:15Z</time>
      </trkpt>
      <trkpt lat="46.77" lon="-1.05522">
        <ele>73</ele>
        <time>2022-09-05T11:43:23Z</time>
      </trkpt>
      <trkpt lat="46.77044" lon="-1.05559">
        <ele>71</ele>
        <time>2022-09-05T11:43:32Z</time>
      </trkpt>
      <trkpt lat="46.77077" lon="-1.05579">
        <ele>70</ele>
        <time>2022-09-05T11:43:39Z</time>
      </trkpt>
      <trkpt lat="46.77101" lon="-1.0559">
        <ele>71</ele>
        <time>2022-09-05T11:43:43Z</time>
      </trkpt>
      <trkpt lat="46.77122" lon="-1.05597">
        <ele>71</ele>
        <time>2022-09-05T11:43:47Z</time>
      </trkpt>
      <trkpt lat="46.7714" lon="-1.05601">
        <ele>71</ele>
        <time>2022-09-05T11:43:50Z</time>
      </trkpt>
      <trkpt lat="46.77223" lon="-1.05607">
        <ele>72</ele>
        <time>2022-09-05T11:44:05Z</time>
      </trkpt>
      <trkpt lat="46.77244" lon="-1.05603">
        <ele>72</ele>
        <time>2022-09-05T11:44:09Z</time>
      </trkpt>
      <trkpt lat="46.77259" lon="-1.05594">
        <ele>72</ele>
        <time>2022-09-05T11:44:12Z</time>
      </trkpt>
      <trkpt lat="46.77293" lon="-1.05568">
        <ele>70</ele>
        <time>2022-09-05T11:44:19Z</time>
      </trkpt>
      <trkpt lat="46.77319" lon="-1.05554">
        <ele>69</ele>
        <time>2022-09-05T11:44:24Z</time>
      </trkpt>
      <trkpt lat="46.77337" lon="-1.05545">
        <ele>68</ele>
        <time>2022-09-05T11:44:27Z</time>
      </trkpt>
      <trkpt lat="46.77359" lon="-1.05538">
        <ele>67</ele>
        <time>2022-09-05T11:44:31Z</time>
      </trkpt>
      <trkpt lat="46.77417" lon="-1.05525">
        <ele>63</ele>
        <time>2022-09-05T11:44:41Z</time>
      </trkpt>
      <trkpt lat="46.77433" lon="-1.05525">
        <ele>63</ele>
        <time>2022-09-05T11:44:44Z</time>
      </trkpt>
      <trkpt lat="46.77444" lon="-1.05529">
        <ele>63</ele>
        <time>2022-09-05T11:44:46Z</time>
      </trkpt>
      <trkpt lat="46.77474" lon="-1.05548">
        <ele>61</ele>
        <time>2022-09-05T11:44:52Z</time>
      </trkpt>
      <trkpt lat="46.77481" lon="-1.05549">
        <ele>61</ele>
        <time>2022-09-05T11:44:53Z</time>
      </trkpt>
      <trkpt lat="46.77487" lon="-1.05568">
        <ele>60</ele>
        <time>2022-09-05T11:44:56Z</time>
      </trkpt>
      <trkpt lat="46.77496" lon="-1.05584">
        <ele>60</ele>
        <time>2022-09-05T11:44:58Z</time>
      </trkpt>
      <trkpt lat="46.77515" lon="-1.05622">
        <ele>60</ele>
        <time>2022-09-05T11:45:04Z</time>
      </trkpt>
      <trkpt lat="46.77538" lon="-1.05677">
        <ele>60</ele>
        <time>2022-09-05T11:45:12Z</time>
      </trkpt>
      <trkpt lat="46.77565" lon="-1.05756">
        <ele>59</ele>
        <time>2022-09-05T11:45:23Z</time>
      </trkpt>
      <trkpt lat="46.77572" lon="-1.058">
        <ele>60</ele>
        <time>2022-09-05T11:45:28Z</time>
      </trkpt>
      <trkpt lat="46.7757" lon="-1.05876">
        <ele>63</ele>
        <time>2022-09-05T11:45:38Z</time>
      </trkpt>
      <trkpt lat="46.77572" lon="-1.05918">
        <ele>64</ele>
        <time>2022-09-05T11:45:43Z</time>
      </trkpt>
      <trkpt lat="46.77578" lon="-1.05946">
        <ele>65</ele>
        <time>2022-09-05T11:45:46Z</time>
      </trkpt>
      <trkpt lat="46.77582" lon="-1.05958">
        <ele>65</ele>
        <time>2022-09-05T11:45:48Z</time>
      </trkpt>
      <trkpt lat="46.77596" lon="-1.05988">
        <ele>66</ele>
        <time>2022-09-05T11:45:52Z</time>
      </trkpt>
      <trkpt lat="46.77604" lon="-1.06001">
        <ele>66</ele>
        <time>2022-09-05T11:45:54Z</time>
      </trkpt>
      <trkpt lat="46.7762" lon="-1.0602">
        <ele>66</ele>
        <time>2022-09-05T11:45:58Z</time>
      </trkpt>
      <trkpt lat="46.77634" lon="-1.06032">
        <ele>66</ele>
        <time>2022-09-05T11:46:01Z</time>
      </trkpt>
      <trkpt lat="46.77652" lon="-1.06041">
        <ele>66</ele>
        <time>2022-09-05T11:46:04Z</time>
      </trkpt>
      <trkpt lat="46.77655" lon="-1.06033">
        <ele>65</ele>
        <time>2022-09-05T11:46:05Z</time>
      </trkpt>
      <trkpt lat="46.77662" lon="-1.06029">
        <ele>65</ele>
        <time>2022-09-05T11:46:07Z</time>
      </trkpt>
      <trkpt lat="46.77668" lon="-1.06031">
        <ele>65</ele>
        <time>2022-09-05T11:46:08Z</time>
      </trkpt>
      <trkpt lat="46.77673" lon="-1.06039">
        <ele>65</ele>
        <time>2022-09-05T11:46:09Z</time>
      </trkpt>
      <trkpt lat="46.77673" lon="-1.06048">
        <ele>66</ele>
        <time>2022-09-05T11:46:10Z</time>
      </trkpt>
      <trkpt lat="46.7767" lon="-1.06055">
        <ele>67</ele>
        <time>2022-09-05T11:46:11Z</time>
      </trkpt>
      <trkpt lat="46.77695" lon="-1.06094">
        <ele>70</ele>
        <time>2022-09-05T11:46:18Z</time>
      </trkpt>
      <trkpt lat="46.77767" lon="-1.06168">
        <ele>79</ele>
        <time>2022-09-05T11:46:33Z</time>
      </trkpt>
      <trkpt lat="46.77793" lon="-1.06192">
        <ele>83</ele>
        <time>2022-09-05T11:46:39Z</time>
      </trkpt>
      <trkpt lat="46.77801" lon="-1.06218">
        <ele>86</ele>
        <time>2022-09-05T11:46:42Z</time>
      </trkpt>
      <trkpt lat="46.77822" lon="-1.06268">
        <ele>91</ele>
        <time>2022-09-05T11:46:50Z</time>
      </trkpt>
      <trkpt lat="46.77831" lon="-1.06287">
        <ele>92</ele>
        <time>2022-09-05T11:46:52Z</time>
      </trkpt>
      <trkpt lat="46.77852" lon="-1.06313">
        <ele>94</ele>
        <time>2022-09-05T11:46:57Z</time>
      </trkpt>
      <trkpt lat="46.77863" lon="-1.06297">
        <ele>94</ele>
        <time>2022-09-05T11:47:00Z</time>
      </trkpt>
      <trkpt lat="46.77888" lon="-1.06283">
        <ele>95</ele>
        <time>2022-09-05T11:47:05Z</time>
      </trkpt>
      <trkpt lat="46.77952" lon="-1.06289">
        <ele>97</ele>
        <time>2022-09-05T11:47:16Z</time>
      </trkpt>
      <trkpt lat="46.78005" lon="-1.06265">
        <ele>97</ele>
        <time>2022-09-05T11:47:26Z</time>
      </trkpt>
      <trkpt lat="46.78023" lon="-1.06254">
        <ele>97</ele>
        <time>2022-09-05T11:47:30Z</time>
      </trkpt>
      <trkpt lat="46.78069" lon="-1.06218">
        <ele>97</ele>
        <time>2022-09-05T11:47:39Z</time>
      </trkpt>
      <trkpt lat="46.7809" lon="-1.06204">
        <ele>97</ele>
        <time>2022-09-05T11:47:43Z</time>
      </trkpt>
      <trkpt lat="46.7815" lon="-1.06186">
        <ele>99</ele>
        <time>2022-09-05T11:47:54Z</time>
      </trkpt>
      <trkpt lat="46.78161" lon="-1.06179">
        <ele>100</ele>
        <time>2022-09-05T11:47:56Z</time>
      </trkpt>
      <trkpt lat="46.78267" lon="-1.06092">
        <ele>100</ele>
        <time>2022-09-05T11:48:18Z</time>
      </trkpt>
      <trkpt lat="46.78288" lon="-1.06073">
        <ele>99</ele>
        <time>2022-09-05T11:48:22Z</time>
      </trkpt>
      <trkpt lat="46.78308" lon="-1.06058">
        <ele>99</ele>
        <time>2022-09-05T11:48:26Z</time>
      </trkpt>
      <trkpt lat="46.7832" lon="-1.06045">
        <ele>99</ele>
        <time>2022-09-05T11:48:29Z</time>
      </trkpt>
      <trkpt lat="46.78454" lon="-1.05871">
        <ele>103</ele>
        <time>2022-09-05T11:49:01Z</time>
      </trkpt>
      <trkpt lat="46.78429" lon="-1.05904">
        <ele>102</ele>
        <time>2022-09-05T11:49:07Z</time>
      </trkpt>
      <trkpt lat="46.78464" lon="-1.05958">
        <ele>103</ele>
        <time>2022-09-05T11:49:16Z</time>
      </trkpt>
      <trkpt lat="46.78472" lon="-1.05966">
        <ele>104</ele>
        <time>2022-09-05T11:49:17Z</time>
      </trkpt>
      <trkpt lat="46.78584" lon="-1.06007">
        <ele>109</ele>
        <time>2022-09-05T11:49:38Z</time>
      </trkpt>
      <trkpt lat="46.78571" lon="-1.06122">
        <ele>107</ele>
        <time>2022-09-05T11:49:52Z</time>
      </trkpt>
      <trkpt lat="46.78679" lon="-1.0616">
        <ele>109</ele>
        <time>2022-09-05T11:50:12Z</time>
      </trkpt>
      <trkpt lat="46.78695" lon="-1.06163">
        <ele>109</ele>
        <time>2022-09-05T11:50:15Z</time>
      </trkpt>
      <trkpt lat="46.78718" lon="-1.06159">
        <ele>110</ele>
        <time>2022-09-05T11:50:19Z</time>
      </trkpt>
      <trkpt lat="46.78796" lon="-1.06108">
        <ele>108</ele>
        <time>2022-09-05T11:50:34Z</time>
      </trkpt>
      <trkpt lat="46.78813" lon="-1.06101">
        <ele>107</ele>
        <time>2022-09-05T11:50:37Z</time>
      </trkpt>
      <trkpt lat="46.78844" lon="-1.061">
        <ele>106</ele>
        <time>2022-09-05T11:50:43Z</time>
      </trkpt>
      <trkpt lat="46.78884" lon="-1.0611">
        <ele>103</ele>
        <time>2022-09-05T11:50:50Z</time>
      </trkpt>
      <trkpt lat="46.7919" lon="-1.06265">
        <ele>91</ele>
        <time>2022-09-05T11:51:48Z</time>
      </trkpt>
      <trkpt lat="46.79414" lon="-1.06308">
        <ele>91</ele>
        <time>2022-09-05T11:52:28Z</time>
      </trkpt>
      <trkpt lat="46.79447" lon="-1.06313">
        <ele>90</ele>
        <time>2022-09-05T11:52:34Z</time>
      </trkpt>
      <trkpt lat="46.79475" lon="-1.06317">
        <ele>89</ele>
        <time>2022-09-05T11:52:39Z</time>
      </trkpt>
      <trkpt lat="46.79511" lon="-1.06311">
        <ele>88</ele>
        <time>2022-09-05T11:52:45Z</time>
      </trkpt>
      <trkpt lat="46.79745" lon="-1.06194">
        <ele>93</ele>
        <time>2022-09-05T11:53:29Z</time>
      </trkpt>
      <trkpt lat="46.79819" lon="-1.06184">
        <ele>92</ele>
        <time>2022-09-05T11:53:42Z</time>
      </trkpt>
      <trkpt lat="46.79865" lon="-1.06168">
        <ele>91</ele>
        <time>2022-09-05T11:53:51Z</time>
      </trkpt>
      <trkpt lat="46.79899" lon="-1.06141">
        <ele>90</ele>
        <time>2022-09-05T11:53:58Z</time>
      </trkpt>
      <trkpt lat="46.80055" lon="-1.05924">
        <ele>93</ele>
        <time>2022-09-05T11:54:36Z</time>
      </trkpt>
      <trkpt lat="46.80096" lon="-1.05906">
        <ele>93</ele>
        <time>2022-09-05T11:54:44Z</time>
      </trkpt>
      <trkpt lat="46.80128" lon="-1.05908">
        <ele>93</ele>
        <time>2022-09-05T11:54:49Z</time>
      </trkpt>
      <trkpt lat="46.8027" lon="-1.05952">
        <ele>91</ele>
        <time>2022-09-05T11:55:15Z</time>
      </trkpt>
      <trkpt lat="46.80299" lon="-1.05945">
        <ele>91</ele>
        <time>2022-09-05T11:55:20Z</time>
      </trkpt>
      <trkpt lat="46.80362" lon="-1.05897">
        <ele>91</ele>
        <time>2022-09-05T11:55:33Z</time>
      </trkpt>
      <trkpt lat="46.80452" lon="-1.05873">
        <ele>92</ele>
        <time>2022-09-05T11:55:49Z</time>
      </trkpt>
      <trkpt lat="46.80505" lon="-1.05841">
        <ele>93</ele>
        <time>2022-09-05T11:55:59Z</time>
      </trkpt>
      <trkpt lat="46.80548" lon="-1.05792">
        <ele>94</ele>
        <time>2022-09-05T11:56:09Z</time>
      </trkpt>
      <trkpt lat="46.80589" lon="-1.05729">
        <ele>93</ele>
        <time>2022-09-05T11:56:20Z</time>
      </trkpt>
      <trkpt lat="46.80695" lon="-1.05634">
        <ele>92</ele>
        <time>2022-09-05T11:56:42Z</time>
      </trkpt>
      <trkpt lat="46.80742" lon="-1.05581">
        <ele>93</ele>
        <time>2022-09-05T11:56:52Z</time>
      </trkpt>
      <trkpt lat="46.80841" lon="-1.0546">
        <ele>95</ele>
        <time>2022-09-05T11:57:15Z</time>
      </trkpt>
      <trkpt lat="46.80883" lon="-1.05433">
        <ele>96</ele>
        <time>2022-09-05T11:57:24Z</time>
      </trkpt>
      <trkpt lat="46.80927" lon="-1.05424">
        <ele>98</ele>
        <time>2022-09-05T11:57:32Z</time>
      </trkpt>
      <trkpt lat="46.80966" lon="-1.05438">
        <ele>99</ele>
        <time>2022-09-05T11:57:39Z</time>
      </trkpt>
      <trkpt lat="46.81007" lon="-1.05459">
        <ele>101</ele>
        <time>2022-09-05T11:57:46Z</time>
      </trkpt>
      <trkpt lat="46.81049" lon="-1.05457">
        <ele>102</ele>
        <time>2022-09-05T11:57:54Z</time>
      </trkpt>
      <trkpt lat="46.81145" lon="-1.05477">
        <ele>104</ele>
        <time>2022-09-05T11:58:11Z</time>
      </trkpt>
      <trkpt lat="46.81234" lon="-1.05501">
        <ele>104</ele>
        <time>2022-09-05T11:58:27Z</time>
      </trkpt>
      <trkpt lat="46.81284" lon="-1.05519">
        <ele>104</ele>
        <time>2022-09-05T11:58:36Z</time>
      </trkpt>
      <trkpt lat="46.81504" lon="-1.05612">
        <ele>105</ele>
        <time>2022-09-05T11:59:17Z</time>
      </trkpt>
      <trkpt lat="46.81562" lon="-1.05631">
        <ele>105</ele>
        <time>2022-09-05T11:59:28Z</time>
      </trkpt>
      <trkpt lat="46.81645" lon="-1.05652">
        <ele>104</ele>
        <time>2022-09-05T11:59:43Z</time>
      </trkpt>
      <trkpt lat="46.81876" lon="-1.0568">
        <ele>105</ele>
        <time>2022-09-05T12:00:24Z</time>
      </trkpt>
      <trkpt lat="46.81893" lon="-1.05678">
        <ele>105</ele>
        <time>2022-09-05T12:00:27Z</time>
      </trkpt>
      <trkpt lat="46.81923" lon="-1.05676">
        <ele>106</ele>
        <time>2022-09-05T12:00:32Z</time>
      </trkpt>
      <trkpt lat="46.82039" lon="-1.05625">
        <ele>113</ele>
        <time>2022-09-05T12:00:54Z</time>
      </trkpt>
      <trkpt lat="46.82102" lon="-1.05592">
        <ele>113</ele>
        <time>2022-09-05T12:01:06Z</time>
      </trkpt>
      <trkpt lat="46.82633" lon="-1.05345">
        <ele>109</ele>
        <time>2022-09-05T12:02:45Z</time>
      </trkpt>
      <trkpt lat="46.82853" lon="-1.05241">
        <ele>105</ele>
        <time>2022-09-05T12:03:26Z</time>
      </trkpt>
      <trkpt lat="46.82888" lon="-1.05223">
        <ele>103</ele>
        <time>2022-09-05T12:03:33Z</time>
      </trkpt>
      <trkpt lat="46.82935" lon="-1.05211">
        <ele>100</ele>
        <time>2022-09-05T12:03:41Z</time>
      </trkpt>
      <trkpt lat="46.82988" lon="-1.05205">
        <ele>100</ele>
        <time>2022-09-05T12:03:51Z</time>
      </trkpt>
      <trkpt lat="46.83203" lon="-1.05146">
        <ele>103</ele>
        <time>2022-09-05T12:04:30Z</time>
      </trkpt>
      <trkpt lat="46.83288" lon="-1.05117">
        <ele>104</ele>
        <time>2022-09-05T12:04:45Z</time>
      </trkpt>
      <trkpt lat="46.8333" lon="-1.05324">
        <ele>106</ele>
        <time>2022-09-05T12:05:11Z</time>
      </trkpt>
      <trkpt lat="46.83339" lon="-1.05377">
        <ele>106</ele>
        <time>2022-09-05T12:05:18Z</time>
      </trkpt>
      <trkpt lat="46.83342" lon="-1.05421">
        <ele>105</ele>
        <time>2022-09-05T12:05:23Z</time>
      </trkpt>
      <trkpt lat="46.83342" lon="-1.05451">
        <ele>105</ele>
        <time>2022-09-05T12:05:27Z</time>
      </trkpt>
      <trkpt lat="46.83334" lon="-1.05593">
        <ele>106</ele>
        <time>2022-09-05T12:05:44Z</time>
      </trkpt>
      <trkpt lat="46.83337" lon="-1.05627">
        <ele>105</ele>
        <time>2022-09-05T12:05:49Z</time>
      </trkpt>
      <trkpt lat="46.83344" lon="-1.05667">
        <ele>104</ele>
        <time>2022-09-05T12:05:54Z</time>
      </trkpt>
      <trkpt lat="46.83365" lon="-1.05761">
        <ele>104</ele>
        <time>2022-09-05T12:06:06Z</time>
      </trkpt>
      <trkpt lat="46.83376" lon="-1.058">
        <ele>105</ele>
        <time>2022-09-05T12:06:11Z</time>
      </trkpt>
      <trkpt lat="46.83403" lon="-1.0587">
        <ele>105</ele>
        <time>2022-09-05T12:06:21Z</time>
      </trkpt>
      <trkpt lat="46.83415" lon="-1.05906">
        <ele>105</ele>
        <time>2022-09-05T12:06:25Z</time>
      </trkpt>
      <trkpt lat="46.83427" lon="-1.05972">
        <ele>106</ele>
        <time>2022-09-05T12:06:34Z</time>
      </trkpt>
      <trkpt lat="46.83435" lon="-1.06004">
        <ele>106</ele>
        <time>2022-09-05T12:06:38Z</time>
      </trkpt>
      <trkpt lat="46.83442" lon="-1.06024">
        <ele>106</ele>
        <time>2022-09-05T12:06:41Z</time>
      </trkpt>
      <trkpt lat="46.83451" lon="-1.06041">
        <ele>105</ele>
        <time>2022-09-05T12:06:43Z</time>
      </trkpt>
      <trkpt lat="46.83465" lon="-1.06059">
        <ele>105</ele>
        <time>2022-09-05T12:06:47Z</time>
      </trkpt>
      <trkpt lat="46.83545" lon="-1.06144">
        <ele>104</ele>
        <time>2022-09-05T12:07:04Z</time>
      </trkpt>
      <trkpt lat="46.83612" lon="-1.06211">
        <ele>104</ele>
        <time>2022-09-05T12:07:19Z</time>
      </trkpt>
      <trkpt lat="46.83709" lon="-1.06315">
        <ele>104</ele>
        <time>2022-09-05T12:07:40Z</time>
      </trkpt>
      <trkpt lat="46.83723" lon="-1.06334">
        <ele>104</ele>
        <time>2022-09-05T12:07:43Z</time>
      </trkpt>
      <trkpt lat="46.83738" lon="-1.06364">
        <ele>104</ele>
        <time>2022-09-05T12:07:48Z</time>
      </trkpt>
      <trkpt lat="46.83771" lon="-1.06416">
        <ele>105</ele>
        <time>2022-09-05T12:07:57Z</time>
      </trkpt>
      <trkpt lat="46.83786" lon="-1.06447">
        <ele>105</ele>
        <time>2022-09-05T12:08:01Z</time>
      </trkpt>
      <trkpt lat="46.83798" lon="-1.06429">
        <ele>105</ele>
        <time>2022-09-05T12:08:04Z</time>
      </trkpt>
      <trkpt lat="46.83881" lon="-1.06276">
        <ele>102</ele>
        <time>2022-09-05T12:08:28Z</time>
      </trkpt>
      <trkpt lat="46.83889" lon="-1.06248">
        <ele>102</ele>
        <time>2022-09-05T12:08:32Z</time>
      </trkpt>
      <trkpt lat="46.83897" lon="-1.0617">
        <ele>100</ele>
        <time>2022-09-05T12:08:41Z</time>
      </trkpt>
      <trkpt lat="46.83902" lon="-1.06152">
        <ele>100</ele>
        <time>2022-09-05T12:08:44Z</time>
      </trkpt>
      <trkpt lat="46.83955" lon="-1.06058">
        <ele>97</ele>
        <time>2022-09-05T12:08:58Z</time>
      </trkpt>
      <trkpt lat="46.84055" lon="-1.05934">
        <ele>93</ele>
        <time>2022-09-05T12:09:22Z</time>
      </trkpt>
      <trkpt lat="46.84086" lon="-1.05902">
        <ele>91</ele>
        <time>2022-09-05T12:09:29Z</time>
      </trkpt>
      <trkpt lat="46.84141" lon="-1.0587">
        <ele>90</ele>
        <time>2022-09-05T12:09:39Z</time>
      </trkpt>
      <trkpt lat="46.84159" lon="-1.05855">
        <ele>90</ele>
        <time>2022-09-05T12:09:43Z</time>
      </trkpt>
      <trkpt lat="46.84174" lon="-1.05814">
        <ele>90</ele>
        <time>2022-09-05T12:09:48Z</time>
      </trkpt>
      <trkpt lat="46.84178" lon="-1.05767">
        <ele>91</ele>
        <time>2022-09-05T12:09:54Z</time>
      </trkpt>
      <trkpt lat="46.84185" lon="-1.05623">
        <ele>94</ele>
        <time>2022-09-05T12:10:12Z</time>
      </trkpt>
      <trkpt lat="46.84184" lon="-1.05497">
        <ele>95</ele>
        <time>2022-09-05T12:10:27Z</time>
      </trkpt>
      <trkpt lat="46.84189" lon="-1.05349">
        <ele>96</ele>
        <time>2022-09-05T12:10:45Z</time>
      </trkpt>
      <trkpt lat="46.8419" lon="-1.05201">
        <ele>96</ele>
        <time>2022-09-05T12:11:03Z</time>
      </trkpt>
      <trkpt lat="46.84232" lon="-1.05021">
        <ele>100</ele>
        <time>2022-09-05T12:11:26Z</time>
      </trkpt>
      <trkpt lat="46.84237" lon="-1.04969">
        <ele>101</ele>
        <time>2022-09-05T12:11:33Z</time>
      </trkpt>
      <trkpt lat="46.84267" lon="-1.0488">
        <ele>102</ele>
        <time>2022-09-05T12:11:45Z</time>
      </trkpt>
      <trkpt lat="46.84279" lon="-1.04849">
        <ele>103</ele>
        <time>2022-09-05T12:11:49Z</time>
      </trkpt>
      <trkpt lat="46.84305" lon="-1.0482">
        <ele>104</ele>
        <time>2022-09-05T12:11:55Z</time>
      </trkpt>
      <trkpt lat="46.84331" lon="-1.04787">
        <ele>105</ele>
        <time>2022-09-05T12:12:01Z</time>
      </trkpt>
      <trkpt lat="46.84355" lon="-1.04749">
        <ele>107</ele>
        <time>2022-09-05T12:12:07Z</time>
      </trkpt>
      <trkpt lat="46.84363" lon="-1.04722">
        <ele>107</ele>
        <time>2022-09-05T12:12:11Z</time>
      </trkpt>
      <trkpt lat="46.84365" lon="-1.04695">
        <ele>107</ele>
        <time>2022-09-05T12:12:14Z</time>
      </trkpt>
      <trkpt lat="46.84365" lon="-1.04656">
        <ele>107</ele>
        <time>2022-09-05T12:12:19Z</time>
      </trkpt>
      <trkpt lat="46.84361" lon="-1.04629">
        <ele>107</ele>
        <time>2022-09-05T12:12:22Z</time>
      </trkpt>
      <trkpt lat="46.84317" lon="-1.04461">
        <ele>106</ele>
        <time>2022-09-05T12:12:44Z</time>
      </trkpt>
      <trkpt lat="46.843" lon="-1.04375">
        <ele>107</ele>
        <time>2022-09-05T12:12:55Z</time>
      </trkpt>
      <trkpt lat="46.84289" lon="-1.04288">
        <ele>107</ele>
        <time>2022-09-05T12:13:06Z</time>
      </trkpt>
      <trkpt lat="46.84287" lon="-1.04214">
        <ele>107</ele>
        <time>2022-09-05T12:13:15Z</time>
      </trkpt>
      <trkpt lat="46.84289" lon="-1.04135">
        <ele>108</ele>
        <time>2022-09-05T12:13:25Z</time>
      </trkpt>
      <trkpt lat="46.84333" lon="-1.03764">
        <ele>108</ele>
        <time>2022-09-05T12:14:10Z</time>
      </trkpt>
      <trkpt lat="46.84348" lon="-1.03666">
        <ele>109</ele>
        <time>2022-09-05T12:14:23Z</time>
      </trkpt>
      <trkpt lat="46.8438" lon="-1.035">
        <ele>108</ele>
        <time>2022-09-05T12:14:44Z</time>
      </trkpt>
      <trkpt lat="46.84397" lon="-1.03446">
        <ele>108</ele>
        <time>2022-09-05T12:14:51Z</time>
      </trkpt>
      <trkpt lat="46.84435" lon="-1.03353">
        <ele>110</ele>
        <time>2022-09-05T12:15:04Z</time>
      </trkpt>
      <trkpt lat="46.84452" lon="-1.03297">
        <ele>110</ele>
        <time>2022-09-05T12:15:11Z</time>
      </trkpt>
      <trkpt lat="46.84466" lon="-1.03247">
        <ele>110</ele>
        <time>2022-09-05T12:15:18Z</time>
      </trkpt>
      <trkpt lat="46.84483" lon="-1.03207">
        <ele>110</ele>
        <time>2022-09-05T12:15:24Z</time>
      </trkpt>
      <trkpt lat="46.84488" lon="-1.03167">
        <ele>111</ele>
        <time>2022-09-05T12:15:29Z</time>
      </trkpt>
      <trkpt lat="46.84473" lon="-1.02984">
        <ele>111</ele>
        <time>2022-09-05T12:15:51Z</time>
      </trkpt>
      <trkpt lat="46.84467" lon="-1.02883">
        <ele>112</ele>
        <time>2022-09-05T12:16:03Z</time>
      </trkpt>
      <trkpt lat="46.84486" lon="-1.02776">
        <ele>112</ele>
        <time>2022-09-05T12:16:17Z</time>
      </trkpt>
      <trkpt lat="46.84493" lon="-1.02743">
        <ele>112</ele>
        <time>2022-09-05T12:16:21Z</time>
      </trkpt>
      <trkpt lat="46.84516" lon="-1.02659">
        <ele>112</ele>
        <time>2022-09-05T12:16:32Z</time>
      </trkpt>
      <trkpt lat="46.84548" lon="-1.0256">
        <ele>112</ele>
        <time>2022-09-05T12:16:45Z</time>
      </trkpt>
      <trkpt lat="46.84573" lon="-1.02476">
        <ele>113</ele>
        <time>2022-09-05T12:16:57Z</time>
      </trkpt>
      <trkpt lat="46.84603" lon="-1.02367">
        <ele>113</ele>
        <time>2022-09-05T12:17:11Z</time>
      </trkpt>
      <trkpt lat="46.84607" lon="-1.02343">
        <ele>112</ele>
        <time>2022-09-05T12:17:14Z</time>
      </trkpt>
      <trkpt lat="46.84607" lon="-1.02311">
        <ele>112</ele>
        <time>2022-09-05T12:17:18Z</time>
      </trkpt>
      <trkpt lat="46.84562" lon="-1.01761">
        <ele>106</ele>
        <time>2022-09-05T12:18:25Z</time>
      </trkpt>
      <trkpt lat="46.84555" lon="-1.01712">
        <ele>107</ele>
        <time>2022-09-05T12:18:31Z</time>
      </trkpt>
      <trkpt lat="46.84549" lon="-1.01687">
        <ele>108</ele>
        <time>2022-09-05T12:18:35Z</time>
      </trkpt>
      <trkpt lat="46.84533" lon="-1.01657">
        <ele>109</ele>
        <time>2022-09-05T12:18:39Z</time>
      </trkpt>
      <trkpt lat="46.84511" lon="-1.01619">
        <ele>110</ele>
        <time>2022-09-05T12:18:45Z</time>
      </trkpt>
      <trkpt lat="46.84499" lon="-1.01594">
        <ele>110</ele>
        <time>2022-09-05T12:18:49Z</time>
      </trkpt>
      <trkpt lat="46.84494" lon="-1.01579">
        <ele>110</ele>
        <time>2022-09-05T12:18:51Z</time>
      </trkpt>
      <trkpt lat="46.84491" lon="-1.01563">
        <ele>110</ele>
        <time>2022-09-05T12:18:53Z</time>
      </trkpt>
      <trkpt lat="46.84492" lon="-1.01535">
        <ele>110</ele>
        <time>2022-09-05T12:18:56Z</time>
      </trkpt>
      <trkpt lat="46.84498" lon="-1.01511">
        <ele>109</ele>
        <time>2022-09-05T12:18:59Z</time>
      </trkpt>
      <trkpt lat="46.84511" lon="-1.01492">
        <ele>109</ele>
        <time>2022-09-05T12:19:03Z</time>
      </trkpt>
      <trkpt lat="46.84522" lon="-1.01506">
        <ele>109</ele>
        <time>2022-09-05T12:19:05Z</time>
      </trkpt>
      <trkpt lat="46.84539" lon="-1.01512">
        <ele>109</ele>
        <time>2022-09-05T12:19:08Z</time>
      </trkpt>
      <trkpt lat="46.84544" lon="-1.01497">
        <ele>109</ele>
        <time>2022-09-05T12:19:10Z</time>
      </trkpt>
      <trkpt lat="46.84554" lon="-1.01488">
        <ele>109</ele>
        <time>2022-09-05T12:19:13Z</time>
      </trkpt>
      <trkpt lat="46.84526" lon="-1.01278">
        <ele>108</ele>
        <time>2022-09-05T12:19:39Z</time>
      </trkpt>
      <trkpt lat="46.84498" lon="-1.01031">
        <ele>108</ele>
        <time>2022-09-05T12:20:09Z</time>
      </trkpt>
      <trkpt lat="46.84493" lon="-1.00962">
        <ele>109</ele>
        <time>2022-09-05T12:20:18Z</time>
      </trkpt>
      <trkpt lat="46.84491" lon="-1.00879">
        <ele>110</ele>
        <time>2022-09-05T12:20:28Z</time>
      </trkpt>
      <trkpt lat="46.84487" lon="-1.00498">
        <ele>111</ele>
        <time>2022-09-05T12:21:14Z</time>
      </trkpt>
      <trkpt lat="46.84478" lon="-1.00494">
        <ele>112</ele>
        <time>2022-09-05T12:21:16Z</time>
      </trkpt>
      <trkpt lat="46.84474" lon="-1.0049">
        <ele>112</ele>
        <time>2022-09-05T12:21:17Z</time>
      </trkpt>
      <trkpt lat="46.84472" lon="-1.00484">
        <ele>112</ele>
        <time>2022-09-05T12:21:17Z</time>
      </trkpt>
      <trkpt lat="46.8447" lon="-1.00471">
        <ele>112</ele>
        <time>2022-09-05T12:21:19Z</time>
      </trkpt>
      <trkpt lat="46.84474" lon="-1.00458">
        <ele>112</ele>
        <time>2022-09-05T12:21:21Z</time>
      </trkpt>
      <trkpt lat="46.84477" lon="-1.00454">
        <ele>112</ele>
        <time>2022-09-05T12:21:21Z</time>
      </trkpt>
      <trkpt lat="46.84486" lon="-1.0045">
        <ele>111</ele>
        <time>2022-09-05T12:21:23Z</time>
      </trkpt>
      <trkpt lat="46.84483" lon="-1.00417">
        <ele>112</ele>
        <time>2022-09-05T12:21:27Z</time>
      </trkpt>
      <trkpt lat="46.84441" lon="-0.9972">
        <ele>115</ele>
        <time>2022-09-05T12:22:52Z</time>
      </trkpt>
      <trkpt lat="46.84438" lon="-0.99599">
        <ele>115</ele>
        <time>2022-09-05T12:23:07Z</time>
      </trkpt>
      <trkpt lat="46.8444" lon="-0.99534">
        <ele>115</ele>
        <time>2022-09-05T12:23:15Z</time>
      </trkpt>
      <trkpt lat="46.84452" lon="-0.99424">
        <ele>114</ele>
        <time>2022-09-05T12:23:29Z</time>
      </trkpt>
      <trkpt lat="46.84461" lon="-0.99377">
        <ele>114</ele>
        <time>2022-09-05T12:23:34Z</time>
      </trkpt>
      <trkpt lat="46.84476" lon="-0.99306">
        <ele>115</ele>
        <time>2022-09-05T12:23:44Z</time>
      </trkpt>
      <trkpt lat="46.84487" lon="-0.99264">
        <ele>115</ele>
        <time>2022-09-05T12:23:49Z</time>
      </trkpt>
      <trkpt lat="46.84501" lon="-0.99221">
        <ele>115</ele>
        <time>2022-09-05T12:23:55Z</time>
      </trkpt>
      <trkpt lat="46.84524" lon="-0.99157">
        <ele>116</ele>
        <time>2022-09-05T12:24:04Z</time>
      </trkpt>
      <trkpt lat="46.84549" lon="-0.991">
        <ele>118</ele>
        <time>2022-09-05T12:24:12Z</time>
      </trkpt>
      <trkpt lat="46.84576" lon="-0.99044">
        <ele>119</ele>
        <time>2022-09-05T12:24:20Z</time>
      </trkpt>
      <trkpt lat="46.84575" lon="-0.99037">
        <ele>119</ele>
        <time>2022-09-05T12:24:21Z</time>
      </trkpt>
      <trkpt lat="46.84553" lon="-0.99003">
        <ele>120</ele>
        <time>2022-09-05T12:24:27Z</time>
      </trkpt>
      <trkpt lat="46.8454" lon="-0.99039">
        <ele>119</ele>
        <time>2022-09-05T12:24:32Z</time>
      </trkpt>
      <trkpt lat="46.84535" lon="-0.99081">
        <ele>118</ele>
        <time>2022-09-05T12:24:37Z</time>
      </trkpt>
      <trkpt lat="46.8453" lon="-0.99095">
        <ele>117</ele>
        <time>2022-09-05T12:24:39Z</time>
      </trkpt>
      <trkpt lat="46.84509" lon="-0.9915">
        <ele>116</ele>
        <time>2022-09-05T12:24:46Z</time>
      </trkpt>
      <trkpt lat="46.84499" lon="-0.99167">
        <ele>116</ele>
        <time>2022-09-05T12:24:49Z</time>
      </trkpt>
      <trkpt lat="46.84489" lon="-0.99175">
        <ele>116</ele>
        <time>2022-09-05T12:24:51Z</time>
      </trkpt>
      <trkpt lat="46.84427" lon="-0.99219">
        <ele>115</ele>
        <time>2022-09-05T12:25:03Z</time>
      </trkpt>
      <trkpt lat="46.84203" lon="-0.99335">
        <ele>120</ele>
        <time>2022-09-05T12:25:46Z</time>
      </trkpt>
      <trkpt lat="46.84113" lon="-0.99415">
        <ele>122</ele>
        <time>2022-09-05T12:26:05Z</time>
      </trkpt>
      <trkpt lat="46.84105" lon="-0.99402">
        <ele>123</ele>
        <time>2022-09-05T12:26:07Z</time>
      </trkpt>
      <trkpt lat="46.84061" lon="-0.99338">
        <ele>123</ele>
        <time>2022-09-05T12:26:18Z</time>
      </trkpt>
      <trkpt lat="46.84033" lon="-0.99306">
        <ele>123</ele>
        <time>2022-09-05T12:26:24Z</time>
      </trkpt>
      <trkpt lat="46.83841" lon="-0.99278">
        <ele>127</ele>
        <time>2022-09-05T12:26:58Z</time>
      </trkpt>
      <trkpt lat="46.83762" lon="-0.99259">
        <ele>126</ele>
        <time>2022-09-05T12:27:13Z</time>
      </trkpt>
      <trkpt lat="46.83692" lon="-0.99259">
        <ele>125</ele>
        <time>2022-09-05T12:27:25Z</time>
      </trkpt>
      <trkpt lat="46.83615" lon="-0.99273">
        <ele>121</ele>
        <time>2022-09-05T12:27:39Z</time>
      </trkpt>
      <trkpt lat="46.83505" lon="-0.99278">
        <ele>117</ele>
        <time>2022-09-05T12:27:58Z</time>
      </trkpt>
      <trkpt lat="46.83458" lon="-0.99284">
        <ele>116</ele>
        <time>2022-09-05T12:28:07Z</time>
      </trkpt>
      <trkpt lat="46.83464" lon="-0.99228">
        <ele>116</ele>
        <time>2022-09-05T12:28:14Z</time>
      </trkpt>
      <trkpt lat="46.83464" lon="-0.99171">
        <ele>116</ele>
        <time>2022-09-05T12:28:21Z</time>
      </trkpt>
      <trkpt lat="46.83444" lon="-0.99126">
        <ele>114</ele>
        <time>2022-09-05T12:28:27Z</time>
      </trkpt>
      <trkpt lat="46.8345" lon="-0.98967">
        <ele>113</ele>
        <time>2022-09-05T12:28:47Z</time>
      </trkpt>
      <trkpt lat="46.83456" lon="-0.98897">
        <ele>112</ele>
        <time>2022-09-05T12:28:55Z</time>
      </trkpt>
      <trkpt lat="46.83457" lon="-0.98881">
        <ele>112</ele>
        <time>2022-09-05T12:28:57Z</time>
      </trkpt>
      <trkpt lat="46.83455" lon="-0.98818">
        <ele>111</ele>
        <time>2022-09-05T12:29:05Z</time>
      </trkpt>
      <trkpt lat="46.8343" lon="-0.9856">
        <ele>110</ele>
        <time>2022-09-05T12:29:37Z</time>
      </trkpt>
      <trkpt lat="46.8348" lon="-0.98364">
        <ele>111</ele>
        <time>2022-09-05T12:30:02Z</time>
      </trkpt>
      <trkpt lat="46.83496" lon="-0.98291">
        <ele>110</ele>
        <time>2022-09-05T12:30:11Z</time>
      </trkpt>
      <trkpt lat="46.83509" lon="-0.98229">
        <ele>110</ele>
        <time>2022-09-05T12:30:19Z</time>
      </trkpt>
      <trkpt lat="46.83539" lon="-0.98166">
        <ele>111</ele>
        <time>2022-09-05T12:30:29Z</time>
      </trkpt>
      <trkpt lat="46.83559" lon="-0.98111">
        <ele>111</ele>
        <time>2022-09-05T12:30:36Z</time>
      </trkpt>
      <trkpt lat="46.83582" lon="-0.98077">
        <ele>112</ele>
        <time>2022-09-05T12:30:42Z</time>
      </trkpt>
      <trkpt lat="46.8364" lon="-0.9802">
        <ele>111</ele>
        <time>2022-09-05T12:30:54Z</time>
      </trkpt>
      <trkpt lat="46.83676" lon="-0.97931">
        <ele>110</ele>
        <time>2022-09-05T12:31:07Z</time>
      </trkpt>
      <trkpt lat="46.83716" lon="-0.97866">
        <ele>109</ele>
        <time>2022-09-05T12:31:18Z</time>
      </trkpt>
      <trkpt lat="46.83754" lon="-0.97816">
        <ele>109</ele>
        <time>2022-09-05T12:31:27Z</time>
      </trkpt>
      <trkpt lat="46.83784" lon="-0.97785">
        <ele>108</ele>
        <time>2022-09-05T12:31:33Z</time>
      </trkpt>
      <trkpt lat="46.83877" lon="-0.97717">
        <ele>111</ele>
        <time>2022-09-05T12:31:52Z</time>
      </trkpt>
      <trkpt lat="46.83937" lon="-0.9768">
        <ele>113</ele>
        <time>2022-09-05T12:32:03Z</time>
      </trkpt>
      <trkpt lat="46.83951" lon="-0.97729">
        <ele>114</ele>
        <time>2022-09-05T12:32:10Z</time>
      </trkpt>
      <trkpt lat="46.84036" lon="-0.97946">
        <ele>119</ele>
        <time>2022-09-05T12:32:40Z</time>
      </trkpt>
      <trkpt lat="46.84043" lon="-0.9798">
        <ele>119</ele>
        <time>2022-09-05T12:32:45Z</time>
      </trkpt>
      <trkpt lat="46.84047" lon="-0.98032">
        <ele>118</ele>
        <time>2022-09-05T12:32:51Z</time>
      </trkpt>
      <trkpt lat="46.84047" lon="-0.98083">
        <ele>118</ele>
        <time>2022-09-05T12:32:57Z</time>
      </trkpt>
      <trkpt lat="46.84053" lon="-0.98132">
        <ele>119</ele>
        <time>2022-09-05T12:33:03Z</time>
      </trkpt>
      <trkpt lat="46.84094" lon="-0.9822">
        <ele>121</ele>
        <time>2022-09-05T12:33:16Z</time>
      </trkpt>
      <trkpt lat="46.84154" lon="-0.98312">
        <ele>122</ele>
        <time>2022-09-05T12:33:32Z</time>
      </trkpt>
      <trkpt lat="46.84229" lon="-0.9842">
        <ele>123</ele>
        <time>2022-09-05T12:33:50Z</time>
      </trkpt>
      <trkpt lat="46.84289" lon="-0.98505">
        <ele>123</ele>
        <time>2022-09-05T12:34:05Z</time>
      </trkpt>
      <trkpt lat="46.84311" lon="-0.98541">
        <ele>122</ele>
        <time>2022-09-05T12:34:11Z</time>
      </trkpt>
      <trkpt lat="46.84344" lon="-0.98602">
        <ele>121</ele>
        <time>2022-09-05T12:34:21Z</time>
      </trkpt>
      <trkpt lat="46.84399" lon="-0.98695">
        <ele>120</ele>
        <time>2022-09-05T12:34:36Z</time>
      </trkpt>
      <trkpt lat="46.84464" lon="-0.98785">
        <ele>121</ele>
        <time>2022-09-05T12:34:51Z</time>
      </trkpt>
      <trkpt lat="46.84508" lon="-0.9886">
        <ele>122</ele>
        <time>2022-09-05T12:35:03Z</time>
      </trkpt>
      <trkpt lat="46.84521" lon="-0.9892">
        <ele>121</ele>
        <time>2022-09-05T12:35:11Z</time>
      </trkpt>
      <trkpt lat="46.84528" lon="-0.98942">
        <ele>120</ele>
        <time>2022-09-05T12:35:14Z</time>
      </trkpt>
      <trkpt lat="46.8454" lon="-0.98962">
        <ele>120</ele>
        <time>2022-09-05T12:35:17Z</time>
      </trkpt>
      <trkpt lat="46.84548" lon="-0.98968">
        <ele>120</ele>
        <time>2022-09-05T12:35:19Z</time>
      </trkpt>
      <trkpt lat="46.8457" lon="-0.9897">
        <ele>122</ele>
      </trkpt>
      <trkpt lat="46.84588" lon="-0.98962">
        <ele>122.1</ele>
      </trkpt>
      <trkpt lat="46.84607" lon="-0.9894">
        <ele>122.9</ele>
      </trkpt>
      <trkpt lat="46.84639" lon="-0.98902">
        <ele>123</ele>
      </trkpt>
      <trkpt lat="46.84713" lon="-0.98814">
        <ele>122.4</ele>
      </trkpt>
      <trkpt lat="46.84737" lon="-0.98768">
        <ele>121.8</ele>
      </trkpt>
      <trkpt lat="46.84765" lon="-0.98707">
        <ele>121</ele>
      </trkpt>
      <trkpt lat="46.84783" lon="-0.98693">
        <ele>121.9</ele>
      </trkpt>
      <trkpt lat="46.84806" lon="-0.98694">
        <ele>122</ele>
      </trkpt>
      <trkpt lat="46.84831" lon="-0.98706">
        <ele>122.9</ele>
      </trkpt>
      <trkpt lat="46.84841" lon="-0.98707">
        <ele>123</ele>
      </trkpt>
      <trkpt lat="46.84862" lon="-0.987">
        <ele>122.9</ele>
      </trkpt>
      <trkpt lat="46.84875" lon="-0.98716">
        <ele>122.8</ele>
      </trkpt>
      <trkpt lat="46.84883" lon="-0.98738">
        <ele>123.1</ele>
      </trkpt>
      <trkpt lat="46.84876" lon="-0.98769">
        <ele>122.8</ele>
      </trkpt>
      <trkpt lat="46.84861" lon="-0.98778">
        <ele>123</ele>
      </trkpt>
      <trkpt lat="46.84854" lon="-0.98795">
        <ele>123</ele>
      </trkpt>
      <trkpt lat="46.8486" lon="-0.98856">
        <ele>122.1</ele>
      </trkpt>
      <trkpt lat="46.84862" lon="-0.98898">
        <ele>121.3</ele>
      </trkpt>
      <trkpt lat="46.84854" lon="-0.98912">
        <ele>121.9</ele>
      </trkpt>
      <trkpt lat="46.84831" lon="-0.98923">
        <ele>122.1</ele>
      </trkpt>
      <trkpt lat="46.84798" lon="-0.98934">
        <ele>123.3</ele>
      </trkpt>
      <trkpt lat="46.84747" lon="-0.98966">
        <ele>123</ele>
        <time>2022-09-05T12:35:21Z</time>
      </trkpt>
      <trkpt lat="46.84669" lon="-0.99021">
        <ele>121.9</ele>
      </trkpt>
      <trkpt lat="46.84609" lon="-0.99057">
        <ele>120.9</ele>
      </trkpt>
      <trkpt lat="46.84594" lon="-0.99073">
        <ele>120.4</ele>
        <time>2022-09-05T12:35:37Z</time>
      </trkpt>
      <trkpt lat="46.84599" lon="-0.99089">
        <ele>119</ele>
        <time>2022-09-05T12:35:39Z</time>
      </trkpt>
      <trkpt lat="46.84602" lon="-0.99095">
        <ele>119</ele>
        <time>2022-09-05T12:35:40Z</time>
      </trkpt>
      <trkpt lat="46.84631" lon="-0.99149">
        <ele>118</ele>
        <time>2022-09-05T12:35:48Z</time>
      </trkpt>
      <trkpt lat="46.84647" lon="-0.99183">
        <ele>118</ele>
        <time>2022-09-05T12:35:53Z</time>
      </trkpt>
      <trkpt lat="46.84656" lon="-0.99211">
        <ele>118</ele>
        <time>2022-09-05T12:35:57Z</time>
      </trkpt>
      <trkpt lat="46.84669" lon="-0.99265">
        <ele>118</ele>
        <time>2022-09-05T12:36:04Z</time>
      </trkpt>
      <trkpt lat="46.84702" lon="-0.99372">
        <ele>118</ele>
        <time>2022-09-05T12:36:18Z</time>
      </trkpt>
      <trkpt lat="46.84713" lon="-0.9939">
        <ele>118</ele>
        <time>2022-09-05T12:36:21Z</time>
      </trkpt>
      <trkpt lat="46.84727" lon="-0.99409">
        <ele>118</ele>
        <time>2022-09-05T12:36:25Z</time>
      </trkpt>
      <trkpt lat="46.84777" lon="-0.99461">
        <ele>118</ele>
        <time>2022-09-05T12:36:36Z</time>
      </trkpt>
      <trkpt lat="46.84793" lon="-0.99482">
        <ele>118</ele>
        <time>2022-09-05T12:36:39Z</time>
      </trkpt>
      <trkpt lat="46.84839" lon="-0.99564">
        <ele>117</ele>
        <time>2022-09-05T12:36:52Z</time>
      </trkpt>
      <trkpt lat="46.84917" lon="-0.99712">
        <ele>116</ele>
        <time>2022-09-05T12:37:15Z</time>
      </trkpt>
      <trkpt lat="46.84934" lon="-0.99752">
        <ele>116</ele>
        <time>2022-09-05T12:37:21Z</time>
      </trkpt>
      <trkpt lat="46.84961" lon="-0.99833">
        <ele>116</ele>
        <time>2022-09-05T12:37:32Z</time>
      </trkpt>
      <trkpt lat="46.84967" lon="-0.9986">
        <ele>116</ele>
        <time>2022-09-05T12:37:35Z</time>
      </trkpt>
      <trkpt lat="46.84967" lon="-0.99881">
        <ele>116</ele>
        <time>2022-09-05T12:37:38Z</time>
      </trkpt>
      <trkpt lat="46.84961" lon="-0.99972">
        <ele>114</ele>
        <time>2022-09-05T12:37:49Z</time>
      </trkpt>
      <trkpt lat="46.8496" lon="-1.00028">
        <ele>114</ele>
        <time>2022-09-05T12:37:56Z</time>
      </trkpt>
      <trkpt lat="46.84964" lon="-1.00089">
        <ele>113</ele>
        <time>2022-09-05T12:38:03Z</time>
      </trkpt>
      <trkpt lat="46.84978" lon="-1.00147">
        <ele>114</ele>
        <time>2022-09-05T12:38:11Z</time>
      </trkpt>
      <trkpt lat="46.85009" lon="-1.00252">
        <ele>113</ele>
        <time>2022-09-05T12:38:25Z</time>
      </trkpt>
      <trkpt lat="46.85019" lon="-1.0028">
        <ele>113</ele>
        <time>2022-09-05T12:38:28Z</time>
      </trkpt>
      <trkpt lat="46.85078" lon="-1.00408">
        <ele>111</ele>
        <time>2022-09-05T12:38:47Z</time>
      </trkpt>
      <trkpt lat="46.85078" lon="-1.00416">
        <ele>111</ele>
        <time>2022-09-05T12:38:48Z</time>
      </trkpt>
      <trkpt lat="46.85076" lon="-1.00424">
        <ele>111</ele>
        <time>2022-09-05T12:38:49Z</time>
      </trkpt>
      <trkpt lat="46.85102" lon="-1.0044">
        <ele>110</ele>
        <time>2022-09-05T12:38:54Z</time>
      </trkpt>
      <trkpt lat="46.85261" lon="-1.00556">
        <ele>110</ele>
        <time>2022-09-05T12:39:26Z</time>
      </trkpt>
      <trkpt lat="46.85285" lon="-1.00572">
        <ele>110</ele>
        <time>2022-09-05T12:39:31Z</time>
      </trkpt>
      <trkpt lat="46.8534" lon="-1.00587">
        <ele>109</ele>
        <time>2022-09-05T12:39:40Z</time>
      </trkpt>
      <trkpt lat="46.85442" lon="-1.00633">
        <ele>108</ele>
        <time>2022-09-05T12:39:59Z</time>
      </trkpt>
      <trkpt lat="46.85483" lon="-1.00655">
        <ele>108</ele>
        <time>2022-09-05T12:40:07Z</time>
      </trkpt>
      <trkpt lat="46.85539" lon="-1.00693">
        <ele>108</ele>
        <time>2022-09-05T12:40:18Z</time>
      </trkpt>
      <trkpt lat="46.85562" lon="-1.00711">
        <ele>108</ele>
        <time>2022-09-05T12:40:23Z</time>
      </trkpt>
      <trkpt lat="46.85689" lon="-1.0083">
        <ele>112</ele>
        <time>2022-09-05T12:40:50Z</time>
      </trkpt>
      <trkpt lat="46.85838" lon="-1.00917">
        <ele>113</ele>
        <time>2022-09-05T12:41:18Z</time>
      </trkpt>
      <trkpt lat="46.8584" lon="-1.00911">
        <ele>113</ele>
        <time>2022-09-05T12:41:19Z</time>
      </trkpt>
      <trkpt lat="46.85848" lon="-1.00905">
        <ele>113</ele>
        <time>2022-09-05T12:41:21Z</time>
      </trkpt>
      <trkpt lat="46.85852" lon="-1.00904">
        <ele>113</ele>
        <time>2022-09-05T12:41:21Z</time>
      </trkpt>
      <trkpt lat="46.85873" lon="-1.00879">
        <ele>113</ele>
        <time>2022-09-05T12:41:26Z</time>
      </trkpt>
      <trkpt lat="46.85992" lon="-1.00579">
        <ele>113</ele>
        <time>2022-09-05T12:42:08Z</time>
      </trkpt>
      <trkpt lat="46.86004" lon="-1.00541">
        <ele>114</ele>
        <time>2022-09-05T12:42:13Z</time>
      </trkpt>
      <trkpt lat="46.86041" lon="-1.00409">
        <ele>115</ele>
        <time>2022-09-05T12:42:31Z</time>
      </trkpt>
      <trkpt lat="46.8614" lon="-1.00467">
        <ele>116</ele>
        <time>2022-09-05T12:42:50Z</time>
      </trkpt>
      <trkpt lat="46.8617" lon="-1.00489">
        <ele>115</ele>
        <time>2022-09-05T12:42:56Z</time>
      </trkpt>
      <trkpt lat="46.86189" lon="-1.00512">
        <ele>115</ele>
        <time>2022-09-05T12:43:00Z</time>
      </trkpt>
      <trkpt lat="46.86228" lon="-1.00664">
        <ele>117</ele>
        <time>2022-09-05T12:43:20Z</time>
      </trkpt>
      <trkpt lat="46.86234" lon="-1.00681">
        <ele>117</ele>
        <time>2022-09-05T12:43:22Z</time>
      </trkpt>
      <trkpt lat="46.8627" lon="-1.00662">
        <ele>118</ele>
        <time>2022-09-05T12:43:29Z</time>
      </trkpt>
      <trkpt lat="46.86315" lon="-1.00632">
        <ele>119</ele>
        <time>2022-09-05T12:43:38Z</time>
      </trkpt>
      <trkpt lat="46.86335" lon="-1.00614">
        <ele>119</ele>
        <time>2022-09-05T12:43:42Z</time>
      </trkpt>
      <trkpt lat="46.86375" lon="-1.0057">
        <ele>120</ele>
        <time>2022-09-05T12:43:51Z</time>
      </trkpt>
    </trkseg>
  </trk>
</gpx>